<?xml version="1.0" encoding="UTF-8" standalone="no" ?>
<gpx xmlns="http://www.topografix.com/GPX/1/1" xmlns:xsi="http://www.w3.org/2001/XMLSchema-instance" xsi:schemaLocation="http://www.topografix.com/GPX/1/1 http://www.topografix.com/GPX/1/1/gpx.xsd" version="1.1" creator="VisuGPX - https://www.visugpx.com">
  <metadata>
    <name>marche du 8 mai</name>
    <desc><![CDATA[petite randonnée sur pont audemer]]></desc>
  </metadata>
  <trk>
    <name><![CDATA[ACTIVE LOG 019]]></name>
    <trkseg>
      <trkpt lat="49.35522" lon="0.51646">
        <ele>11.1925049</ele>
        <time>2014-05-08T06:50:34Z</time>
      </trkpt>
      <trkpt lat="49.35516" lon="0.51644">
        <ele>18.4023438</ele>
        <time>2014-05-08T06:50:52Z</time>
      </trkpt>
      <trkpt lat="49.35516" lon="0.51644">
        <ele>17.9217529</ele>
        <time>2014-05-08T06:50:54Z</time>
      </trkpt>
      <trkpt lat="49.35511" lon="0.51642">
        <ele>15.5184326</ele>
        <time>2014-05-08T06:51:03Z</time>
      </trkpt>
      <trkpt lat="49.35509" lon="0.51638">
        <ele>14.5570068</ele>
        <time>2014-05-08T06:51:14Z</time>
      </trkpt>
      <trkpt lat="49.35507" lon="0.51636">
        <ele>14.5570068</ele>
        <time>2014-05-08T06:51:16Z</time>
      </trkpt>
      <trkpt lat="49.35505" lon="0.51629">
        <ele>15.0377197</ele>
        <time>2014-05-08T06:51:22Z</time>
      </trkpt>
      <trkpt lat="49.35501" lon="0.51625">
        <ele>15.5184326</ele>
        <time>2014-05-08T06:51:30Z</time>
      </trkpt>
      <trkpt lat="49.35496" lon="0.51621">
        <ele>15.9990234</ele>
        <time>2014-05-08T06:51:38Z</time>
      </trkpt>
      <trkpt lat="49.35483" lon="0.5161">
        <ele>16.9604492</ele>
        <time>2014-05-08T06:52:13Z</time>
      </trkpt>
      <trkpt lat="49.35479" lon="0.51601">
        <ele>13.1151123</ele>
        <time>2014-05-08T06:54:12Z</time>
      </trkpt>
      <trkpt lat="49.35477" lon="0.51604">
        <ele>13.1151123</ele>
        <time>2014-05-08T06:54:23Z</time>
      </trkpt>
      <trkpt lat="49.35473" lon="0.51604">
        <ele>13.1151123</ele>
        <time>2014-05-08T06:54:34Z</time>
      </trkpt>
      <trkpt lat="49.35466" lon="0.51601">
        <ele>12.1538086</ele>
        <time>2014-05-08T06:54:44Z</time>
      </trkpt>
      <trkpt lat="49.35464" lon="0.51601">
        <ele>12.6343994</ele>
        <time>2014-05-08T06:54:51Z</time>
      </trkpt>
      <trkpt lat="49.35462" lon="0.51599">
        <ele>13.1151123</ele>
        <time>2014-05-08T06:54:55Z</time>
      </trkpt>
      <trkpt lat="49.3546" lon="0.51599">
        <ele>13.1151123</ele>
        <time>2014-05-08T06:54:58Z</time>
      </trkpt>
      <trkpt lat="49.35456" lon="0.51595">
        <ele>13.5958252</ele>
        <time>2014-05-08T06:55:02Z</time>
      </trkpt>
      <trkpt lat="49.35453" lon="0.51586">
        <ele>13.1151123</ele>
        <time>2014-05-08T06:55:08Z</time>
      </trkpt>
      <trkpt lat="49.35449" lon="0.51582">
        <ele>13.1151123</ele>
        <time>2014-05-08T06:55:16Z</time>
      </trkpt>
      <trkpt lat="49.35447" lon="0.51582">
        <ele>12.6343994</ele>
        <time>2014-05-08T06:55:17Z</time>
      </trkpt>
      <trkpt lat="49.35441" lon="0.51578">
        <ele>12.1538086</ele>
        <time>2014-05-08T06:55:26Z</time>
      </trkpt>
      <trkpt lat="49.35436" lon="0.51576">
        <ele>9.7506104</ele>
        <time>2014-05-08T06:55:32Z</time>
      </trkpt>
      <trkpt lat="49.35428" lon="0.51578">
        <ele>7.8278809</ele>
        <time>2014-05-08T06:55:39Z</time>
      </trkpt>
      <trkpt lat="49.35421" lon="0.51584">
        <ele>4.4632568</ele>
        <time>2014-05-08T06:55:49Z</time>
      </trkpt>
      <trkpt lat="49.35417" lon="0.51591">
        <ele>2.5406494</ele>
        <time>2014-05-08T06:55:56Z</time>
      </trkpt>
      <trkpt lat="49.35413" lon="0.51601">
        <ele>0.1374512</ele>
        <time>2014-05-08T06:56:05Z</time>
      </trkpt>
      <trkpt lat="49.35411" lon="0.51604">
        <ele>-0.8240967</ele>
        <time>2014-05-08T06:56:10Z</time>
      </trkpt>
      <trkpt lat="49.35406" lon="0.51606">
        <ele>-3.7078857</ele>
        <time>2014-05-08T06:56:16Z</time>
      </trkpt>
      <trkpt lat="49.35404" lon="0.51604">
        <ele>-4.1885986</ele>
        <time>2014-05-08T06:56:19Z</time>
      </trkpt>
      <trkpt lat="49.35404" lon="0.51601">
        <ele>-4.6693115</ele>
        <time>2014-05-08T06:56:21Z</time>
      </trkpt>
      <trkpt lat="49.354" lon="0.51593">
        <ele>-7.5531006</ele>
        <time>2014-05-08T06:56:29Z</time>
      </trkpt>
      <trkpt lat="49.35395" lon="0.51582">
        <ele>-12.3598633</ele>
        <time>2014-05-08T06:56:39Z</time>
      </trkpt>
      <trkpt lat="49.35393" lon="0.51578">
        <ele>-14.7630615</ele>
        <time>2014-05-08T06:56:43Z</time>
      </trkpt>
      <trkpt lat="49.35391" lon="0.51569">
        <ele>-17.6470947</ele>
        <time>2014-05-08T06:56:49Z</time>
      </trkpt>
      <trkpt lat="49.35385" lon="0.51563">
        <ele>-22.4536133</ele>
        <time>2014-05-08T06:56:59Z</time>
      </trkpt>
      <trkpt lat="49.35383" lon="0.51558">
        <ele>-23.8956299</ele>
        <time>2014-05-08T06:57:03Z</time>
      </trkpt>
      <trkpt lat="49.35378" lon="0.51546">
        <ele>-25.3376465</ele>
        <time>2014-05-08T06:57:10Z</time>
      </trkpt>
      <trkpt lat="49.35376" lon="0.51539">
        <ele>-24.8569336</ele>
        <time>2014-05-08T06:57:13Z</time>
      </trkpt>
      <trkpt lat="49.35372" lon="0.51531">
        <ele>-24.8569336</ele>
        <time>2014-05-08T06:57:20Z</time>
      </trkpt>
      <trkpt lat="49.35372" lon="0.51528">
        <ele>-24.8569336</ele>
        <time>2014-05-08T06:57:22Z</time>
      </trkpt>
      <trkpt lat="49.35368" lon="0.5152">
        <ele>-23.414917</ele>
        <time>2014-05-08T06:57:28Z</time>
      </trkpt>
      <trkpt lat="49.35368" lon="0.51518">
        <ele>-23.414917</ele>
        <time>2014-05-08T06:57:29Z</time>
      </trkpt>
      <trkpt lat="49.35365" lon="0.51513">
        <ele>-21.9730225</ele>
        <time>2014-05-08T06:57:32Z</time>
      </trkpt>
      <trkpt lat="49.35359" lon="0.51511">
        <ele>-22.9342041</ele>
        <time>2014-05-08T06:57:39Z</time>
      </trkpt>
      <trkpt lat="49.35359" lon="0.51511">
        <ele>-23.414917</ele>
        <time>2014-05-08T06:57:40Z</time>
      </trkpt>
      <trkpt lat="49.35355" lon="0.51505">
        <ele>-24.3763428</ele>
        <time>2014-05-08T06:57:45Z</time>
      </trkpt>
      <trkpt lat="49.35353" lon="0.51501">
        <ele>-24.8569336</ele>
        <time>2014-05-08T06:57:47Z</time>
      </trkpt>
      <trkpt lat="49.35348" lon="0.51492">
        <ele>-26.2989502</ele>
        <time>2014-05-08T06:57:53Z</time>
      </trkpt>
      <trkpt lat="49.35342" lon="0.51481">
        <ele>-27.2602539</ele>
        <time>2014-05-08T06:58:01Z</time>
      </trkpt>
      <trkpt lat="49.35338" lon="0.51473">
        <ele>-28.2215576</ele>
        <time>2014-05-08T06:58:07Z</time>
      </trkpt>
      <trkpt lat="49.35329" lon="0.51462">
        <ele>-30.6247559</ele>
        <time>2014-05-08T06:58:18Z</time>
      </trkpt>
      <trkpt lat="49.35327" lon="0.51453">
        <ele>-32.5474854</ele>
        <time>2014-05-08T06:58:24Z</time>
      </trkpt>
      <trkpt lat="49.35323" lon="0.51445">
        <ele>-33.5089111</ele>
        <time>2014-05-08T06:58:31Z</time>
      </trkpt>
      <trkpt lat="49.35316" lon="0.51434">
        <ele>-34.9508057</ele>
        <time>2014-05-08T06:58:39Z</time>
      </trkpt>
      <trkpt lat="49.35312" lon="0.51428">
        <ele>-36.3927002</ele>
        <time>2014-05-08T06:58:47Z</time>
      </trkpt>
      <trkpt lat="49.35305" lon="0.51415">
        <ele>-37.8347168</ele>
        <time>2014-05-08T06:58:56Z</time>
      </trkpt>
      <trkpt lat="49.35303" lon="0.5141">
        <ele>-38.7960205</ele>
        <time>2014-05-08T06:58:59Z</time>
      </trkpt>
      <trkpt lat="49.35301" lon="0.51404">
        <ele>-39.2767334</ele>
        <time>2014-05-08T06:59:03Z</time>
      </trkpt>
      <trkpt lat="49.35292" lon="0.514">
        <ele>-42.1606445</ele>
        <time>2014-05-08T06:59:11Z</time>
      </trkpt>
      <trkpt lat="49.35286" lon="0.51385">
        <ele>-43.6026611</ele>
        <time>2014-05-08T06:59:24Z</time>
      </trkpt>
      <trkpt lat="49.35282" lon="0.5137">
        <ele>-42.6413574</ele>
        <time>2014-05-08T06:59:33Z</time>
      </trkpt>
      <trkpt lat="49.35282" lon="0.51368">
        <ele>-40.71875</ele>
        <time>2014-05-08T06:59:35Z</time>
      </trkpt>
      <trkpt lat="49.35275" lon="0.51363">
        <ele>-36.3927002</ele>
        <time>2014-05-08T06:59:41Z</time>
      </trkpt>
      <trkpt lat="49.35267" lon="0.51353">
        <ele>-32.0668945</ele>
        <time>2014-05-08T06:59:47Z</time>
      </trkpt>
      <trkpt lat="49.35258" lon="0.51353">
        <ele>-31.1054688</ele>
        <time>2014-05-08T06:59:54Z</time>
      </trkpt>
      <trkpt lat="49.35254" lon="0.51355">
        <ele>-30.144165</ele>
        <time>2014-05-08T07:00:00Z</time>
      </trkpt>
      <trkpt lat="49.35252" lon="0.51357">
        <ele>-30.144165</ele>
        <time>2014-05-08T07:00:01Z</time>
      </trkpt>
      <trkpt lat="49.35243" lon="0.51359">
        <ele>-24.8569336</ele>
        <time>2014-05-08T07:00:09Z</time>
      </trkpt>
      <trkpt lat="49.35237" lon="0.51359">
        <ele>-22.4536133</ele>
        <time>2014-05-08T07:00:14Z</time>
      </trkpt>
      <trkpt lat="49.35232" lon="0.51357">
        <ele>-20.050415</ele>
        <time>2014-05-08T07:00:18Z</time>
      </trkpt>
      <trkpt lat="49.35228" lon="0.51348">
        <ele>-20.050415</ele>
        <time>2014-05-08T07:00:26Z</time>
      </trkpt>
      <trkpt lat="49.35226" lon="0.51348">
        <ele>-20.5310059</ele>
        <time>2014-05-08T07:00:28Z</time>
      </trkpt>
      <trkpt lat="49.3522" lon="0.51346">
        <ele>-21.4923096</ele>
        <time>2014-05-08T07:00:34Z</time>
      </trkpt>
      <trkpt lat="49.35213" lon="0.51346">
        <ele>-21.9730225</ele>
        <time>2014-05-08T07:00:40Z</time>
      </trkpt>
      <trkpt lat="49.35207" lon="0.51346">
        <ele>-21.4923096</ele>
        <time>2014-05-08T07:00:46Z</time>
      </trkpt>
      <trkpt lat="49.352" lon="0.5135">
        <ele>-18.6083984</ele>
        <time>2014-05-08T07:00:52Z</time>
      </trkpt>
      <trkpt lat="49.35194" lon="0.51353">
        <ele>-17.6470947</ele>
        <time>2014-05-08T07:00:56Z</time>
      </trkpt>
      <trkpt lat="49.35187" lon="0.5135">
        <ele>-16.685791</ele>
        <time>2014-05-08T07:01:03Z</time>
      </trkpt>
      <trkpt lat="49.35179" lon="0.51348">
        <ele>-18.6083984</ele>
        <time>2014-05-08T07:01:12Z</time>
      </trkpt>
      <trkpt lat="49.35174" lon="0.51355">
        <ele>-17.6470947</ele>
        <time>2014-05-08T07:01:18Z</time>
      </trkpt>
      <trkpt lat="49.35168" lon="0.51363">
        <ele>-17.6470947</ele>
        <time>2014-05-08T07:01:25Z</time>
      </trkpt>
      <trkpt lat="49.35168" lon="0.51365">
        <ele>-17.1663818</ele>
        <time>2014-05-08T07:01:26Z</time>
      </trkpt>
      <trkpt lat="49.35157" lon="0.51376">
        <ele>-11.8791504</ele>
        <time>2014-05-08T07:01:34Z</time>
      </trkpt>
      <trkpt lat="49.35155" lon="0.5138">
        <ele>-7.5531006</ele>
        <time>2014-05-08T07:01:37Z</time>
      </trkpt>
      <trkpt lat="49.35144" lon="0.51387">
        <ele>0.618042</ele>
        <time>2014-05-08T07:01:46Z</time>
      </trkpt>
      <trkpt lat="49.35138" lon="0.51393">
        <ele>4.9438477</ele>
        <time>2014-05-08T07:01:54Z</time>
      </trkpt>
      <trkpt lat="49.35127" lon="0.51404">
        <ele>8.7891846</ele>
        <time>2014-05-08T07:02:04Z</time>
      </trkpt>
      <trkpt lat="49.35119" lon="0.51413">
        <ele>9.2698975</ele>
        <time>2014-05-08T07:02:12Z</time>
      </trkpt>
      <trkpt lat="49.35117" lon="0.51415">
        <ele>9.7506104</ele>
        <time>2014-05-08T07:02:15Z</time>
      </trkpt>
      <trkpt lat="49.35108" lon="0.51423">
        <ele>10.711792</ele>
        <time>2014-05-08T07:02:23Z</time>
      </trkpt>
      <trkpt lat="49.35108" lon="0.51423">
        <ele>10.711792</ele>
        <time>2014-05-08T07:02:24Z</time>
      </trkpt>
      <trkpt lat="49.35104" lon="0.51425">
        <ele>10.2312012</ele>
        <time>2014-05-08T07:02:28Z</time>
      </trkpt>
      <trkpt lat="49.35095" lon="0.51434">
        <ele>11.1925049</ele>
        <time>2014-05-08T07:02:36Z</time>
      </trkpt>
      <trkpt lat="49.35089" lon="0.51445">
        <ele>13.1151123</ele>
        <time>2014-05-08T07:02:44Z</time>
      </trkpt>
      <trkpt lat="49.3508" lon="0.51449">
        <ele>13.5958252</ele>
        <time>2014-05-08T07:02:50Z</time>
      </trkpt>
      <trkpt lat="49.35076" lon="0.51453">
        <ele>14.076416</ele>
        <time>2014-05-08T07:02:55Z</time>
      </trkpt>
      <trkpt lat="49.35069" lon="0.51464">
        <ele>13.5958252</ele>
        <time>2014-05-08T07:03:03Z</time>
      </trkpt>
      <trkpt lat="49.35065" lon="0.51468">
        <ele>13.1151123</ele>
        <time>2014-05-08T07:03:08Z</time>
      </trkpt>
      <trkpt lat="49.35059" lon="0.51475">
        <ele>11.6732178</ele>
        <time>2014-05-08T07:03:15Z</time>
      </trkpt>
      <trkpt lat="49.35056" lon="0.51477">
        <ele>11.1925049</ele>
        <time>2014-05-08T07:03:19Z</time>
      </trkpt>
      <trkpt lat="49.35052" lon="0.51479">
        <ele>10.711792</ele>
        <time>2014-05-08T07:03:22Z</time>
      </trkpt>
      <trkpt lat="49.3505" lon="0.51483">
        <ele>10.2312012</ele>
        <time>2014-05-08T07:03:25Z</time>
      </trkpt>
      <trkpt lat="49.35044" lon="0.51492">
        <ele>10.2312012</ele>
        <time>2014-05-08T07:03:33Z</time>
      </trkpt>
      <trkpt lat="49.35041" lon="0.51492">
        <ele>10.2312012</ele>
        <time>2014-05-08T07:03:35Z</time>
      </trkpt>
      <trkpt lat="49.35039" lon="0.51494">
        <ele>10.2312012</ele>
        <time>2014-05-08T07:03:37Z</time>
      </trkpt>
      <trkpt lat="49.35037" lon="0.51501">
        <ele>10.711792</ele>
        <time>2014-05-08T07:03:42Z</time>
      </trkpt>
      <trkpt lat="49.35035" lon="0.51501">
        <ele>11.1925049</ele>
        <time>2014-05-08T07:03:44Z</time>
      </trkpt>
      <trkpt lat="49.35026" lon="0.51507">
        <ele>10.711792</ele>
        <time>2014-05-08T07:03:53Z</time>
      </trkpt>
      <trkpt lat="49.35024" lon="0.51507">
        <ele>9.7506104</ele>
        <time>2014-05-08T07:03:54Z</time>
      </trkpt>
      <trkpt lat="49.35022" lon="0.51516">
        <ele>3.5019531</ele>
        <time>2014-05-08T07:04:01Z</time>
      </trkpt>
      <trkpt lat="49.3502" lon="0.5152">
        <ele>1.5793457</ele>
        <time>2014-05-08T07:04:04Z</time>
      </trkpt>
      <trkpt lat="49.35016" lon="0.51526">
        <ele>0.1374512</ele>
        <time>2014-05-08T07:04:09Z</time>
      </trkpt>
      <trkpt lat="49.35011" lon="0.51531">
        <ele>-0.3433838</ele>
        <time>2014-05-08T07:04:14Z</time>
      </trkpt>
      <trkpt lat="49.35009" lon="0.51535">
        <ele>-1.7852783</ele>
        <time>2014-05-08T07:04:19Z</time>
      </trkpt>
      <trkpt lat="49.35005" lon="0.51539">
        <ele>-2.2659912</ele>
        <time>2014-05-08T07:04:24Z</time>
      </trkpt>
      <trkpt lat="49.34996" lon="0.51546">
        <ele>-2.2659912</ele>
        <time>2014-05-08T07:04:31Z</time>
      </trkpt>
      <trkpt lat="49.34994" lon="0.5155">
        <ele>-2.2659912</ele>
        <time>2014-05-08T07:04:37Z</time>
      </trkpt>
      <trkpt lat="49.34986" lon="0.51556">
        <ele>-1.7852783</ele>
        <time>2014-05-08T07:04:45Z</time>
      </trkpt>
      <trkpt lat="49.34975" lon="0.51565">
        <ele>1.0986328</ele>
        <time>2014-05-08T07:04:55Z</time>
      </trkpt>
      <trkpt lat="49.34968" lon="0.51569">
        <ele>0.618042</ele>
        <time>2014-05-08T07:05:02Z</time>
      </trkpt>
      <trkpt lat="49.34962" lon="0.51576">
        <ele>1.0986328</ele>
        <time>2014-05-08T07:05:08Z</time>
      </trkpt>
      <trkpt lat="49.34956" lon="0.5158">
        <ele>1.0986328</ele>
        <time>2014-05-08T07:05:14Z</time>
      </trkpt>
      <trkpt lat="49.34949" lon="0.51589">
        <ele>0.618042</ele>
        <time>2014-05-08T07:05:23Z</time>
      </trkpt>
      <trkpt lat="49.34941" lon="0.51595">
        <ele>1.0986328</ele>
        <time>2014-05-08T07:05:30Z</time>
      </trkpt>
      <trkpt lat="49.34934" lon="0.51601">
        <ele>2.5406494</ele>
        <time>2014-05-08T07:05:36Z</time>
      </trkpt>
      <trkpt lat="49.34926" lon="0.5161">
        <ele>4.9438477</ele>
        <time>2014-05-08T07:05:45Z</time>
      </trkpt>
      <trkpt lat="49.34923" lon="0.5161">
        <ele>4.9438477</ele>
        <time>2014-05-08T07:05:46Z</time>
      </trkpt>
      <trkpt lat="49.34917" lon="0.51619">
        <ele>4.9438477</ele>
        <time>2014-05-08T07:05:53Z</time>
      </trkpt>
      <trkpt lat="49.34908" lon="0.51629">
        <ele>4.4632568</ele>
        <time>2014-05-08T07:06:02Z</time>
      </trkpt>
      <trkpt lat="49.34906" lon="0.51638">
        <ele>3.982666</ele>
        <time>2014-05-08T07:06:08Z</time>
      </trkpt>
      <trkpt lat="49.34896" lon="0.51649">
        <ele>3.5019531</ele>
        <time>2014-05-08T07:06:19Z</time>
      </trkpt>
      <trkpt lat="49.34893" lon="0.51651">
        <ele>3.5019531</ele>
        <time>2014-05-08T07:06:20Z</time>
      </trkpt>
      <trkpt lat="49.34885" lon="0.51659">
        <ele>3.5019531</ele>
        <time>2014-05-08T07:06:30Z</time>
      </trkpt>
      <trkpt lat="49.34874" lon="0.51664">
        <ele>3.5019531</ele>
        <time>2014-05-08T07:06:39Z</time>
      </trkpt>
      <trkpt lat="49.34872" lon="0.51666">
        <ele>3.0212402</ele>
        <time>2014-05-08T07:06:42Z</time>
      </trkpt>
      <trkpt lat="49.34863" lon="0.51668">
        <ele>2.5406494</ele>
        <time>2014-05-08T07:06:49Z</time>
      </trkpt>
      <trkpt lat="49.34859" lon="0.51668">
        <ele>2.5406494</ele>
        <time>2014-05-08T07:06:53Z</time>
      </trkpt>
      <trkpt lat="49.34846" lon="0.51672">
        <ele>2.5406494</ele>
        <time>2014-05-08T07:07:04Z</time>
      </trkpt>
      <trkpt lat="49.34838" lon="0.51674">
        <ele>3.982666</ele>
        <time>2014-05-08T07:07:11Z</time>
      </trkpt>
      <trkpt lat="49.34829" lon="0.51674">
        <ele>3.982666</ele>
        <time>2014-05-08T07:07:19Z</time>
      </trkpt>
      <trkpt lat="49.34816" lon="0.51677">
        <ele>3.0212402</ele>
        <time>2014-05-08T07:07:30Z</time>
      </trkpt>
      <trkpt lat="49.34808" lon="0.51677">
        <ele>0.618042</ele>
        <time>2014-05-08T07:07:38Z</time>
      </trkpt>
      <trkpt lat="49.34801" lon="0.51679">
        <ele>-0.3433838</ele>
        <time>2014-05-08T07:07:43Z</time>
      </trkpt>
      <trkpt lat="49.34797" lon="0.51677">
        <ele>-4.1885986</ele>
        <time>2014-05-08T07:07:50Z</time>
      </trkpt>
      <trkpt lat="49.34793" lon="0.51677">
        <ele>-5.6304932</ele>
        <time>2014-05-08T07:07:53Z</time>
      </trkpt>
      <trkpt lat="49.34793" lon="0.51677">
        <ele>-6.1112061</ele>
        <time>2014-05-08T07:07:55Z</time>
      </trkpt>
      <trkpt lat="49.34786" lon="0.51674">
        <ele>-6.5919189</ele>
        <time>2014-05-08T07:08:01Z</time>
      </trkpt>
      <trkpt lat="49.34782" lon="0.5167">
        <ele>-7.0725098</ele>
        <time>2014-05-08T07:08:06Z</time>
      </trkpt>
      <trkpt lat="49.34778" lon="0.51668">
        <ele>-8.0339355</ele>
        <time>2014-05-08T07:08:10Z</time>
      </trkpt>
      <trkpt lat="49.34773" lon="0.51666">
        <ele>-8.5146484</ele>
        <time>2014-05-08T07:08:13Z</time>
      </trkpt>
      <trkpt lat="49.34765" lon="0.51659">
        <ele>-11.8791504</ele>
        <time>2014-05-08T07:08:23Z</time>
      </trkpt>
      <trkpt lat="49.34756" lon="0.51655">
        <ele>-15.2436523</ele>
        <time>2014-05-08T07:08:32Z</time>
      </trkpt>
      <trkpt lat="49.3475" lon="0.51646">
        <ele>-16.685791</ele>
        <time>2014-05-08T07:08:39Z</time>
      </trkpt>
      <trkpt lat="49.34741" lon="0.5164">
        <ele>-18.1278076</ele>
        <time>2014-05-08T07:08:47Z</time>
      </trkpt>
      <trkpt lat="49.34735" lon="0.51629">
        <ele>-19.5697021</ele>
        <time>2014-05-08T07:08:55Z</time>
      </trkpt>
      <trkpt lat="49.34732" lon="0.51625">
        <ele>-20.050415</ele>
        <time>2014-05-08T07:08:58Z</time>
      </trkpt>
      <trkpt lat="49.34728" lon="0.51621">
        <ele>-19.5697021</ele>
        <time>2014-05-08T07:09:01Z</time>
      </trkpt>
      <trkpt lat="49.34722" lon="0.51614">
        <ele>-20.5310059</ele>
        <time>2014-05-08T07:09:08Z</time>
      </trkpt>
      <trkpt lat="49.34711" lon="0.51604">
        <ele>-22.9342041</ele>
        <time>2014-05-08T07:09:18Z</time>
      </trkpt>
      <trkpt lat="49.34707" lon="0.51608">
        <ele>-21.0115967</ele>
        <time>2014-05-08T07:09:23Z</time>
      </trkpt>
      <trkpt lat="49.34702" lon="0.51623">
        <ele>-17.1663818</ele>
        <time>2014-05-08T07:09:32Z</time>
      </trkpt>
      <trkpt lat="49.347" lon="0.51631">
        <ele>-16.685791</ele>
        <time>2014-05-08T07:09:36Z</time>
      </trkpt>
      <trkpt lat="49.34696" lon="0.51636">
        <ele>-15.7243652</ele>
        <time>2014-05-08T07:09:40Z</time>
      </trkpt>
      <trkpt lat="49.34685" lon="0.51646">
        <ele>-3.2272949</ele>
        <time>2014-05-08T07:09:50Z</time>
      </trkpt>
      <trkpt lat="49.34683" lon="0.51649">
        <ele>-1.7852783</ele>
        <time>2014-05-08T07:09:51Z</time>
      </trkpt>
      <trkpt lat="49.34681" lon="0.51651">
        <ele>0.1374512</ele>
        <time>2014-05-08T07:09:53Z</time>
      </trkpt>
      <trkpt lat="49.34675" lon="0.51664">
        <ele>4.9438477</ele>
        <time>2014-05-08T07:10:03Z</time>
      </trkpt>
      <trkpt lat="49.3467" lon="0.51679">
        <ele>7.347168</ele>
        <time>2014-05-08T07:10:13Z</time>
      </trkpt>
      <trkpt lat="49.34664" lon="0.51694">
        <ele>8.3085938</ele>
        <time>2014-05-08T07:10:22Z</time>
      </trkpt>
      <trkpt lat="49.34659" lon="0.51707">
        <ele>10.2312012</ele>
        <time>2014-05-08T07:10:30Z</time>
      </trkpt>
      <trkpt lat="49.34655" lon="0.51722">
        <ele>11.1925049</ele>
        <time>2014-05-08T07:10:39Z</time>
      </trkpt>
      <trkpt lat="49.34653" lon="0.51726">
        <ele>10.2312012</ele>
        <time>2014-05-08T07:10:43Z</time>
      </trkpt>
      <trkpt lat="49.34647" lon="0.51741">
        <ele>8.3085938</ele>
        <time>2014-05-08T07:10:52Z</time>
      </trkpt>
      <trkpt lat="49.34642" lon="0.51756">
        <ele>7.347168</ele>
        <time>2014-05-08T07:11:01Z</time>
      </trkpt>
      <trkpt lat="49.34636" lon="0.51775">
        <ele>8.3085938</ele>
        <time>2014-05-08T07:11:13Z</time>
      </trkpt>
      <trkpt lat="49.34632" lon="0.5179">
        <ele>9.2698975</ele>
        <time>2014-05-08T07:11:22Z</time>
      </trkpt>
      <trkpt lat="49.34625" lon="0.51805">
        <ele>9.7506104</ele>
        <time>2014-05-08T07:11:32Z</time>
      </trkpt>
      <trkpt lat="49.34621" lon="0.51818">
        <ele>11.1925049</ele>
        <time>2014-05-08T07:11:40Z</time>
      </trkpt>
      <trkpt lat="49.34617" lon="0.51822">
        <ele>11.6732178</ele>
        <time>2014-05-08T07:11:43Z</time>
      </trkpt>
      <trkpt lat="49.3461" lon="0.5184">
        <ele>12.6343994</ele>
        <time>2014-05-08T07:11:56Z</time>
      </trkpt>
      <trkpt lat="49.34606" lon="0.51855">
        <ele>13.5958252</ele>
        <time>2014-05-08T07:12:07Z</time>
      </trkpt>
      <trkpt lat="49.34602" lon="0.51865">
        <ele>14.076416</ele>
        <time>2014-05-08T07:12:14Z</time>
      </trkpt>
      <trkpt lat="49.34593" lon="0.51883">
        <ele>14.5570068</ele>
        <time>2014-05-08T07:12:25Z</time>
      </trkpt>
      <trkpt lat="49.34589" lon="0.51895">
        <ele>15.5184326</ele>
        <time>2014-05-08T07:12:33Z</time>
      </trkpt>
      <trkpt lat="49.34582" lon="0.5191">
        <ele>16.4797363</ele>
        <time>2014-05-08T07:12:44Z</time>
      </trkpt>
      <trkpt lat="49.3458" lon="0.51915">
        <ele>16.4797363</ele>
        <time>2014-05-08T07:12:48Z</time>
      </trkpt>
      <trkpt lat="49.34572" lon="0.51919">
        <ele>16.9604492</ele>
        <time>2014-05-08T07:12:56Z</time>
      </trkpt>
      <trkpt lat="49.34565" lon="0.5191">
        <ele>15.9990234</ele>
        <time>2014-05-08T07:13:05Z</time>
      </trkpt>
      <trkpt lat="49.34561" lon="0.51906">
        <ele>15.9990234</ele>
        <time>2014-05-08T07:13:10Z</time>
      </trkpt>
      <trkpt lat="49.34554" lon="0.51902">
        <ele>14.5570068</ele>
        <time>2014-05-08T07:13:15Z</time>
      </trkpt>
      <trkpt lat="49.3455" lon="0.51898">
        <ele>13.1151123</ele>
        <time>2014-05-08T07:13:20Z</time>
      </trkpt>
      <trkpt lat="49.3455" lon="0.51893">
        <ele>12.1538086</ele>
        <time>2014-05-08T07:13:22Z</time>
      </trkpt>
      <trkpt lat="49.34544" lon="0.51885">
        <ele>10.2312012</ele>
        <time>2014-05-08T07:13:29Z</time>
      </trkpt>
      <trkpt lat="49.34533" lon="0.51874">
        <ele>8.7891846</ele>
        <time>2014-05-08T07:13:38Z</time>
      </trkpt>
      <trkpt lat="49.34526" lon="0.5187">
        <ele>8.3085938</ele>
        <time>2014-05-08T07:13:43Z</time>
      </trkpt>
      <trkpt lat="49.34522" lon="0.51865">
        <ele>7.347168</ele>
        <time>2014-05-08T07:13:49Z</time>
      </trkpt>
      <trkpt lat="49.34514" lon="0.51861">
        <ele>7.8278809</ele>
        <time>2014-05-08T07:13:56Z</time>
      </trkpt>
      <trkpt lat="49.34509" lon="0.51855">
        <ele>7.8278809</ele>
        <time>2014-05-08T07:14:00Z</time>
      </trkpt>
      <trkpt lat="49.34505" lon="0.51852">
        <ele>7.8278809</ele>
        <time>2014-05-08T07:14:03Z</time>
      </trkpt>
      <trkpt lat="49.34499" lon="0.51846">
        <ele>8.7891846</ele>
        <time>2014-05-08T07:14:09Z</time>
      </trkpt>
      <trkpt lat="49.34492" lon="0.51842">
        <ele>9.7506104</ele>
        <time>2014-05-08T07:14:14Z</time>
      </trkpt>
      <trkpt lat="49.34481" lon="0.51831">
        <ele>11.1925049</ele>
        <time>2014-05-08T07:14:23Z</time>
      </trkpt>
      <trkpt lat="49.34481" lon="0.51829">
        <ele>11.1925049</ele>
        <time>2014-05-08T07:14:25Z</time>
      </trkpt>
      <trkpt lat="49.34475" lon="0.51822">
        <ele>11.1925049</ele>
        <time>2014-05-08T07:14:32Z</time>
      </trkpt>
      <trkpt lat="49.34471" lon="0.51818">
        <ele>10.711792</ele>
        <time>2014-05-08T07:14:36Z</time>
      </trkpt>
      <trkpt lat="49.34466" lon="0.51812">
        <ele>12.6343994</ele>
        <time>2014-05-08T07:14:41Z</time>
      </trkpt>
      <trkpt lat="49.34464" lon="0.51812">
        <ele>13.1151123</ele>
        <time>2014-05-08T07:14:43Z</time>
      </trkpt>
      <trkpt lat="49.34462" lon="0.5181">
        <ele>14.076416</ele>
        <time>2014-05-08T07:14:45Z</time>
      </trkpt>
      <trkpt lat="49.34451" lon="0.51797">
        <ele>12.6343994</ele>
        <time>2014-05-08T07:14:56Z</time>
      </trkpt>
      <trkpt lat="49.34441" lon="0.51786">
        <ele>11.6732178</ele>
        <time>2014-05-08T07:15:07Z</time>
      </trkpt>
      <trkpt lat="49.34438" lon="0.51786">
        <ele>11.1925049</ele>
        <time>2014-05-08T07:15:08Z</time>
      </trkpt>
      <trkpt lat="49.3443" lon="0.51777">
        <ele>10.2312012</ele>
        <time>2014-05-08T07:15:17Z</time>
      </trkpt>
      <trkpt lat="49.34426" lon="0.51777">
        <ele>8.7891846</ele>
        <time>2014-05-08T07:15:20Z</time>
      </trkpt>
      <trkpt lat="49.34417" lon="0.51771">
        <ele>5.9052734</ele>
        <time>2014-05-08T07:15:29Z</time>
      </trkpt>
      <trkpt lat="49.34408" lon="0.51762">
        <ele>4.4632568</ele>
        <time>2014-05-08T07:15:38Z</time>
      </trkpt>
      <trkpt lat="49.34398" lon="0.51756">
        <ele>4.4632568</ele>
        <time>2014-05-08T07:15:47Z</time>
      </trkpt>
      <trkpt lat="49.34393" lon="0.51754">
        <ele>5.4245605</ele>
        <time>2014-05-08T07:15:49Z</time>
      </trkpt>
      <trkpt lat="49.34387" lon="0.51752">
        <ele>6.8664551</ele>
        <time>2014-05-08T07:15:56Z</time>
      </trkpt>
      <trkpt lat="49.34376" lon="0.5176">
        <ele>7.347168</ele>
        <time>2014-05-08T07:16:04Z</time>
      </trkpt>
      <trkpt lat="49.34372" lon="0.51764">
        <ele>7.347168</ele>
        <time>2014-05-08T07:16:09Z</time>
      </trkpt>
      <trkpt lat="49.34368" lon="0.51771">
        <ele>7.347168</ele>
        <time>2014-05-08T07:16:16Z</time>
      </trkpt>
      <trkpt lat="49.34357" lon="0.51773">
        <ele>6.8664551</ele>
        <time>2014-05-08T07:16:26Z</time>
      </trkpt>
      <trkpt lat="49.3435" lon="0.51775">
        <ele>6.8664551</ele>
        <time>2014-05-08T07:16:33Z</time>
      </trkpt>
      <trkpt lat="49.34348" lon="0.51775">
        <ele>5.9052734</ele>
        <time>2014-05-08T07:16:36Z</time>
      </trkpt>
      <trkpt lat="49.34342" lon="0.51773">
        <ele>6.8664551</ele>
        <time>2014-05-08T07:16:42Z</time>
      </trkpt>
      <trkpt lat="49.34338" lon="0.51773">
        <ele>7.347168</ele>
        <time>2014-05-08T07:16:46Z</time>
      </trkpt>
      <trkpt lat="49.34333" lon="0.51773">
        <ele>7.8278809</ele>
        <time>2014-05-08T07:16:49Z</time>
      </trkpt>
      <trkpt lat="49.34329" lon="0.51773">
        <ele>8.7891846</ele>
        <time>2014-05-08T07:16:53Z</time>
      </trkpt>
      <trkpt lat="49.34325" lon="0.51771">
        <ele>8.7891846</ele>
        <time>2014-05-08T07:16:57Z</time>
      </trkpt>
      <trkpt lat="49.34314" lon="0.51771">
        <ele>8.7891846</ele>
        <time>2014-05-08T07:17:06Z</time>
      </trkpt>
      <trkpt lat="49.3431" lon="0.51771">
        <ele>7.8278809</ele>
        <time>2014-05-08T07:17:12Z</time>
      </trkpt>
      <trkpt lat="49.34301" lon="0.51771">
        <ele>8.3085938</ele>
        <time>2014-05-08T07:17:21Z</time>
      </trkpt>
      <trkpt lat="49.34297" lon="0.51767">
        <ele>8.7891846</ele>
        <time>2014-05-08T07:17:31Z</time>
      </trkpt>
      <trkpt lat="49.34293" lon="0.51764">
        <ele>8.3085938</ele>
        <time>2014-05-08T07:17:47Z</time>
      </trkpt>
      <trkpt lat="49.34288" lon="0.5176">
        <ele>7.8278809</ele>
        <time>2014-05-08T07:17:53Z</time>
      </trkpt>
      <trkpt lat="49.34284" lon="0.51754">
        <ele>9.7506104</ele>
        <time>2014-05-08T07:18:01Z</time>
      </trkpt>
      <trkpt lat="49.34284" lon="0.51756">
        <ele>11.1925049</ele>
        <time>2014-05-08T07:18:12Z</time>
      </trkpt>
      <trkpt lat="49.34282" lon="0.51754">
        <ele>12.6343994</ele>
        <time>2014-05-08T07:18:21Z</time>
      </trkpt>
      <trkpt lat="49.3429" lon="0.51758">
        <ele>12.1538086</ele>
        <time>2014-05-08T07:19:38Z</time>
      </trkpt>
      <trkpt lat="49.34293" lon="0.51762">
        <ele>13.5958252</ele>
        <time>2014-05-08T07:19:43Z</time>
      </trkpt>
      <trkpt lat="49.34295" lon="0.51767">
        <ele>14.076416</ele>
        <time>2014-05-08T07:19:48Z</time>
      </trkpt>
      <trkpt lat="49.34303" lon="0.51769">
        <ele>14.076416</ele>
        <time>2014-05-08T07:19:57Z</time>
      </trkpt>
      <trkpt lat="49.34308" lon="0.51769">
        <ele>13.1151123</ele>
        <time>2014-05-08T07:20:04Z</time>
      </trkpt>
      <trkpt lat="49.3432" lon="0.51771">
        <ele>11.6732178</ele>
        <time>2014-05-08T07:20:15Z</time>
      </trkpt>
      <trkpt lat="49.34329" lon="0.51771">
        <ele>10.2312012</ele>
        <time>2014-05-08T07:20:24Z</time>
      </trkpt>
      <trkpt lat="49.34344" lon="0.51771">
        <ele>9.2698975</ele>
        <time>2014-05-08T07:20:38Z</time>
      </trkpt>
      <trkpt lat="49.34353" lon="0.51771">
        <ele>8.3085938</ele>
        <time>2014-05-08T07:20:45Z</time>
      </trkpt>
      <trkpt lat="49.34359" lon="0.51771">
        <ele>7.347168</ele>
        <time>2014-05-08T07:20:53Z</time>
      </trkpt>
      <trkpt lat="49.34368" lon="0.51764">
        <ele>5.4245605</ele>
        <time>2014-05-08T07:21:01Z</time>
      </trkpt>
      <trkpt lat="49.34378" lon="0.51754">
        <ele>3.982666</ele>
        <time>2014-05-08T07:21:12Z</time>
      </trkpt>
      <trkpt lat="49.34383" lon="0.51752">
        <ele>3.5019531</ele>
        <time>2014-05-08T07:21:18Z</time>
      </trkpt>
      <trkpt lat="49.34391" lon="0.51754">
        <ele>3.0212402</ele>
        <time>2014-05-08T07:21:25Z</time>
      </trkpt>
      <trkpt lat="49.344" lon="0.5176">
        <ele>3.5019531</ele>
        <time>2014-05-08T07:21:34Z</time>
      </trkpt>
      <trkpt lat="49.34413" lon="0.51769">
        <ele>5.4245605</ele>
        <time>2014-05-08T07:21:45Z</time>
      </trkpt>
      <trkpt lat="49.34426" lon="0.5178">
        <ele>6.8664551</ele>
        <time>2014-05-08T07:21:57Z</time>
      </trkpt>
      <trkpt lat="49.34432" lon="0.51784">
        <ele>6.8664551</ele>
        <time>2014-05-08T07:22:04Z</time>
      </trkpt>
      <trkpt lat="49.34443" lon="0.51792">
        <ele>6.3858643</ele>
        <time>2014-05-08T07:22:14Z</time>
      </trkpt>
      <trkpt lat="49.34445" lon="0.51795">
        <ele>6.3858643</ele>
        <time>2014-05-08T07:22:16Z</time>
      </trkpt>
      <trkpt lat="49.34456" lon="0.51803">
        <ele>6.3858643</ele>
        <time>2014-05-08T07:22:26Z</time>
      </trkpt>
      <trkpt lat="49.34466" lon="0.51814">
        <ele>9.2698975</ele>
        <time>2014-05-08T07:22:36Z</time>
      </trkpt>
      <trkpt lat="49.34466" lon="0.51816">
        <ele>9.2698975</ele>
        <time>2014-05-08T07:22:38Z</time>
      </trkpt>
      <trkpt lat="49.34477" lon="0.51825">
        <ele>10.711792</ele>
        <time>2014-05-08T07:22:47Z</time>
      </trkpt>
      <trkpt lat="49.34477" lon="0.51827">
        <ele>10.2312012</ele>
        <time>2014-05-08T07:22:49Z</time>
      </trkpt>
      <trkpt lat="49.34481" lon="0.51831">
        <ele>10.711792</ele>
        <time>2014-05-08T07:22:52Z</time>
      </trkpt>
      <trkpt lat="49.34488" lon="0.51833">
        <ele>10.711792</ele>
        <time>2014-05-08T07:22:57Z</time>
      </trkpt>
      <trkpt lat="49.34496" lon="0.51842">
        <ele>8.7891846</ele>
        <time>2014-05-08T07:23:07Z</time>
      </trkpt>
      <trkpt lat="49.34505" lon="0.5185">
        <ele>8.7891846</ele>
        <time>2014-05-08T07:23:17Z</time>
      </trkpt>
      <trkpt lat="49.34509" lon="0.51852">
        <ele>9.2698975</ele>
        <time>2014-05-08T07:23:20Z</time>
      </trkpt>
      <trkpt lat="49.34518" lon="0.51859">
        <ele>9.7506104</ele>
        <time>2014-05-08T07:23:29Z</time>
      </trkpt>
      <trkpt lat="49.3452" lon="0.51861">
        <ele>10.2312012</ele>
        <time>2014-05-08T07:23:30Z</time>
      </trkpt>
      <trkpt lat="49.34531" lon="0.51874">
        <ele>9.7506104</ele>
        <time>2014-05-08T07:23:41Z</time>
      </trkpt>
      <trkpt lat="49.34537" lon="0.5188">
        <ele>9.2698975</ele>
        <time>2014-05-08T07:23:49Z</time>
      </trkpt>
      <trkpt lat="49.34544" lon="0.51887">
        <ele>9.2698975</ele>
        <time>2014-05-08T07:23:55Z</time>
      </trkpt>
      <trkpt lat="49.34548" lon="0.51893">
        <ele>9.2698975</ele>
        <time>2014-05-08T07:24:00Z</time>
      </trkpt>
      <trkpt lat="49.34554" lon="0.51902">
        <ele>9.2698975</ele>
        <time>2014-05-08T07:24:07Z</time>
      </trkpt>
      <trkpt lat="49.34565" lon="0.51913">
        <ele>8.7891846</ele>
        <time>2014-05-08T07:24:17Z</time>
      </trkpt>
      <trkpt lat="49.34574" lon="0.51928">
        <ele>9.7506104</ele>
        <time>2014-05-08T07:24:28Z</time>
      </trkpt>
      <trkpt lat="49.34576" lon="0.5193">
        <ele>10.2312012</ele>
        <time>2014-05-08T07:24:30Z</time>
      </trkpt>
      <trkpt lat="49.34576" lon="0.51936">
        <ele>11.6732178</ele>
        <time>2014-05-08T07:24:34Z</time>
      </trkpt>
      <trkpt lat="49.34572" lon="0.51943">
        <ele>13.1151123</ele>
        <time>2014-05-08T07:24:39Z</time>
      </trkpt>
      <trkpt lat="49.34567" lon="0.51955">
        <ele>15.0377197</ele>
        <time>2014-05-08T07:24:47Z</time>
      </trkpt>
      <trkpt lat="49.34565" lon="0.51962">
        <ele>16.4797363</ele>
        <time>2014-05-08T07:24:51Z</time>
      </trkpt>
      <trkpt lat="49.34561" lon="0.51968">
        <ele>17.9217529</ele>
        <time>2014-05-08T07:24:56Z</time>
      </trkpt>
      <trkpt lat="49.34554" lon="0.51983">
        <ele>17.4411621</ele>
        <time>2014-05-08T07:25:06Z</time>
      </trkpt>
      <trkpt lat="49.34548" lon="0.51994">
        <ele>16.9604492</ele>
        <time>2014-05-08T07:25:13Z</time>
      </trkpt>
      <trkpt lat="49.34546" lon="0.52005">
        <ele>16.4797363</ele>
        <time>2014-05-08T07:25:19Z</time>
      </trkpt>
      <trkpt lat="49.34546" lon="0.52007">
        <ele>16.4797363</ele>
        <time>2014-05-08T07:25:21Z</time>
      </trkpt>
      <trkpt lat="49.34541" lon="0.52016">
        <ele>16.4797363</ele>
        <time>2014-05-08T07:25:28Z</time>
      </trkpt>
      <trkpt lat="49.34539" lon="0.5202">
        <ele>16.9604492</ele>
        <time>2014-05-08T07:25:30Z</time>
      </trkpt>
      <trkpt lat="49.34535" lon="0.52033">
        <ele>15.5184326</ele>
        <time>2014-05-08T07:25:39Z</time>
      </trkpt>
      <trkpt lat="49.34529" lon="0.52048">
        <ele>15.0377197</ele>
        <time>2014-05-08T07:25:50Z</time>
      </trkpt>
      <trkpt lat="49.34529" lon="0.5205">
        <ele>15.0377197</ele>
        <time>2014-05-08T07:25:51Z</time>
      </trkpt>
      <trkpt lat="49.34526" lon="0.52056">
        <ele>15.9990234</ele>
        <time>2014-05-08T07:25:57Z</time>
      </trkpt>
      <trkpt lat="49.34524" lon="0.52058">
        <ele>16.4797363</ele>
        <time>2014-05-08T07:25:59Z</time>
      </trkpt>
      <trkpt lat="49.34522" lon="0.52063">
        <ele>16.9604492</ele>
        <time>2014-05-08T07:26:02Z</time>
      </trkpt>
      <trkpt lat="49.34516" lon="0.52065">
        <ele>17.4411621</ele>
        <time>2014-05-08T07:26:08Z</time>
      </trkpt>
      <trkpt lat="49.34511" lon="0.52063">
        <ele>17.4411621</ele>
        <time>2014-05-08T07:26:12Z</time>
      </trkpt>
      <trkpt lat="49.34509" lon="0.52063">
        <ele>17.9217529</ele>
        <time>2014-05-08T07:26:14Z</time>
      </trkpt>
      <trkpt lat="49.34503" lon="0.52063">
        <ele>18.8830566</ele>
        <time>2014-05-08T07:26:20Z</time>
      </trkpt>
      <trkpt lat="49.34499" lon="0.52065">
        <ele>19.8443604</ele>
        <time>2014-05-08T07:26:24Z</time>
      </trkpt>
      <trkpt lat="49.34494" lon="0.52063">
        <ele>19.8443604</ele>
        <time>2014-05-08T07:26:26Z</time>
      </trkpt>
      <trkpt lat="49.34488" lon="0.52063">
        <ele>20.3249512</ele>
        <time>2014-05-08T07:26:32Z</time>
      </trkpt>
      <trkpt lat="49.34484" lon="0.52061">
        <ele>20.3249512</ele>
        <time>2014-05-08T07:26:37Z</time>
      </trkpt>
      <trkpt lat="49.34479" lon="0.52061">
        <ele>20.3249512</ele>
        <time>2014-05-08T07:26:40Z</time>
      </trkpt>
      <trkpt lat="49.34469" lon="0.52058">
        <ele>20.3249512</ele>
        <time>2014-05-08T07:26:51Z</time>
      </trkpt>
      <trkpt lat="49.3446" lon="0.52056">
        <ele>19.3637695</ele>
        <time>2014-05-08T07:26:59Z</time>
      </trkpt>
      <trkpt lat="49.3446" lon="0.52058">
        <ele>18.8830566</ele>
        <time>2014-05-08T07:27:00Z</time>
      </trkpt>
      <trkpt lat="49.34449" lon="0.52056">
        <ele>17.4411621</ele>
        <time>2014-05-08T07:27:08Z</time>
      </trkpt>
      <trkpt lat="49.34443" lon="0.52058">
        <ele>17.4411621</ele>
        <time>2014-05-08T07:27:16Z</time>
      </trkpt>
      <trkpt lat="49.34434" lon="0.52058">
        <ele>18.4023438</ele>
        <time>2014-05-08T07:27:23Z</time>
      </trkpt>
      <trkpt lat="49.34432" lon="0.52058">
        <ele>18.4023438</ele>
        <time>2014-05-08T07:27:24Z</time>
      </trkpt>
      <trkpt lat="49.34428" lon="0.52058">
        <ele>19.3637695</ele>
        <time>2014-05-08T07:27:29Z</time>
      </trkpt>
      <trkpt lat="49.34417" lon="0.52058">
        <ele>17.4411621</ele>
        <time>2014-05-08T07:27:39Z</time>
      </trkpt>
      <trkpt lat="49.34406" lon="0.52058">
        <ele>16.9604492</ele>
        <time>2014-05-08T07:27:48Z</time>
      </trkpt>
      <trkpt lat="49.34402" lon="0.52058">
        <ele>16.4797363</ele>
        <time>2014-05-08T07:27:52Z</time>
      </trkpt>
      <trkpt lat="49.34398" lon="0.52058">
        <ele>15.5184326</ele>
        <time>2014-05-08T07:27:58Z</time>
      </trkpt>
      <trkpt lat="49.34389" lon="0.52056">
        <ele>15.0377197</ele>
        <time>2014-05-08T07:28:06Z</time>
      </trkpt>
      <trkpt lat="49.34385" lon="0.52056">
        <ele>15.5184326</ele>
        <time>2014-05-08T07:28:10Z</time>
      </trkpt>
      <trkpt lat="49.34378" lon="0.52054">
        <ele>16.4797363</ele>
        <time>2014-05-08T07:28:17Z</time>
      </trkpt>
      <trkpt lat="49.34368" lon="0.5205">
        <ele>17.9217529</ele>
        <time>2014-05-08T07:28:24Z</time>
      </trkpt>
      <trkpt lat="49.34366" lon="0.52048">
        <ele>18.8830566</ele>
        <time>2014-05-08T07:28:27Z</time>
      </trkpt>
      <trkpt lat="49.34359" lon="0.52048">
        <ele>18.8830566</ele>
        <time>2014-05-08T07:28:32Z</time>
      </trkpt>
      <trkpt lat="49.34357" lon="0.52046">
        <ele>18.4023438</ele>
        <time>2014-05-08T07:28:34Z</time>
      </trkpt>
      <trkpt lat="49.34348" lon="0.52037">
        <ele>17.4411621</ele>
        <time>2014-05-08T07:28:44Z</time>
      </trkpt>
      <trkpt lat="49.34344" lon="0.52033">
        <ele>15.9990234</ele>
        <time>2014-05-08T07:28:50Z</time>
      </trkpt>
      <trkpt lat="49.34342" lon="0.52031">
        <ele>15.5184326</ele>
        <time>2014-05-08T07:28:53Z</time>
      </trkpt>
      <trkpt lat="49.34331" lon="0.52024">
        <ele>16.4797363</ele>
        <time>2014-05-08T07:29:01Z</time>
      </trkpt>
      <trkpt lat="49.34331" lon="0.52022">
        <ele>16.4797363</ele>
        <time>2014-05-08T07:29:02Z</time>
      </trkpt>
      <trkpt lat="49.34329" lon="0.5202">
        <ele>16.9604492</ele>
        <time>2014-05-08T07:29:05Z</time>
      </trkpt>
      <trkpt lat="49.34325" lon="0.52016">
        <ele>17.9217529</ele>
        <time>2014-05-08T07:29:12Z</time>
      </trkpt>
      <trkpt lat="49.3432" lon="0.52011">
        <ele>19.8443604</ele>
        <time>2014-05-08T07:29:21Z</time>
      </trkpt>
      <trkpt lat="49.34318" lon="0.52011">
        <ele>20.3249512</ele>
        <time>2014-05-08T07:29:22Z</time>
      </trkpt>
      <trkpt lat="49.34316" lon="0.52009">
        <ele>21.7669678</ele>
        <time>2014-05-08T07:29:25Z</time>
      </trkpt>
      <trkpt lat="49.34314" lon="0.52007">
        <ele>22.7282715</ele>
        <time>2014-05-08T07:29:28Z</time>
      </trkpt>
      <trkpt lat="49.3431" lon="0.52003">
        <ele>25.1317139</ele>
        <time>2014-05-08T07:29:35Z</time>
      </trkpt>
      <trkpt lat="49.34303" lon="0.51998">
        <ele>26.0928955</ele>
        <time>2014-05-08T07:29:44Z</time>
      </trkpt>
      <trkpt lat="49.34297" lon="0.51992">
        <ele>26.5736084</ele>
        <time>2014-05-08T07:29:51Z</time>
      </trkpt>
      <trkpt lat="49.3429" lon="0.5199">
        <ele>26.5736084</ele>
        <time>2014-05-08T07:29:58Z</time>
      </trkpt>
      <trkpt lat="49.34288" lon="0.5199">
        <ele>27.0543213</ele>
        <time>2014-05-08T07:30:00Z</time>
      </trkpt>
      <trkpt lat="49.34284" lon="0.51988">
        <ele>26.0928955</ele>
        <time>2014-05-08T07:30:07Z</time>
      </trkpt>
      <trkpt lat="49.34282" lon="0.51986">
        <ele>25.6123047</ele>
        <time>2014-05-08T07:30:11Z</time>
      </trkpt>
      <trkpt lat="49.34278" lon="0.51981">
        <ele>25.1317139</ele>
        <time>2014-05-08T07:30:17Z</time>
      </trkpt>
      <trkpt lat="49.34265" lon="0.51973">
        <ele>19.8443604</ele>
        <time>2014-05-08T07:30:32Z</time>
      </trkpt>
      <trkpt lat="49.3426" lon="0.51973">
        <ele>22.2475586</ele>
        <time>2014-05-08T07:30:40Z</time>
      </trkpt>
      <trkpt lat="49.34256" lon="0.51966">
        <ele>24.1702881</ele>
        <time>2014-05-08T07:30:52Z</time>
      </trkpt>
      <trkpt lat="49.34252" lon="0.5196">
        <ele>25.6123047</ele>
        <time>2014-05-08T07:30:59Z</time>
      </trkpt>
      <trkpt lat="49.34247" lon="0.51958">
        <ele>26.0928955</ele>
        <time>2014-05-08T07:31:05Z</time>
      </trkpt>
      <trkpt lat="49.34241" lon="0.51953">
        <ele>27.0543213</ele>
        <time>2014-05-08T07:31:11Z</time>
      </trkpt>
      <trkpt lat="49.34232" lon="0.51945">
        <ele>28.0155029</ele>
        <time>2014-05-08T07:31:23Z</time>
      </trkpt>
      <trkpt lat="49.3422" lon="0.51934">
        <ele>27.5349121</ele>
        <time>2014-05-08T07:31:43Z</time>
      </trkpt>
      <trkpt lat="49.34217" lon="0.51932">
        <ele>27.5349121</ele>
        <time>2014-05-08T07:31:46Z</time>
      </trkpt>
      <trkpt lat="49.34213" lon="0.5193">
        <ele>28.4962158</ele>
        <time>2014-05-08T07:31:51Z</time>
      </trkpt>
      <trkpt lat="49.34207" lon="0.51925">
        <ele>28.4962158</ele>
        <time>2014-05-08T07:32:05Z</time>
      </trkpt>
      <trkpt lat="49.34198" lon="0.51917">
        <ele>28.9769287</ele>
        <time>2014-05-08T07:32:23Z</time>
      </trkpt>
      <trkpt lat="49.34157" lon="0.51904">
        <ele>36.1867676</ele>
        <time>2014-05-08T07:33:22Z</time>
      </trkpt>
      <trkpt lat="49.34153" lon="0.51904">
        <ele>40.0321045</ele>
        <time>2014-05-08T07:33:30Z</time>
      </trkpt>
      <trkpt lat="49.34149" lon="0.51908">
        <ele>46.2806396</ele>
        <time>2014-05-08T07:33:36Z</time>
      </trkpt>
      <trkpt lat="49.34147" lon="0.51906">
        <ele>51.5678711</ele>
        <time>2014-05-08T07:33:45Z</time>
      </trkpt>
      <trkpt lat="49.34147" lon="0.51906">
        <ele>56.3745117</ele>
        <time>2014-05-08T07:36:00Z</time>
      </trkpt>
      <trkpt lat="49.34147" lon="0.51906">
        <ele>56.3745117</ele>
        <time>2014-05-08T07:36:28Z</time>
      </trkpt>
      <trkpt lat="49.34142" lon="0.51906">
        <ele>57.8165283</ele>
        <time>2014-05-08T07:38:09Z</time>
      </trkpt>
      <trkpt lat="49.34136" lon="0.51908">
        <ele>57.8165283</ele>
        <time>2014-05-08T07:38:18Z</time>
      </trkpt>
      <trkpt lat="49.34127" lon="0.51908">
        <ele>56.8551025</ele>
        <time>2014-05-08T07:38:37Z</time>
      </trkpt>
      <trkpt lat="49.34119" lon="0.51906">
        <ele>56.3745117</ele>
        <time>2014-05-08T07:38:49Z</time>
      </trkpt>
      <trkpt lat="49.3411" lon="0.51904">
        <ele>56.3745117</ele>
        <time>2014-05-08T07:38:57Z</time>
      </trkpt>
      <trkpt lat="49.34102" lon="0.51904">
        <ele>55.8937988</ele>
        <time>2014-05-08T07:39:05Z</time>
      </trkpt>
      <trkpt lat="49.34095" lon="0.51902">
        <ele>55.4130859</ele>
        <time>2014-05-08T07:39:12Z</time>
      </trkpt>
      <trkpt lat="49.34093" lon="0.51902">
        <ele>54.932373</ele>
        <time>2014-05-08T07:39:13Z</time>
      </trkpt>
      <trkpt lat="49.34091" lon="0.51902">
        <ele>54.4517822</ele>
        <time>2014-05-08T07:39:15Z</time>
      </trkpt>
      <trkpt lat="49.34084" lon="0.519">
        <ele>55.4130859</ele>
        <time>2014-05-08T07:39:22Z</time>
      </trkpt>
      <trkpt lat="49.3408" lon="0.519">
        <ele>54.932373</ele>
        <time>2014-05-08T07:39:26Z</time>
      </trkpt>
      <trkpt lat="49.34078" lon="0.51902">
        <ele>54.4517822</ele>
        <time>2014-05-08T07:39:28Z</time>
      </trkpt>
      <trkpt lat="49.34078" lon="0.51902">
        <ele>53.9711914</ele>
        <time>2014-05-08T07:39:30Z</time>
      </trkpt>
      <trkpt lat="49.34076" lon="0.51904">
        <ele>53.4904785</ele>
        <time>2014-05-08T07:39:32Z</time>
      </trkpt>
      <trkpt lat="49.34074" lon="0.51904">
        <ele>53.0097656</ele>
        <time>2014-05-08T07:39:35Z</time>
      </trkpt>
      <trkpt lat="49.34065" lon="0.519">
        <ele>53.9711914</ele>
        <time>2014-05-08T07:39:42Z</time>
      </trkpt>
      <trkpt lat="49.34063" lon="0.51898">
        <ele>54.4517822</ele>
        <time>2014-05-08T07:39:46Z</time>
      </trkpt>
      <trkpt lat="49.34061" lon="0.519">
        <ele>54.4517822</ele>
        <time>2014-05-08T07:39:48Z</time>
      </trkpt>
      <trkpt lat="49.34054" lon="0.51898">
        <ele>54.932373</ele>
        <time>2014-05-08T07:39:56Z</time>
      </trkpt>
      <trkpt lat="49.34046" lon="0.51898">
        <ele>53.4904785</ele>
        <time>2014-05-08T07:40:06Z</time>
      </trkpt>
      <trkpt lat="49.34035" lon="0.51895">
        <ele>53.0097656</ele>
        <time>2014-05-08T07:40:16Z</time>
      </trkpt>
      <trkpt lat="49.34026" lon="0.51895">
        <ele>54.4517822</ele>
        <time>2014-05-08T07:40:22Z</time>
      </trkpt>
      <trkpt lat="49.34018" lon="0.51889">
        <ele>54.932373</ele>
        <time>2014-05-08T07:40:29Z</time>
      </trkpt>
      <trkpt lat="49.34014" lon="0.51889">
        <ele>53.4904785</ele>
        <time>2014-05-08T07:40:34Z</time>
      </trkpt>
      <trkpt lat="49.34009" lon="0.51887">
        <ele>53.0097656</ele>
        <time>2014-05-08T07:40:38Z</time>
      </trkpt>
      <trkpt lat="49.34005" lon="0.51887">
        <ele>53.4904785</ele>
        <time>2014-05-08T07:40:43Z</time>
      </trkpt>
      <trkpt lat="49.34005" lon="0.51887">
        <ele>53.4904785</ele>
        <time>2014-05-08T07:40:44Z</time>
      </trkpt>
      <trkpt lat="49.33996" lon="0.5188">
        <ele>56.3745117</ele>
        <time>2014-05-08T07:40:51Z</time>
      </trkpt>
      <trkpt lat="49.33996" lon="0.5188">
        <ele>57.3358154</ele>
        <time>2014-05-08T07:40:52Z</time>
      </trkpt>
      <trkpt lat="49.33988" lon="0.5188">
        <ele>60.2197266</ele>
        <time>2014-05-08T07:40:59Z</time>
      </trkpt>
      <trkpt lat="49.33981" lon="0.51878">
        <ele>61.1810303</ele>
        <time>2014-05-08T07:41:04Z</time>
      </trkpt>
      <trkpt lat="49.33975" lon="0.51878">
        <ele>60.7003174</ele>
        <time>2014-05-08T07:41:12Z</time>
      </trkpt>
      <trkpt lat="49.33969" lon="0.51876">
        <ele>59.7391357</ele>
        <time>2014-05-08T07:41:21Z</time>
      </trkpt>
      <trkpt lat="49.3396" lon="0.51872">
        <ele>59.2584229</ele>
        <time>2014-05-08T07:41:31Z</time>
      </trkpt>
      <trkpt lat="49.33951" lon="0.5187">
        <ele>58.2971191</ele>
        <time>2014-05-08T07:41:40Z</time>
      </trkpt>
      <trkpt lat="49.33949" lon="0.5187">
        <ele>57.8165283</ele>
        <time>2014-05-08T07:41:43Z</time>
      </trkpt>
      <trkpt lat="49.33936" lon="0.51867">
        <ele>57.3358154</ele>
        <time>2014-05-08T07:41:52Z</time>
      </trkpt>
      <trkpt lat="49.33932" lon="0.51865">
        <ele>56.3745117</ele>
        <time>2014-05-08T07:41:58Z</time>
      </trkpt>
      <trkpt lat="49.33921" lon="0.51859">
        <ele>54.932373</ele>
        <time>2014-05-08T07:42:09Z</time>
      </trkpt>
      <trkpt lat="49.33911" lon="0.51855">
        <ele>54.932373</ele>
        <time>2014-05-08T07:42:19Z</time>
      </trkpt>
      <trkpt lat="49.33908" lon="0.51852">
        <ele>54.4517822</ele>
        <time>2014-05-08T07:42:23Z</time>
      </trkpt>
      <trkpt lat="49.33904" lon="0.51852">
        <ele>53.4904785</ele>
        <time>2014-05-08T07:42:27Z</time>
      </trkpt>
      <trkpt lat="49.33898" lon="0.51848">
        <ele>53.0097656</ele>
        <time>2014-05-08T07:42:33Z</time>
      </trkpt>
      <trkpt lat="49.33891" lon="0.51846">
        <ele>53.9711914</ele>
        <time>2014-05-08T07:42:38Z</time>
      </trkpt>
      <trkpt lat="49.33883" lon="0.5184">
        <ele>55.4130859</ele>
        <time>2014-05-08T07:42:44Z</time>
      </trkpt>
      <trkpt lat="49.33876" lon="0.51833">
        <ele>53.9711914</ele>
        <time>2014-05-08T07:42:53Z</time>
      </trkpt>
      <trkpt lat="49.33874" lon="0.51833">
        <ele>52.5291748</ele>
        <time>2014-05-08T07:42:58Z</time>
      </trkpt>
      <trkpt lat="49.33868" lon="0.51833">
        <ele>52.048584</ele>
        <time>2014-05-08T07:43:03Z</time>
      </trkpt>
      <trkpt lat="49.33857" lon="0.51831">
        <ele>52.048584</ele>
        <time>2014-05-08T07:43:11Z</time>
      </trkpt>
      <trkpt lat="49.33848" lon="0.51829">
        <ele>53.9711914</ele>
        <time>2014-05-08T07:43:20Z</time>
      </trkpt>
      <trkpt lat="49.3384" lon="0.51827">
        <ele>54.4517822</ele>
        <time>2014-05-08T07:43:29Z</time>
      </trkpt>
      <trkpt lat="49.33831" lon="0.51825">
        <ele>54.4517822</ele>
        <time>2014-05-08T07:43:40Z</time>
      </trkpt>
      <trkpt lat="49.3382" lon="0.5182">
        <ele>54.932373</ele>
        <time>2014-05-08T07:43:47Z</time>
      </trkpt>
      <trkpt lat="49.33801" lon="0.51814">
        <ele>56.8551025</ele>
        <time>2014-05-08T07:44:04Z</time>
      </trkpt>
      <trkpt lat="49.33793" lon="0.51812">
        <ele>57.8165283</ele>
        <time>2014-05-08T07:44:11Z</time>
      </trkpt>
      <trkpt lat="49.33778" lon="0.51803">
        <ele>71.7554932</ele>
        <time>2014-05-08T07:44:20Z</time>
      </trkpt>
      <trkpt lat="49.33775" lon="0.51803">
        <ele>73.6782227</ele>
        <time>2014-05-08T07:44:22Z</time>
      </trkpt>
      <trkpt lat="49.33771" lon="0.51801">
        <ele>76.0814209</ele>
        <time>2014-05-08T07:44:28Z</time>
      </trkpt>
      <trkpt lat="49.33771" lon="0.51801">
        <ele>76.0814209</ele>
        <time>2014-05-08T07:44:29Z</time>
      </trkpt>
      <trkpt lat="49.33765" lon="0.51801">
        <ele>78.0040283</ele>
        <time>2014-05-08T07:44:38Z</time>
      </trkpt>
      <trkpt lat="49.33758" lon="0.51799">
        <ele>77.5234375</ele>
        <time>2014-05-08T07:44:45Z</time>
      </trkpt>
      <trkpt lat="49.33752" lon="0.51795">
        <ele>77.5234375</ele>
        <time>2014-05-08T07:44:53Z</time>
      </trkpt>
      <trkpt lat="49.3375" lon="0.51795">
        <ele>77.5234375</ele>
        <time>2014-05-08T07:44:55Z</time>
      </trkpt>
      <trkpt lat="49.33745" lon="0.51788">
        <ele>77.5234375</ele>
        <time>2014-05-08T07:44:59Z</time>
      </trkpt>
      <trkpt lat="49.33737" lon="0.51788">
        <ele>76.5621338</ele>
        <time>2014-05-08T07:45:08Z</time>
      </trkpt>
      <trkpt lat="49.3373" lon="0.51786">
        <ele>75.6008301</ele>
        <time>2014-05-08T07:45:14Z</time>
      </trkpt>
      <trkpt lat="49.3372" lon="0.51782">
        <ele>73.6782227</ele>
        <time>2014-05-08T07:45:24Z</time>
      </trkpt>
      <trkpt lat="49.33715" lon="0.51782">
        <ele>73.1976318</ele>
        <time>2014-05-08T07:45:29Z</time>
      </trkpt>
      <trkpt lat="49.33713" lon="0.51782">
        <ele>73.1976318</ele>
        <time>2014-05-08T07:45:30Z</time>
      </trkpt>
      <trkpt lat="49.33705" lon="0.51782">
        <ele>73.1976318</ele>
        <time>2014-05-08T07:45:38Z</time>
      </trkpt>
      <trkpt lat="49.33675" lon="0.51775">
        <ele>73.6782227</ele>
        <time>2014-05-08T07:46:02Z</time>
      </trkpt>
      <trkpt lat="49.33666" lon="0.51771">
        <ele>81.8493652</ele>
        <time>2014-05-08T07:46:10Z</time>
      </trkpt>
      <trkpt lat="49.33664" lon="0.51773">
        <ele>82.810791</ele>
        <time>2014-05-08T07:46:12Z</time>
      </trkpt>
      <trkpt lat="49.33657" lon="0.51775">
        <ele>83.7719727</ele>
        <time>2014-05-08T07:46:19Z</time>
      </trkpt>
      <trkpt lat="49.33649" lon="0.51773">
        <ele>83.7719727</ele>
        <time>2014-05-08T07:46:26Z</time>
      </trkpt>
      <trkpt lat="49.33642" lon="0.51775">
        <ele>81.3687744</ele>
        <time>2014-05-08T07:46:34Z</time>
      </trkpt>
      <trkpt lat="49.3364" lon="0.51775">
        <ele>80.8881836</ele>
        <time>2014-05-08T07:46:35Z</time>
      </trkpt>
      <trkpt lat="49.33636" lon="0.51775">
        <ele>74.1588135</ele>
        <time>2014-05-08T07:46:49Z</time>
      </trkpt>
      <trkpt lat="49.33614" lon="0.51769">
        <ele>62.6229248</ele>
        <time>2014-05-08T07:47:49Z</time>
      </trkpt>
      <trkpt lat="49.33608" lon="0.51769">
        <ele>66.4682617</ele>
        <time>2014-05-08T07:47:57Z</time>
      </trkpt>
      <trkpt lat="49.33597" lon="0.51771">
        <ele>72.2362061</ele>
        <time>2014-05-08T07:48:08Z</time>
      </trkpt>
      <trkpt lat="49.33591" lon="0.51771">
        <ele>74.6395264</ele>
        <time>2014-05-08T07:48:14Z</time>
      </trkpt>
      <trkpt lat="49.33578" lon="0.51773">
        <ele>76.5621338</ele>
        <time>2014-05-08T07:48:28Z</time>
      </trkpt>
      <trkpt lat="49.33569" lon="0.51775">
        <ele>78.0040283</ele>
        <time>2014-05-08T07:48:37Z</time>
      </trkpt>
      <trkpt lat="49.33561" lon="0.5178">
        <ele>78.4847412</ele>
        <time>2014-05-08T07:48:45Z</time>
      </trkpt>
      <trkpt lat="49.33559" lon="0.5178">
        <ele>78.9654541</ele>
        <time>2014-05-08T07:48:47Z</time>
      </trkpt>
      <trkpt lat="49.33554" lon="0.51784">
        <ele>79.9266357</ele>
        <time>2014-05-08T07:48:52Z</time>
      </trkpt>
      <trkpt lat="49.33548" lon="0.51784">
        <ele>84.7333984</ele>
        <time>2014-05-08T07:48:58Z</time>
      </trkpt>
      <trkpt lat="49.33539" lon="0.51788">
        <ele>86.6560059</ele>
        <time>2014-05-08T07:49:04Z</time>
      </trkpt>
      <trkpt lat="49.33537" lon="0.51788">
        <ele>87.1365967</ele>
        <time>2014-05-08T07:49:07Z</time>
      </trkpt>
      <trkpt lat="49.33527" lon="0.51792">
        <ele>90.0206299</ele>
        <time>2014-05-08T07:49:15Z</time>
      </trkpt>
      <trkpt lat="49.33524" lon="0.51795">
        <ele>90.5013428</ele>
        <time>2014-05-08T07:49:17Z</time>
      </trkpt>
      <trkpt lat="49.33516" lon="0.51795">
        <ele>91.4625244</ele>
        <time>2014-05-08T07:49:25Z</time>
      </trkpt>
      <trkpt lat="49.33512" lon="0.51795">
        <ele>90.9819336</ele>
        <time>2014-05-08T07:49:28Z</time>
      </trkpt>
      <trkpt lat="49.33503" lon="0.51797">
        <ele>88.0980225</ele>
        <time>2014-05-08T07:49:36Z</time>
      </trkpt>
      <trkpt lat="49.33499" lon="0.51797">
        <ele>85.2139893</ele>
        <time>2014-05-08T07:49:42Z</time>
      </trkpt>
      <trkpt lat="49.33492" lon="0.51799">
        <ele>81.8493652</ele>
        <time>2014-05-08T07:49:49Z</time>
      </trkpt>
      <trkpt lat="49.33488" lon="0.51801">
        <ele>78.4847412</ele>
        <time>2014-05-08T07:49:56Z</time>
      </trkpt>
      <trkpt lat="49.33479" lon="0.51805">
        <ele>75.6008301</ele>
        <time>2014-05-08T07:50:04Z</time>
      </trkpt>
      <trkpt lat="49.33477" lon="0.51807">
        <ele>75.6008301</ele>
        <time>2014-05-08T07:50:06Z</time>
      </trkpt>
      <trkpt lat="49.33466" lon="0.51812">
        <ele>73.6782227</ele>
        <time>2014-05-08T07:50:15Z</time>
      </trkpt>
      <trkpt lat="49.33458" lon="0.51814">
        <ele>73.6782227</ele>
        <time>2014-05-08T07:50:23Z</time>
      </trkpt>
      <trkpt lat="49.33447" lon="0.51814">
        <ele>74.1588135</ele>
        <time>2014-05-08T07:50:32Z</time>
      </trkpt>
      <trkpt lat="49.33436" lon="0.51825">
        <ele>73.6782227</ele>
        <time>2014-05-08T07:50:41Z</time>
      </trkpt>
      <trkpt lat="49.3343" lon="0.51827">
        <ele>75.1202393</ele>
        <time>2014-05-08T07:50:49Z</time>
      </trkpt>
      <trkpt lat="49.33424" lon="0.51829">
        <ele>76.0814209</ele>
        <time>2014-05-08T07:50:56Z</time>
      </trkpt>
      <trkpt lat="49.33421" lon="0.51829">
        <ele>76.0814209</ele>
        <time>2014-05-08T07:50:59Z</time>
      </trkpt>
      <trkpt lat="49.33417" lon="0.51829">
        <ele>76.0814209</ele>
        <time>2014-05-08T07:51:02Z</time>
      </trkpt>
      <trkpt lat="49.33406" lon="0.51835">
        <ele>75.6008301</ele>
        <time>2014-05-08T07:51:12Z</time>
      </trkpt>
      <trkpt lat="49.334" lon="0.51837">
        <ele>75.6008301</ele>
        <time>2014-05-08T07:51:18Z</time>
      </trkpt>
      <trkpt lat="49.33393" lon="0.5184">
        <ele>75.6008301</ele>
        <time>2014-05-08T07:51:22Z</time>
      </trkpt>
      <trkpt lat="49.33389" lon="0.5184">
        <ele>75.1202393</ele>
        <time>2014-05-08T07:51:26Z</time>
      </trkpt>
      <trkpt lat="49.33381" lon="0.51842">
        <ele>73.6782227</ele>
        <time>2014-05-08T07:51:34Z</time>
      </trkpt>
      <trkpt lat="49.33376" lon="0.51842">
        <ele>73.6782227</ele>
        <time>2014-05-08T07:51:37Z</time>
      </trkpt>
      <trkpt lat="49.33366" lon="0.51846">
        <ele>70.3134766</ele>
        <time>2014-05-08T07:51:47Z</time>
      </trkpt>
      <trkpt lat="49.33359" lon="0.5185">
        <ele>69.8328857</ele>
        <time>2014-05-08T07:51:53Z</time>
      </trkpt>
      <trkpt lat="49.33351" lon="0.51852">
        <ele>69.3522949</ele>
        <time>2014-05-08T07:52:00Z</time>
      </trkpt>
      <trkpt lat="49.3334" lon="0.51855">
        <ele>70.3134766</ele>
        <time>2014-05-08T07:52:08Z</time>
      </trkpt>
      <trkpt lat="49.33329" lon="0.51861">
        <ele>72.2362061</ele>
        <time>2014-05-08T07:52:17Z</time>
      </trkpt>
      <trkpt lat="49.33318" lon="0.51863">
        <ele>71.2749023</ele>
        <time>2014-05-08T07:52:25Z</time>
      </trkpt>
      <trkpt lat="49.33316" lon="0.51863">
        <ele>70.7941895</ele>
        <time>2014-05-08T07:52:30Z</time>
      </trkpt>
      <trkpt lat="49.3331" lon="0.51863">
        <ele>70.3134766</ele>
        <time>2014-05-08T07:52:36Z</time>
      </trkpt>
      <trkpt lat="49.33306" lon="0.51863">
        <ele>70.3134766</ele>
        <time>2014-05-08T07:52:41Z</time>
      </trkpt>
      <trkpt lat="49.33301" lon="0.51863">
        <ele>70.7941895</ele>
        <time>2014-05-08T07:52:44Z</time>
      </trkpt>
      <trkpt lat="49.33295" lon="0.51863">
        <ele>71.2749023</ele>
        <time>2014-05-08T07:52:49Z</time>
      </trkpt>
      <trkpt lat="49.33288" lon="0.51861">
        <ele>71.2749023</ele>
        <time>2014-05-08T07:52:56Z</time>
      </trkpt>
      <trkpt lat="49.3328" lon="0.51861">
        <ele>70.3134766</ele>
        <time>2014-05-08T07:53:03Z</time>
      </trkpt>
      <trkpt lat="49.33273" lon="0.51861">
        <ele>68.871582</ele>
        <time>2014-05-08T07:53:11Z</time>
      </trkpt>
      <trkpt lat="49.33265" lon="0.51861">
        <ele>68.871582</ele>
        <time>2014-05-08T07:53:18Z</time>
      </trkpt>
      <trkpt lat="49.33256" lon="0.51861">
        <ele>72.2362061</ele>
        <time>2014-05-08T07:53:28Z</time>
      </trkpt>
      <trkpt lat="49.33254" lon="0.51861">
        <ele>72.7169189</ele>
        <time>2014-05-08T07:53:29Z</time>
      </trkpt>
      <trkpt lat="49.33248" lon="0.51859">
        <ele>75.6008301</ele>
        <time>2014-05-08T07:53:37Z</time>
      </trkpt>
      <trkpt lat="49.33243" lon="0.51857">
        <ele>75.6008301</ele>
        <time>2014-05-08T07:53:40Z</time>
      </trkpt>
      <trkpt lat="49.33239" lon="0.51857">
        <ele>74.6395264</ele>
        <time>2014-05-08T07:53:44Z</time>
      </trkpt>
      <trkpt lat="49.33237" lon="0.51857">
        <ele>73.6782227</ele>
        <time>2014-05-08T07:53:48Z</time>
      </trkpt>
      <trkpt lat="49.33226" lon="0.51859">
        <ele>71.7554932</ele>
        <time>2014-05-08T07:53:56Z</time>
      </trkpt>
      <trkpt lat="49.3322" lon="0.51861">
        <ele>70.3134766</ele>
        <time>2014-05-08T07:54:01Z</time>
      </trkpt>
      <trkpt lat="49.33215" lon="0.51861">
        <ele>69.3522949</ele>
        <time>2014-05-08T07:54:05Z</time>
      </trkpt>
      <trkpt lat="49.33213" lon="0.51863">
        <ele>68.3908691</ele>
        <time>2014-05-08T07:54:08Z</time>
      </trkpt>
      <trkpt lat="49.33207" lon="0.51867">
        <ele>68.3908691</ele>
        <time>2014-05-08T07:54:14Z</time>
      </trkpt>
      <trkpt lat="49.33205" lon="0.5187">
        <ele>68.871582</ele>
        <time>2014-05-08T07:54:17Z</time>
      </trkpt>
      <trkpt lat="49.332" lon="0.5187">
        <ele>69.8328857</ele>
        <time>2014-05-08T07:54:20Z</time>
      </trkpt>
      <trkpt lat="49.3319" lon="0.51872">
        <ele>73.1976318</ele>
        <time>2014-05-08T07:54:29Z</time>
      </trkpt>
      <trkpt lat="49.33183" lon="0.51872">
        <ele>74.1588135</ele>
        <time>2014-05-08T07:54:34Z</time>
      </trkpt>
      <trkpt lat="49.33177" lon="0.51867">
        <ele>75.1202393</ele>
        <time>2014-05-08T07:54:41Z</time>
      </trkpt>
      <trkpt lat="49.33177" lon="0.51867">
        <ele>74.1588135</ele>
        <time>2014-05-08T07:55:10Z</time>
      </trkpt>
      <trkpt lat="49.33177" lon="0.51867">
        <ele>74.1588135</ele>
        <time>2014-05-08T07:56:51Z</time>
      </trkpt>
      <trkpt lat="49.33177" lon="0.51867">
        <ele>74.6395264</ele>
        <time>2014-05-08T07:57:22Z</time>
      </trkpt>
      <trkpt lat="49.33175" lon="0.51859">
        <ele>76.5621338</ele>
        <time>2014-05-08T07:58:10Z</time>
      </trkpt>
      <trkpt lat="49.33153" lon="0.51844">
        <ele>79.9266357</ele>
        <time>2014-05-08T07:58:43Z</time>
      </trkpt>
      <trkpt lat="49.33132" lon="0.51837">
        <ele>81.3687744</ele>
        <time>2014-05-08T07:59:02Z</time>
      </trkpt>
      <trkpt lat="49.33087" lon="0.5184">
        <ele>75.1202393</ele>
        <time>2014-05-08T08:00:02Z</time>
      </trkpt>
      <trkpt lat="49.33074" lon="0.51844">
        <ele>75.1202393</ele>
        <time>2014-05-08T08:00:11Z</time>
      </trkpt>
      <trkpt lat="49.33067" lon="0.51844">
        <ele>75.6008301</ele>
        <time>2014-05-08T08:00:17Z</time>
      </trkpt>
      <trkpt lat="49.33063" lon="0.51844">
        <ele>75.6008301</ele>
        <time>2014-05-08T08:00:22Z</time>
      </trkpt>
      <trkpt lat="49.33059" lon="0.51844">
        <ele>75.1202393</ele>
        <time>2014-05-08T08:00:24Z</time>
      </trkpt>
      <trkpt lat="49.33048" lon="0.5185">
        <ele>75.1202393</ele>
        <time>2014-05-08T08:00:37Z</time>
      </trkpt>
      <trkpt lat="49.33046" lon="0.5185">
        <ele>75.1202393</ele>
        <time>2014-05-08T08:00:39Z</time>
      </trkpt>
      <trkpt lat="49.33037" lon="0.51855">
        <ele>77.0428467</ele>
        <time>2014-05-08T08:00:47Z</time>
      </trkpt>
      <trkpt lat="49.33005" lon="0.51855">
        <ele>78.9654541</ele>
        <time>2014-05-08T08:01:22Z</time>
      </trkpt>
      <trkpt lat="49.32997" lon="0.51857">
        <ele>77.5234375</ele>
        <time>2014-05-08T08:01:32Z</time>
      </trkpt>
      <trkpt lat="49.32977" lon="0.51859">
        <ele>74.1588135</ele>
        <time>2014-05-08T08:01:54Z</time>
      </trkpt>
      <trkpt lat="49.32964" lon="0.51859">
        <ele>73.1976318</ele>
        <time>2014-05-08T08:02:06Z</time>
      </trkpt>
      <trkpt lat="49.32956" lon="0.51865">
        <ele>70.7941895</ele>
        <time>2014-05-08T08:02:15Z</time>
      </trkpt>
      <trkpt lat="49.32941" lon="0.51865">
        <ele>67.4296875</ele>
        <time>2014-05-08T08:02:30Z</time>
      </trkpt>
      <trkpt lat="49.32932" lon="0.51865">
        <ele>65.9876709</ele>
        <time>2014-05-08T08:02:38Z</time>
      </trkpt>
      <trkpt lat="49.32926" lon="0.51867">
        <ele>64.5456543</ele>
        <time>2014-05-08T08:02:45Z</time>
      </trkpt>
      <trkpt lat="49.32919" lon="0.51867">
        <ele>63.5843506</ele>
        <time>2014-05-08T08:02:52Z</time>
      </trkpt>
      <trkpt lat="49.32913" lon="0.5187">
        <ele>62.6229248</ele>
        <time>2014-05-08T08:02:59Z</time>
      </trkpt>
      <trkpt lat="49.32902" lon="0.51867">
        <ele>60.7003174</ele>
        <time>2014-05-08T08:03:06Z</time>
      </trkpt>
      <trkpt lat="49.32894" lon="0.51867">
        <ele>61.6617432</ele>
        <time>2014-05-08T08:03:14Z</time>
      </trkpt>
      <trkpt lat="49.32887" lon="0.51867">
        <ele>63.1036377</ele>
        <time>2014-05-08T08:03:21Z</time>
      </trkpt>
      <trkpt lat="49.32883" lon="0.51867">
        <ele>64.5456543</ele>
        <time>2014-05-08T08:03:26Z</time>
      </trkpt>
      <trkpt lat="49.32876" lon="0.5187">
        <ele>64.5456543</ele>
        <time>2014-05-08T08:03:31Z</time>
      </trkpt>
      <trkpt lat="49.32874" lon="0.5187">
        <ele>64.0650635</ele>
        <time>2014-05-08T08:03:33Z</time>
      </trkpt>
      <trkpt lat="49.32872" lon="0.51872">
        <ele>63.1036377</ele>
        <time>2014-05-08T08:03:37Z</time>
      </trkpt>
      <trkpt lat="49.32861" lon="0.51876">
        <ele>62.6229248</ele>
        <time>2014-05-08T08:03:46Z</time>
      </trkpt>
      <trkpt lat="49.32857" lon="0.5188">
        <ele>62.6229248</ele>
        <time>2014-05-08T08:03:55Z</time>
      </trkpt>
      <trkpt lat="49.32855" lon="0.5188">
        <ele>62.6229248</ele>
        <time>2014-05-08T08:03:56Z</time>
      </trkpt>
      <trkpt lat="49.32848" lon="0.5188">
        <ele>63.1036377</ele>
        <time>2014-05-08T08:04:03Z</time>
      </trkpt>
      <trkpt lat="49.32844" lon="0.51878">
        <ele>64.0650635</ele>
        <time>2014-05-08T08:04:09Z</time>
      </trkpt>
      <trkpt lat="49.32838" lon="0.5188">
        <ele>63.5843506</ele>
        <time>2014-05-08T08:04:16Z</time>
      </trkpt>
      <trkpt lat="49.32829" lon="0.5188">
        <ele>60.2197266</ele>
        <time>2014-05-08T08:04:23Z</time>
      </trkpt>
      <trkpt lat="49.32823" lon="0.51883">
        <ele>56.3745117</ele>
        <time>2014-05-08T08:04:31Z</time>
      </trkpt>
      <trkpt lat="49.32816" lon="0.51883">
        <ele>53.9711914</ele>
        <time>2014-05-08T08:04:37Z</time>
      </trkpt>
      <trkpt lat="49.32808" lon="0.5188">
        <ele>53.0097656</ele>
        <time>2014-05-08T08:04:45Z</time>
      </trkpt>
      <trkpt lat="49.32803" lon="0.51878">
        <ele>53.0097656</ele>
        <time>2014-05-08T08:04:54Z</time>
      </trkpt>
      <trkpt lat="49.32799" lon="0.51876">
        <ele>53.0097656</ele>
        <time>2014-05-08T08:04:59Z</time>
      </trkpt>
      <trkpt lat="49.32793" lon="0.51874">
        <ele>53.9711914</ele>
        <time>2014-05-08T08:05:14Z</time>
      </trkpt>
      <trkpt lat="49.32782" lon="0.51872">
        <ele>52.5291748</ele>
        <time>2014-05-08T08:05:26Z</time>
      </trkpt>
      <trkpt lat="49.32773" lon="0.51872">
        <ele>50.1259766</ele>
        <time>2014-05-08T08:05:36Z</time>
      </trkpt>
      <trkpt lat="49.3276" lon="0.51872">
        <ele>48.68396</ele>
        <time>2014-05-08T08:05:50Z</time>
      </trkpt>
      <trkpt lat="49.32758" lon="0.51872">
        <ele>48.2033691</ele>
        <time>2014-05-08T08:05:52Z</time>
      </trkpt>
      <trkpt lat="49.32754" lon="0.51874">
        <ele>46.2806396</ele>
        <time>2014-05-08T08:06:00Z</time>
      </trkpt>
      <trkpt lat="49.32748" lon="0.5188">
        <ele>42.4354248</ele>
        <time>2014-05-08T08:06:13Z</time>
      </trkpt>
      <trkpt lat="49.32739" lon="0.51887">
        <ele>38.109375</ele>
        <time>2014-05-08T08:06:22Z</time>
      </trkpt>
      <trkpt lat="49.32728" lon="0.519">
        <ele>29.9381104</ele>
        <time>2014-05-08T08:06:38Z</time>
      </trkpt>
      <trkpt lat="49.32715" lon="0.51904">
        <ele>25.6123047</ele>
        <time>2014-05-08T08:06:47Z</time>
      </trkpt>
      <trkpt lat="49.32711" lon="0.51906">
        <ele>25.6123047</ele>
        <time>2014-05-08T08:06:50Z</time>
      </trkpt>
      <trkpt lat="49.32703" lon="0.51908">
        <ele>27.0543213</ele>
        <time>2014-05-08T08:06:55Z</time>
      </trkpt>
      <trkpt lat="49.32694" lon="0.51908">
        <ele>26.5736084</ele>
        <time>2014-05-08T08:07:01Z</time>
      </trkpt>
      <trkpt lat="49.32692" lon="0.51908">
        <ele>27.0543213</ele>
        <time>2014-05-08T08:07:04Z</time>
      </trkpt>
      <trkpt lat="49.32679" lon="0.51908">
        <ele>27.0543213</ele>
        <time>2014-05-08T08:07:13Z</time>
      </trkpt>
      <trkpt lat="49.32675" lon="0.5191">
        <ele>27.5349121</ele>
        <time>2014-05-08T08:07:18Z</time>
      </trkpt>
      <trkpt lat="49.32673" lon="0.5191">
        <ele>27.5349121</ele>
        <time>2014-05-08T08:07:20Z</time>
      </trkpt>
      <trkpt lat="49.3266" lon="0.51913">
        <ele>28.9769287</ele>
        <time>2014-05-08T08:07:30Z</time>
      </trkpt>
      <trkpt lat="49.32653" lon="0.51915">
        <ele>29.4575195</ele>
        <time>2014-05-08T08:07:36Z</time>
      </trkpt>
      <trkpt lat="49.32651" lon="0.51913">
        <ele>29.4575195</ele>
        <time>2014-05-08T08:07:38Z</time>
      </trkpt>
      <trkpt lat="49.32645" lon="0.5191">
        <ele>30.4188232</ele>
        <time>2014-05-08T08:07:43Z</time>
      </trkpt>
      <trkpt lat="49.32638" lon="0.51908">
        <ele>32.3415527</ele>
        <time>2014-05-08T08:07:52Z</time>
      </trkpt>
      <trkpt lat="49.32638" lon="0.51906">
        <ele>32.8222656</ele>
        <time>2014-05-08T08:08:00Z</time>
      </trkpt>
      <trkpt lat="49.32636" lon="0.51898">
        <ele>32.8222656</ele>
        <time>2014-05-08T08:08:08Z</time>
      </trkpt>
      <trkpt lat="49.32634" lon="0.51893">
        <ele>32.3415527</ele>
        <time>2014-05-08T08:08:11Z</time>
      </trkpt>
      <trkpt lat="49.32634" lon="0.51889">
        <ele>32.3415527</ele>
        <time>2014-05-08T08:08:14Z</time>
      </trkpt>
      <trkpt lat="49.32632" lon="0.51883">
        <ele>32.3415527</ele>
        <time>2014-05-08T08:08:18Z</time>
      </trkpt>
      <trkpt lat="49.32632" lon="0.51876">
        <ele>31.380127</ele>
        <time>2014-05-08T08:08:24Z</time>
      </trkpt>
      <trkpt lat="49.3263" lon="0.51874">
        <ele>31.380127</ele>
        <time>2014-05-08T08:08:26Z</time>
      </trkpt>
      <trkpt lat="49.3263" lon="0.51867">
        <ele>30.8995361</ele>
        <time>2014-05-08T08:08:30Z</time>
      </trkpt>
      <trkpt lat="49.32625" lon="0.51857">
        <ele>30.4188232</ele>
        <time>2014-05-08T08:08:37Z</time>
      </trkpt>
      <trkpt lat="49.32623" lon="0.5185">
        <ele>29.4575195</ele>
        <time>2014-05-08T08:08:42Z</time>
      </trkpt>
      <trkpt lat="49.32623" lon="0.51846">
        <ele>28.9769287</ele>
        <time>2014-05-08T08:08:45Z</time>
      </trkpt>
      <trkpt lat="49.32619" lon="0.5184">
        <ele>28.9769287</ele>
        <time>2014-05-08T08:08:54Z</time>
      </trkpt>
      <trkpt lat="49.32619" lon="0.51833">
        <ele>28.4962158</ele>
        <time>2014-05-08T08:09:00Z</time>
      </trkpt>
      <trkpt lat="49.32617" lon="0.5182">
        <ele>28.4962158</ele>
        <time>2014-05-08T08:09:10Z</time>
      </trkpt>
      <trkpt lat="49.32617" lon="0.51816">
        <ele>28.4962158</ele>
        <time>2014-05-08T08:09:13Z</time>
      </trkpt>
      <trkpt lat="49.32615" lon="0.5181">
        <ele>28.4962158</ele>
        <time>2014-05-08T08:09:17Z</time>
      </trkpt>
      <trkpt lat="49.32612" lon="0.51797">
        <ele>28.0155029</ele>
        <time>2014-05-08T08:09:25Z</time>
      </trkpt>
      <trkpt lat="49.32612" lon="0.51788">
        <ele>28.0155029</ele>
        <time>2014-05-08T08:09:31Z</time>
      </trkpt>
      <trkpt lat="49.3261" lon="0.51777">
        <ele>28.0155029</ele>
        <time>2014-05-08T08:09:37Z</time>
      </trkpt>
      <trkpt lat="49.3261" lon="0.51771">
        <ele>27.5349121</ele>
        <time>2014-05-08T08:09:41Z</time>
      </trkpt>
      <trkpt lat="49.3261" lon="0.51767">
        <ele>27.0543213</ele>
        <time>2014-05-08T08:09:44Z</time>
      </trkpt>
      <trkpt lat="49.32608" lon="0.51756">
        <ele>27.0543213</ele>
        <time>2014-05-08T08:09:50Z</time>
      </trkpt>
      <trkpt lat="49.32608" lon="0.51749">
        <ele>25.6123047</ele>
        <time>2014-05-08T08:09:54Z</time>
      </trkpt>
      <trkpt lat="49.32608" lon="0.51743">
        <ele>23.6895752</ele>
        <time>2014-05-08T08:09:59Z</time>
      </trkpt>
      <trkpt lat="49.32606" lon="0.51732">
        <ele>21.7669678</ele>
        <time>2014-05-08T08:10:07Z</time>
      </trkpt>
      <trkpt lat="49.32604" lon="0.5173">
        <ele>21.286377</ele>
        <time>2014-05-08T08:10:08Z</time>
      </trkpt>
      <trkpt lat="49.32604" lon="0.51719">
        <ele>19.3637695</ele>
        <time>2014-05-08T08:10:15Z</time>
      </trkpt>
      <trkpt lat="49.32602" lon="0.51707">
        <ele>16.9604492</ele>
        <time>2014-05-08T08:10:25Z</time>
      </trkpt>
      <trkpt lat="49.32602" lon="0.517">
        <ele>16.4797363</ele>
        <time>2014-05-08T08:10:30Z</time>
      </trkpt>
      <trkpt lat="49.326" lon="0.51685">
        <ele>15.9990234</ele>
        <time>2014-05-08T08:10:40Z</time>
      </trkpt>
      <trkpt lat="49.32595" lon="0.51677">
        <ele>18.8830566</ele>
        <time>2014-05-08T08:10:48Z</time>
      </trkpt>
      <trkpt lat="49.32589" lon="0.51677">
        <ele>21.7669678</ele>
        <time>2014-05-08T08:10:56Z</time>
      </trkpt>
      <trkpt lat="49.32587" lon="0.51679">
        <ele>22.2475586</ele>
        <time>2014-05-08T08:10:58Z</time>
      </trkpt>
      <trkpt lat="49.32576" lon="0.51683">
        <ele>24.1702881</ele>
        <time>2014-05-08T08:11:07Z</time>
      </trkpt>
      <trkpt lat="49.32567" lon="0.51687">
        <ele>25.6123047</ele>
        <time>2014-05-08T08:11:16Z</time>
      </trkpt>
      <trkpt lat="49.32563" lon="0.51689">
        <ele>27.0543213</ele>
        <time>2014-05-08T08:11:23Z</time>
      </trkpt>
      <trkpt lat="49.32554" lon="0.51694">
        <ele>29.4575195</ele>
        <time>2014-05-08T08:11:31Z</time>
      </trkpt>
      <trkpt lat="49.32544" lon="0.51698">
        <ele>29.9381104</ele>
        <time>2014-05-08T08:11:41Z</time>
      </trkpt>
      <trkpt lat="49.32535" lon="0.51702">
        <ele>30.8995361</ele>
        <time>2014-05-08T08:11:48Z</time>
      </trkpt>
      <trkpt lat="49.32527" lon="0.51709">
        <ele>30.8995361</ele>
        <time>2014-05-08T08:11:57Z</time>
      </trkpt>
      <trkpt lat="49.32514" lon="0.51717">
        <ele>32.3415527</ele>
        <time>2014-05-08T08:12:08Z</time>
      </trkpt>
      <trkpt lat="49.32512" lon="0.51719">
        <ele>31.8607178</ele>
        <time>2014-05-08T08:12:11Z</time>
      </trkpt>
      <trkpt lat="49.32499" lon="0.51726">
        <ele>30.4188232</ele>
        <time>2014-05-08T08:12:24Z</time>
      </trkpt>
      <trkpt lat="49.32492" lon="0.5173">
        <ele>29.4575195</ele>
        <time>2014-05-08T08:12:30Z</time>
      </trkpt>
      <trkpt lat="49.32484" lon="0.51739">
        <ele>26.0928955</ele>
        <time>2014-05-08T08:12:40Z</time>
      </trkpt>
      <trkpt lat="49.32479" lon="0.51747">
        <ele>23.6895752</ele>
        <time>2014-05-08T08:12:48Z</time>
      </trkpt>
      <trkpt lat="49.32471" lon="0.5176">
        <ele>21.7669678</ele>
        <time>2014-05-08T08:13:00Z</time>
      </trkpt>
      <trkpt lat="49.32464" lon="0.51769">
        <ele>21.7669678</ele>
        <time>2014-05-08T08:13:09Z</time>
      </trkpt>
      <trkpt lat="49.32451" lon="0.51777">
        <ele>23.6895752</ele>
        <time>2014-05-08T08:13:19Z</time>
      </trkpt>
      <trkpt lat="49.32441" lon="0.51788">
        <ele>26.0928955</ele>
        <time>2014-05-08T08:13:29Z</time>
      </trkpt>
      <trkpt lat="49.32426" lon="0.51801">
        <ele>28.9769287</ele>
        <time>2014-05-08T08:13:42Z</time>
      </trkpt>
      <trkpt lat="49.32411" lon="0.5181">
        <ele>30.8995361</ele>
        <time>2014-05-08T08:13:56Z</time>
      </trkpt>
      <trkpt lat="49.32396" lon="0.51816">
        <ele>31.8607178</ele>
        <time>2014-05-08T08:14:07Z</time>
      </trkpt>
      <trkpt lat="49.32385" lon="0.5182">
        <ele>32.8222656</ele>
        <time>2014-05-08T08:14:17Z</time>
      </trkpt>
      <trkpt lat="49.32381" lon="0.51822">
        <ele>32.8222656</ele>
        <time>2014-05-08T08:14:21Z</time>
      </trkpt>
      <trkpt lat="49.32372" lon="0.51827">
        <ele>33.3028564</ele>
        <time>2014-05-08T08:14:29Z</time>
      </trkpt>
      <trkpt lat="49.32364" lon="0.51833">
        <ele>34.2641602</ele>
        <time>2014-05-08T08:14:37Z</time>
      </trkpt>
      <trkpt lat="49.32353" lon="0.51842">
        <ele>36.1867676</ele>
        <time>2014-05-08T08:14:48Z</time>
      </trkpt>
      <trkpt lat="49.32348" lon="0.51846">
        <ele>36.6674805</ele>
        <time>2014-05-08T08:14:57Z</time>
      </trkpt>
      <trkpt lat="49.3234" lon="0.51848">
        <ele>37.1480713</ele>
        <time>2014-05-08T08:15:09Z</time>
      </trkpt>
      <trkpt lat="49.32338" lon="0.5185">
        <ele>37.1480713</ele>
        <time>2014-05-08T08:15:12Z</time>
      </trkpt>
      <trkpt lat="49.32333" lon="0.5185">
        <ele>36.6674805</ele>
        <time>2014-05-08T08:15:16Z</time>
      </trkpt>
      <trkpt lat="49.32327" lon="0.51852">
        <ele>37.1480713</ele>
        <time>2014-05-08T08:15:21Z</time>
      </trkpt>
      <trkpt lat="49.32316" lon="0.51852">
        <ele>38.109375</ele>
        <time>2014-05-08T08:15:30Z</time>
      </trkpt>
      <trkpt lat="49.32314" lon="0.51846">
        <ele>38.109375</ele>
        <time>2014-05-08T08:15:40Z</time>
      </trkpt>
      <trkpt lat="49.32314" lon="0.51844">
        <ele>38.109375</ele>
        <time>2014-05-08T08:15:42Z</time>
      </trkpt>
      <trkpt lat="49.32318" lon="0.51833">
        <ele>38.109375</ele>
        <time>2014-05-08T08:15:50Z</time>
      </trkpt>
      <trkpt lat="49.32323" lon="0.51818">
        <ele>38.109375</ele>
        <time>2014-05-08T08:15:59Z</time>
      </trkpt>
      <trkpt lat="49.32325" lon="0.51807">
        <ele>38.109375</ele>
        <time>2014-05-08T08:16:07Z</time>
      </trkpt>
      <trkpt lat="49.32325" lon="0.51799">
        <ele>37.6286621</ele>
        <time>2014-05-08T08:16:18Z</time>
      </trkpt>
      <trkpt lat="49.32325" lon="0.51788">
        <ele>37.1480713</ele>
        <time>2014-05-08T08:16:26Z</time>
      </trkpt>
      <trkpt lat="49.32327" lon="0.5178">
        <ele>34.744873</ele>
        <time>2014-05-08T08:16:33Z</time>
      </trkpt>
      <trkpt lat="49.32331" lon="0.51756">
        <ele>27.5349121</ele>
        <time>2014-05-08T08:16:51Z</time>
      </trkpt>
      <trkpt lat="49.32331" lon="0.51739">
        <ele>21.7669678</ele>
        <time>2014-05-08T08:17:02Z</time>
      </trkpt>
      <trkpt lat="49.32333" lon="0.51698">
        <ele>7.8278809</ele>
        <time>2014-05-08T08:17:29Z</time>
      </trkpt>
      <trkpt lat="49.32333" lon="0.51683">
        <ele>2.5406494</ele>
        <time>2014-05-08T08:17:38Z</time>
      </trkpt>
      <trkpt lat="49.32336" lon="0.51659">
        <ele>-7.5531006</ele>
        <time>2014-05-08T08:17:56Z</time>
      </trkpt>
      <trkpt lat="49.32325" lon="0.51623">
        <ele>-3.7078857</ele>
        <time>2014-05-08T08:18:28Z</time>
      </trkpt>
      <trkpt lat="49.32314" lon="0.51619">
        <ele>-2.2659912</ele>
        <time>2014-05-08T08:18:37Z</time>
      </trkpt>
      <trkpt lat="49.32303" lon="0.51597">
        <ele>3.5019531</ele>
        <time>2014-05-08T08:20:01Z</time>
      </trkpt>
      <trkpt lat="49.32303" lon="0.51595">
        <ele>3.5019531</ele>
        <time>2014-05-08T08:20:15Z</time>
      </trkpt>
      <trkpt lat="49.32301" lon="0.51593">
        <ele>9.7506104</ele>
        <time>2014-05-08T08:24:12Z</time>
      </trkpt>
      <trkpt lat="49.32303" lon="0.51589">
        <ele>19.3637695</ele>
        <time>2014-05-08T08:35:51Z</time>
      </trkpt>
      <trkpt lat="49.32299" lon="0.5158">
        <ele>26.0928955</ele>
        <time>2014-05-08T08:38:55Z</time>
      </trkpt>
      <trkpt lat="49.32299" lon="0.51571">
        <ele>28.9769287</ele>
        <time>2014-05-08T08:39:03Z</time>
      </trkpt>
      <trkpt lat="49.32301" lon="0.51565">
        <ele>29.9381104</ele>
        <time>2014-05-08T08:39:09Z</time>
      </trkpt>
      <trkpt lat="49.32301" lon="0.51558">
        <ele>30.4188232</ele>
        <time>2014-05-08T08:39:12Z</time>
      </trkpt>
      <trkpt lat="49.32301" lon="0.51552">
        <ele>29.9381104</ele>
        <time>2014-05-08T08:39:18Z</time>
      </trkpt>
      <trkpt lat="49.32299" lon="0.51541">
        <ele>29.4575195</ele>
        <time>2014-05-08T08:39:25Z</time>
      </trkpt>
      <trkpt lat="49.32299" lon="0.51533">
        <ele>27.5349121</ele>
        <time>2014-05-08T08:39:32Z</time>
      </trkpt>
      <trkpt lat="49.32297" lon="0.51526">
        <ele>24.1702881</ele>
        <time>2014-05-08T08:39:41Z</time>
      </trkpt>
      <trkpt lat="49.32295" lon="0.51513">
        <ele>19.8443604</ele>
        <time>2014-05-08T08:39:53Z</time>
      </trkpt>
      <trkpt lat="49.32301" lon="0.51466">
        <ele>18.8830566</ele>
        <time>2014-05-08T08:40:23Z</time>
      </trkpt>
      <trkpt lat="49.32306" lon="0.51456">
        <ele>20.8056641</ele>
        <time>2014-05-08T08:40:31Z</time>
      </trkpt>
      <trkpt lat="49.32306" lon="0.51449">
        <ele>21.286377</ele>
        <time>2014-05-08T08:40:35Z</time>
      </trkpt>
      <trkpt lat="49.32308" lon="0.51436">
        <ele>22.2475586</ele>
        <time>2014-05-08T08:40:44Z</time>
      </trkpt>
      <trkpt lat="49.32314" lon="0.51423">
        <ele>24.1702881</ele>
        <time>2014-05-08T08:40:56Z</time>
      </trkpt>
      <trkpt lat="49.32316" lon="0.51415">
        <ele>25.1317139</ele>
        <time>2014-05-08T08:41:02Z</time>
      </trkpt>
      <trkpt lat="49.32321" lon="0.51402">
        <ele>25.6123047</ele>
        <time>2014-05-08T08:41:11Z</time>
      </trkpt>
      <trkpt lat="49.32323" lon="0.51391">
        <ele>28.9769287</ele>
        <time>2014-05-08T08:41:18Z</time>
      </trkpt>
      <trkpt lat="49.32323" lon="0.51389">
        <ele>29.4575195</ele>
        <time>2014-05-08T08:41:19Z</time>
      </trkpt>
      <trkpt lat="49.32323" lon="0.51387">
        <ele>30.4188232</ele>
        <time>2014-05-08T08:41:21Z</time>
      </trkpt>
      <trkpt lat="49.32325" lon="0.51383">
        <ele>32.8222656</ele>
        <time>2014-05-08T08:41:29Z</time>
      </trkpt>
      <trkpt lat="49.32323" lon="0.51376">
        <ele>36.1867676</ele>
        <time>2014-05-08T08:41:33Z</time>
      </trkpt>
      <trkpt lat="49.32325" lon="0.5137">
        <ele>34.744873</ele>
        <time>2014-05-08T08:41:39Z</time>
      </trkpt>
      <trkpt lat="49.32325" lon="0.51368">
        <ele>34.744873</ele>
        <time>2014-05-08T08:41:41Z</time>
      </trkpt>
      <trkpt lat="49.32325" lon="0.51361">
        <ele>34.744873</ele>
        <time>2014-05-08T08:41:44Z</time>
      </trkpt>
      <trkpt lat="49.32329" lon="0.51353">
        <ele>36.1867676</ele>
        <time>2014-05-08T08:41:52Z</time>
      </trkpt>
      <trkpt lat="49.32329" lon="0.51344">
        <ele>37.6286621</ele>
        <time>2014-05-08T08:41:59Z</time>
      </trkpt>
      <trkpt lat="49.32329" lon="0.5134">
        <ele>38.109375</ele>
        <time>2014-05-08T08:42:03Z</time>
      </trkpt>
      <trkpt lat="49.32331" lon="0.51329">
        <ele>40.0321045</ele>
        <time>2014-05-08T08:42:11Z</time>
      </trkpt>
      <trkpt lat="49.32331" lon="0.51325">
        <ele>40.5128174</ele>
        <time>2014-05-08T08:42:13Z</time>
      </trkpt>
      <trkpt lat="49.32331" lon="0.51316">
        <ele>44.3580322</ele>
        <time>2014-05-08T08:42:22Z</time>
      </trkpt>
      <trkpt lat="49.32329" lon="0.51305">
        <ele>46.2806396</ele>
        <time>2014-05-08T08:42:30Z</time>
      </trkpt>
      <trkpt lat="49.32327" lon="0.5129">
        <ele>50.1259766</ele>
        <time>2014-05-08T08:42:39Z</time>
      </trkpt>
      <trkpt lat="49.32327" lon="0.5129">
        <ele>50.6065674</ele>
        <time>2014-05-08T08:42:42Z</time>
      </trkpt>
      <trkpt lat="49.32327" lon="0.51282">
        <ele>51.0871582</ele>
        <time>2014-05-08T08:42:49Z</time>
      </trkpt>
      <trkpt lat="49.32325" lon="0.51271">
        <ele>52.048584</ele>
        <time>2014-05-08T08:42:57Z</time>
      </trkpt>
      <trkpt lat="49.32325" lon="0.51265">
        <ele>52.5291748</ele>
        <time>2014-05-08T08:43:02Z</time>
      </trkpt>
      <trkpt lat="49.32325" lon="0.51254">
        <ele>53.4904785</ele>
        <time>2014-05-08T08:43:10Z</time>
      </trkpt>
      <trkpt lat="49.32325" lon="0.51247">
        <ele>54.932373</ele>
        <time>2014-05-08T08:43:16Z</time>
      </trkpt>
      <trkpt lat="49.32325" lon="0.51245">
        <ele>55.4130859</ele>
        <time>2014-05-08T08:43:17Z</time>
      </trkpt>
      <trkpt lat="49.32325" lon="0.51237">
        <ele>57.3358154</ele>
        <time>2014-05-08T08:43:23Z</time>
      </trkpt>
      <trkpt lat="49.32325" lon="0.51234">
        <ele>57.8165283</ele>
        <time>2014-05-08T08:43:25Z</time>
      </trkpt>
      <trkpt lat="49.32327" lon="0.51226">
        <ele>59.2584229</ele>
        <time>2014-05-08T08:43:32Z</time>
      </trkpt>
      <trkpt lat="49.32327" lon="0.51222">
        <ele>59.2584229</ele>
        <time>2014-05-08T08:43:34Z</time>
      </trkpt>
      <trkpt lat="49.32327" lon="0.51217">
        <ele>59.2584229</ele>
        <time>2014-05-08T08:43:38Z</time>
      </trkpt>
      <trkpt lat="49.32327" lon="0.51213">
        <ele>59.2584229</ele>
        <time>2014-05-08T08:43:44Z</time>
      </trkpt>
      <trkpt lat="49.32327" lon="0.51207">
        <ele>59.7391357</ele>
        <time>2014-05-08T08:43:48Z</time>
      </trkpt>
      <trkpt lat="49.32327" lon="0.51202">
        <ele>60.7003174</ele>
        <time>2014-05-08T08:43:54Z</time>
      </trkpt>
      <trkpt lat="49.32325" lon="0.51194">
        <ele>61.6617432</ele>
        <time>2014-05-08T08:44:03Z</time>
      </trkpt>
      <trkpt lat="49.32325" lon="0.51187">
        <ele>62.142334</ele>
        <time>2014-05-08T08:44:09Z</time>
      </trkpt>
      <trkpt lat="49.32325" lon="0.51174">
        <ele>64.0650635</ele>
        <time>2014-05-08T08:44:18Z</time>
      </trkpt>
      <trkpt lat="49.32323" lon="0.51166">
        <ele>64.0650635</ele>
        <time>2014-05-08T08:44:26Z</time>
      </trkpt>
      <trkpt lat="49.32318" lon="0.51153">
        <ele>65.5070801</ele>
        <time>2014-05-08T08:44:35Z</time>
      </trkpt>
      <trkpt lat="49.32316" lon="0.51144">
        <ele>66.4682617</ele>
        <time>2014-05-08T08:44:42Z</time>
      </trkpt>
      <trkpt lat="49.32314" lon="0.51138">
        <ele>66.9489746</ele>
        <time>2014-05-08T08:44:49Z</time>
      </trkpt>
      <trkpt lat="49.32314" lon="0.51134">
        <ele>66.9489746</ele>
        <time>2014-05-08T08:44:53Z</time>
      </trkpt>
      <trkpt lat="49.32314" lon="0.51127">
        <ele>65.5070801</ele>
        <time>2014-05-08T08:45:00Z</time>
      </trkpt>
      <trkpt lat="49.32314" lon="0.51112">
        <ele>62.6229248</ele>
        <time>2014-05-08T08:45:08Z</time>
      </trkpt>
      <trkpt lat="49.32312" lon="0.51104">
        <ele>60.2197266</ele>
        <time>2014-05-08T08:45:16Z</time>
      </trkpt>
      <trkpt lat="49.32306" lon="0.51093">
        <ele>59.2584229</ele>
        <time>2014-05-08T08:45:29Z</time>
      </trkpt>
      <trkpt lat="49.32301" lon="0.51086">
        <ele>61.1810303</ele>
        <time>2014-05-08T08:45:43Z</time>
      </trkpt>
      <trkpt lat="49.32297" lon="0.51056">
        <ele>66.9489746</ele>
        <time>2014-05-08T08:46:31Z</time>
      </trkpt>
      <trkpt lat="49.3231" lon="0.5105">
        <ele>64.5456543</ele>
        <time>2014-05-08T08:46:50Z</time>
      </trkpt>
      <trkpt lat="49.32327" lon="0.51035">
        <ele>66.9489746</ele>
        <time>2014-05-08T08:47:15Z</time>
      </trkpt>
      <trkpt lat="49.32331" lon="0.51026">
        <ele>68.3908691</ele>
        <time>2014-05-08T08:47:24Z</time>
      </trkpt>
      <trkpt lat="49.32336" lon="0.51018">
        <ele>69.8328857</ele>
        <time>2014-05-08T08:47:35Z</time>
      </trkpt>
      <trkpt lat="49.32348" lon="0.50971">
        <ele>73.1976318</ele>
        <time>2014-05-08T08:48:13Z</time>
      </trkpt>
      <trkpt lat="49.32351" lon="0.50958">
        <ele>73.1976318</ele>
        <time>2014-05-08T08:48:22Z</time>
      </trkpt>
      <trkpt lat="49.32353" lon="0.50951">
        <ele>74.6395264</ele>
        <time>2014-05-08T08:48:26Z</time>
      </trkpt>
      <trkpt lat="49.32355" lon="0.50934">
        <ele>77.0428467</ele>
        <time>2014-05-08T08:48:35Z</time>
      </trkpt>
      <trkpt lat="49.32359" lon="0.50928">
        <ele>79.9266357</ele>
        <time>2014-05-08T08:48:42Z</time>
      </trkpt>
      <trkpt lat="49.32361" lon="0.50917">
        <ele>80.8881836</ele>
        <time>2014-05-08T08:48:51Z</time>
      </trkpt>
      <trkpt lat="49.32359" lon="0.50906">
        <ele>79.9266357</ele>
        <time>2014-05-08T08:49:00Z</time>
      </trkpt>
      <trkpt lat="49.32351" lon="0.50859">
        <ele>73.6782227</ele>
        <time>2014-05-08T08:49:40Z</time>
      </trkpt>
      <trkpt lat="49.32346" lon="0.50838">
        <ele>70.7941895</ele>
        <time>2014-05-08T08:49:56Z</time>
      </trkpt>
      <trkpt lat="49.3234" lon="0.50814">
        <ele>65.5070801</ele>
        <time>2014-05-08T08:50:15Z</time>
      </trkpt>
      <trkpt lat="49.32336" lon="0.50801">
        <ele>66.9489746</ele>
        <time>2014-05-08T08:50:22Z</time>
      </trkpt>
      <trkpt lat="49.32331" lon="0.5079">
        <ele>65.0263672</ele>
        <time>2014-05-08T08:50:34Z</time>
      </trkpt>
      <trkpt lat="49.32329" lon="0.50765">
        <ele>63.5843506</ele>
        <time>2014-05-08T08:50:53Z</time>
      </trkpt>
      <trkpt lat="49.32329" lon="0.5075">
        <ele>63.5843506</ele>
        <time>2014-05-08T08:51:02Z</time>
      </trkpt>
      <trkpt lat="49.32329" lon="0.50737">
        <ele>63.1036377</ele>
        <time>2014-05-08T08:51:10Z</time>
      </trkpt>
      <trkpt lat="49.32331" lon="0.5072">
        <ele>62.6229248</ele>
        <time>2014-05-08T08:51:22Z</time>
      </trkpt>
      <trkpt lat="49.32329" lon="0.50694">
        <ele>65.5070801</ele>
        <time>2014-05-08T08:51:42Z</time>
      </trkpt>
      <trkpt lat="49.32325" lon="0.50681">
        <ele>66.4682617</ele>
        <time>2014-05-08T08:51:50Z</time>
      </trkpt>
      <trkpt lat="49.32327" lon="0.50668">
        <ele>67.9102783</ele>
        <time>2014-05-08T08:51:58Z</time>
      </trkpt>
      <trkpt lat="49.32327" lon="0.50653">
        <ele>67.4296875</ele>
        <time>2014-05-08T08:52:08Z</time>
      </trkpt>
      <trkpt lat="49.32329" lon="0.5064">
        <ele>68.3908691</ele>
        <time>2014-05-08T08:52:15Z</time>
      </trkpt>
      <trkpt lat="49.32331" lon="0.50629">
        <ele>70.7941895</ele>
        <time>2014-05-08T08:52:22Z</time>
      </trkpt>
      <trkpt lat="49.32331" lon="0.50614">
        <ele>72.2362061</ele>
        <time>2014-05-08T08:52:29Z</time>
      </trkpt>
      <trkpt lat="49.32333" lon="0.50599">
        <ele>71.7554932</ele>
        <time>2014-05-08T08:52:37Z</time>
      </trkpt>
      <trkpt lat="49.32336" lon="0.50595">
        <ele>71.7554932</ele>
        <time>2014-05-08T08:52:40Z</time>
      </trkpt>
      <trkpt lat="49.3234" lon="0.50589">
        <ele>70.3134766</ele>
        <time>2014-05-08T08:52:46Z</time>
      </trkpt>
      <trkpt lat="49.32342" lon="0.50586">
        <ele>67.4296875</ele>
        <time>2014-05-08T08:52:53Z</time>
      </trkpt>
      <trkpt lat="49.32344" lon="0.50584">
        <ele>62.6229248</ele>
        <time>2014-05-08T08:53:16Z</time>
      </trkpt>
      <trkpt lat="49.32342" lon="0.50582">
        <ele>64.5456543</ele>
        <time>2014-05-08T08:53:29Z</time>
      </trkpt>
      <trkpt lat="49.32342" lon="0.50582">
        <ele>66.4682617</ele>
        <time>2014-05-08T08:54:00Z</time>
      </trkpt>
      <trkpt lat="49.3234" lon="0.50584">
        <ele>66.4682617</ele>
        <time>2014-05-08T08:54:11Z</time>
      </trkpt>
      <trkpt lat="49.3234" lon="0.5058">
        <ele>67.9102783</ele>
        <time>2014-05-08T08:54:20Z</time>
      </trkpt>
      <trkpt lat="49.32342" lon="0.50571">
        <ele>68.871582</ele>
        <time>2014-05-08T08:55:12Z</time>
      </trkpt>
      <trkpt lat="49.32342" lon="0.50559">
        <ele>68.3908691</ele>
        <time>2014-05-08T08:55:21Z</time>
      </trkpt>
      <trkpt lat="49.32342" lon="0.50541">
        <ele>68.871582</ele>
        <time>2014-05-08T08:55:29Z</time>
      </trkpt>
      <trkpt lat="49.32344" lon="0.50529">
        <ele>68.3908691</ele>
        <time>2014-05-08T08:55:36Z</time>
      </trkpt>
      <trkpt lat="49.32346" lon="0.50516">
        <ele>66.9489746</ele>
        <time>2014-05-08T08:55:48Z</time>
      </trkpt>
      <trkpt lat="49.32351" lon="0.50509">
        <ele>65.9876709</ele>
        <time>2014-05-08T08:55:54Z</time>
      </trkpt>
      <trkpt lat="49.32355" lon="0.50486">
        <ele>62.142334</ele>
        <time>2014-05-08T08:56:08Z</time>
      </trkpt>
      <trkpt lat="49.32355" lon="0.50473">
        <ele>60.7003174</ele>
        <time>2014-05-08T08:56:16Z</time>
      </trkpt>
      <trkpt lat="49.32357" lon="0.50458">
        <ele>59.7391357</ele>
        <time>2014-05-08T08:56:24Z</time>
      </trkpt>
      <trkpt lat="49.32361" lon="0.50443">
        <ele>59.2584229</ele>
        <time>2014-05-08T08:56:33Z</time>
      </trkpt>
      <trkpt lat="49.32359" lon="0.50426">
        <ele>66.9489746</ele>
        <time>2014-05-08T08:56:42Z</time>
      </trkpt>
      <trkpt lat="49.32357" lon="0.50423">
        <ele>67.9102783</ele>
        <time>2014-05-08T08:56:43Z</time>
      </trkpt>
      <trkpt lat="49.32355" lon="0.50411">
        <ele>69.8328857</ele>
        <time>2014-05-08T08:56:51Z</time>
      </trkpt>
      <trkpt lat="49.32353" lon="0.50376">
        <ele>69.3522949</ele>
        <time>2014-05-08T08:57:14Z</time>
      </trkpt>
      <trkpt lat="49.32353" lon="0.5037">
        <ele>69.3522949</ele>
        <time>2014-05-08T08:57:19Z</time>
      </trkpt>
      <trkpt lat="49.32355" lon="0.50353">
        <ele>69.8328857</ele>
        <time>2014-05-08T08:57:28Z</time>
      </trkpt>
      <trkpt lat="49.32353" lon="0.50346">
        <ele>72.2362061</ele>
        <time>2014-05-08T08:57:33Z</time>
      </trkpt>
      <trkpt lat="49.32353" lon="0.5034">
        <ele>75.1202393</ele>
        <time>2014-05-08T08:57:39Z</time>
      </trkpt>
      <trkpt lat="49.32357" lon="0.50323">
        <ele>75.6008301</ele>
        <time>2014-05-08T08:57:50Z</time>
      </trkpt>
      <trkpt lat="49.32359" lon="0.5031">
        <ele>76.0814209</ele>
        <time>2014-05-08T08:57:58Z</time>
      </trkpt>
      <trkpt lat="49.32364" lon="0.50295">
        <ele>76.5621338</ele>
        <time>2014-05-08T08:58:07Z</time>
      </trkpt>
      <trkpt lat="49.32366" lon="0.5028">
        <ele>79.9266357</ele>
        <time>2014-05-08T08:58:13Z</time>
      </trkpt>
      <trkpt lat="49.32366" lon="0.50267">
        <ele>80.8881836</ele>
        <time>2014-05-08T08:58:20Z</time>
      </trkpt>
      <trkpt lat="49.32366" lon="0.50262">
        <ele>80.8881836</ele>
        <time>2014-05-08T08:58:22Z</time>
      </trkpt>
      <trkpt lat="49.32366" lon="0.50247">
        <ele>81.3687744</ele>
        <time>2014-05-08T08:58:30Z</time>
      </trkpt>
      <trkpt lat="49.32366" lon="0.50237">
        <ele>82.3300781</ele>
        <time>2014-05-08T08:58:38Z</time>
      </trkpt>
      <trkpt lat="49.32368" lon="0.50226">
        <ele>82.810791</ele>
        <time>2014-05-08T08:58:45Z</time>
      </trkpt>
      <trkpt lat="49.3237" lon="0.50211">
        <ele>81.8493652</ele>
        <time>2014-05-08T08:58:54Z</time>
      </trkpt>
      <trkpt lat="49.32372" lon="0.50205">
        <ele>80.8881836</ele>
        <time>2014-05-08T08:58:59Z</time>
      </trkpt>
      <trkpt lat="49.32372" lon="0.50196">
        <ele>80.8881836</ele>
        <time>2014-05-08T08:59:04Z</time>
      </trkpt>
      <trkpt lat="49.32374" lon="0.50187">
        <ele>81.3687744</ele>
        <time>2014-05-08T08:59:10Z</time>
      </trkpt>
      <trkpt lat="49.32376" lon="0.50179">
        <ele>79.9266357</ele>
        <time>2014-05-08T08:59:16Z</time>
      </trkpt>
      <trkpt lat="49.32379" lon="0.5017">
        <ele>78.9654541</ele>
        <time>2014-05-08T08:59:21Z</time>
      </trkpt>
      <trkpt lat="49.32381" lon="0.50157">
        <ele>77.5234375</ele>
        <time>2014-05-08T08:59:29Z</time>
      </trkpt>
      <trkpt lat="49.32383" lon="0.5014">
        <ele>78.0040283</ele>
        <time>2014-05-08T08:59:38Z</time>
      </trkpt>
      <trkpt lat="49.32383" lon="0.50132">
        <ele>77.0428467</ele>
        <time>2014-05-08T08:59:44Z</time>
      </trkpt>
      <trkpt lat="49.32383" lon="0.50114">
        <ele>74.6395264</ele>
        <time>2014-05-08T08:59:57Z</time>
      </trkpt>
      <trkpt lat="49.32383" lon="0.50106">
        <ele>74.6395264</ele>
        <time>2014-05-08T09:00:01Z</time>
      </trkpt>
      <trkpt lat="49.32385" lon="0.50099">
        <ele>73.1976318</ele>
        <time>2014-05-08T09:00:06Z</time>
      </trkpt>
      <trkpt lat="49.32387" lon="0.50087">
        <ele>71.2749023</ele>
        <time>2014-05-08T09:00:15Z</time>
      </trkpt>
      <trkpt lat="49.32387" lon="0.50084">
        <ele>71.2749023</ele>
        <time>2014-05-08T09:00:16Z</time>
      </trkpt>
      <trkpt lat="49.32385" lon="0.50076">
        <ele>70.7941895</ele>
        <time>2014-05-08T09:00:23Z</time>
      </trkpt>
      <trkpt lat="49.32385" lon="0.50069">
        <ele>69.8328857</ele>
        <time>2014-05-08T09:00:28Z</time>
      </trkpt>
      <trkpt lat="49.32385" lon="0.50056">
        <ele>67.4296875</ele>
        <time>2014-05-08T09:00:36Z</time>
      </trkpt>
      <trkpt lat="49.32383" lon="0.50037">
        <ele>63.5843506</ele>
        <time>2014-05-08T09:00:48Z</time>
      </trkpt>
      <trkpt lat="49.32383" lon="0.50016">
        <ele>59.7391357</ele>
        <time>2014-05-08T09:01:02Z</time>
      </trkpt>
      <trkpt lat="49.32383" lon="0.49994">
        <ele>53.4904785</ele>
        <time>2014-05-08T09:01:19Z</time>
      </trkpt>
      <trkpt lat="49.32383" lon="0.49984">
        <ele>51.0871582</ele>
        <time>2014-05-08T09:01:27Z</time>
      </trkpt>
      <trkpt lat="49.32381" lon="0.49977">
        <ele>50.6065674</ele>
        <time>2014-05-08T09:01:30Z</time>
      </trkpt>
      <trkpt lat="49.32379" lon="0.49962">
        <ele>51.5678711</ele>
        <time>2014-05-08T09:01:39Z</time>
      </trkpt>
      <trkpt lat="49.32376" lon="0.49953">
        <ele>51.0871582</ele>
        <time>2014-05-08T09:01:46Z</time>
      </trkpt>
      <trkpt lat="49.32376" lon="0.49941">
        <ele>48.2033691</ele>
        <time>2014-05-08T09:01:58Z</time>
      </trkpt>
      <trkpt lat="49.32376" lon="0.4993">
        <ele>51.5678711</ele>
        <time>2014-05-08T09:02:06Z</time>
      </trkpt>
      <trkpt lat="49.32376" lon="0.49919">
        <ele>53.4904785</ele>
        <time>2014-05-08T09:02:18Z</time>
      </trkpt>
      <trkpt lat="49.32379" lon="0.49902">
        <ele>53.0097656</ele>
        <time>2014-05-08T09:02:29Z</time>
      </trkpt>
      <trkpt lat="49.32379" lon="0.49887">
        <ele>55.4130859</ele>
        <time>2014-05-08T09:02:37Z</time>
      </trkpt>
      <trkpt lat="49.32379" lon="0.49865">
        <ele>59.2584229</ele>
        <time>2014-05-08T09:02:47Z</time>
      </trkpt>
      <trkpt lat="49.32383" lon="0.49857">
        <ele>60.2197266</ele>
        <time>2014-05-08T09:02:55Z</time>
      </trkpt>
      <trkpt lat="49.32387" lon="0.49848">
        <ele>59.7391357</ele>
        <time>2014-05-08T09:03:03Z</time>
      </trkpt>
      <trkpt lat="49.32398" lon="0.49829">
        <ele>61.1810303</ele>
        <time>2014-05-08T09:03:16Z</time>
      </trkpt>
      <trkpt lat="49.32404" lon="0.49818">
        <ele>60.2197266</ele>
        <time>2014-05-08T09:03:24Z</time>
      </trkpt>
      <trkpt lat="49.32415" lon="0.49808">
        <ele>61.6617432</ele>
        <time>2014-05-08T09:03:33Z</time>
      </trkpt>
      <trkpt lat="49.32426" lon="0.49793">
        <ele>62.142334</ele>
        <time>2014-05-08T09:03:44Z</time>
      </trkpt>
      <trkpt lat="49.3243" lon="0.49786">
        <ele>62.142334</ele>
        <time>2014-05-08T09:03:50Z</time>
      </trkpt>
      <trkpt lat="49.32439" lon="0.49775">
        <ele>62.142334</ele>
        <time>2014-05-08T09:03:58Z</time>
      </trkpt>
      <trkpt lat="49.32445" lon="0.49765">
        <ele>63.1036377</ele>
        <time>2014-05-08T09:04:06Z</time>
      </trkpt>
      <trkpt lat="49.32454" lon="0.4975">
        <ele>62.142334</ele>
        <time>2014-05-08T09:04:17Z</time>
      </trkpt>
      <trkpt lat="49.3246" lon="0.49732">
        <ele>60.2197266</ele>
        <time>2014-05-08T09:04:28Z</time>
      </trkpt>
      <trkpt lat="49.3246" lon="0.49728">
        <ele>59.7391357</ele>
        <time>2014-05-08T09:04:30Z</time>
      </trkpt>
      <trkpt lat="49.32464" lon="0.49711">
        <ele>57.3358154</ele>
        <time>2014-05-08T09:04:41Z</time>
      </trkpt>
      <trkpt lat="49.32467" lon="0.497">
        <ele>55.8937988</ele>
        <time>2014-05-08T09:04:52Z</time>
      </trkpt>
      <trkpt lat="49.32469" lon="0.49681">
        <ele>54.4517822</ele>
        <time>2014-05-08T09:05:03Z</time>
      </trkpt>
      <trkpt lat="49.32471" lon="0.49679">
        <ele>54.932373</ele>
        <time>2014-05-08T09:05:04Z</time>
      </trkpt>
      <trkpt lat="49.32471" lon="0.49675">
        <ele>54.4517822</ele>
        <time>2014-05-08T09:05:07Z</time>
      </trkpt>
      <trkpt lat="49.32473" lon="0.49657">
        <ele>53.9711914</ele>
        <time>2014-05-08T09:05:18Z</time>
      </trkpt>
      <trkpt lat="49.32473" lon="0.49655">
        <ele>53.4904785</ele>
        <time>2014-05-08T09:05:20Z</time>
      </trkpt>
      <trkpt lat="49.32475" lon="0.49647">
        <ele>53.4904785</ele>
        <time>2014-05-08T09:05:25Z</time>
      </trkpt>
      <trkpt lat="49.32477" lon="0.49632">
        <ele>53.0097656</ele>
        <time>2014-05-08T09:05:33Z</time>
      </trkpt>
      <trkpt lat="49.32479" lon="0.49612">
        <ele>51.5678711</ele>
        <time>2014-05-08T09:05:44Z</time>
      </trkpt>
      <trkpt lat="49.32484" lon="0.49599">
        <ele>49.1645508</ele>
        <time>2014-05-08T09:05:52Z</time>
      </trkpt>
      <trkpt lat="49.32486" lon="0.49584">
        <ele>49.1645508</ele>
        <time>2014-05-08T09:06:00Z</time>
      </trkpt>
      <trkpt lat="49.32486" lon="0.49572">
        <ele>49.1645508</ele>
        <time>2014-05-08T09:06:08Z</time>
      </trkpt>
      <trkpt lat="49.32486" lon="0.49569">
        <ele>48.68396</ele>
        <time>2014-05-08T09:06:09Z</time>
      </trkpt>
      <trkpt lat="49.32488" lon="0.49561">
        <ele>48.68396</ele>
        <time>2014-05-08T09:06:15Z</time>
      </trkpt>
      <trkpt lat="49.32488" lon="0.4955">
        <ele>47.7225342</ele>
        <time>2014-05-08T09:06:21Z</time>
      </trkpt>
      <trkpt lat="49.32488" lon="0.49537">
        <ele>47.2418213</ele>
        <time>2014-05-08T09:06:29Z</time>
      </trkpt>
      <trkpt lat="49.32486" lon="0.49522">
        <ele>45.3192139</ele>
        <time>2014-05-08T09:06:37Z</time>
      </trkpt>
      <trkpt lat="49.32486" lon="0.49503">
        <ele>42.9160156</ele>
        <time>2014-05-08T09:06:48Z</time>
      </trkpt>
      <trkpt lat="49.32486" lon="0.49499">
        <ele>41.9547119</ele>
        <time>2014-05-08T09:06:50Z</time>
      </trkpt>
      <trkpt lat="49.32484" lon="0.49484">
        <ele>40.0321045</ele>
        <time>2014-05-08T09:06:59Z</time>
      </trkpt>
      <trkpt lat="49.32484" lon="0.49466">
        <ele>37.6286621</ele>
        <time>2014-05-08T09:07:09Z</time>
      </trkpt>
      <trkpt lat="49.32484" lon="0.49464">
        <ele>37.1480713</ele>
        <time>2014-05-08T09:07:11Z</time>
      </trkpt>
      <trkpt lat="49.32482" lon="0.49451">
        <ele>34.744873</ele>
        <time>2014-05-08T09:07:20Z</time>
      </trkpt>
      <trkpt lat="49.32484" lon="0.49441">
        <ele>31.8607178</ele>
        <time>2014-05-08T09:07:28Z</time>
      </trkpt>
      <trkpt lat="49.32486" lon="0.49432">
        <ele>28.9769287</ele>
        <time>2014-05-08T09:07:36Z</time>
      </trkpt>
      <trkpt lat="49.32488" lon="0.49426">
        <ele>28.0155029</ele>
        <time>2014-05-08T09:07:41Z</time>
      </trkpt>
      <trkpt lat="49.3249" lon="0.49413">
        <ele>26.5736084</ele>
        <time>2014-05-08T09:07:49Z</time>
      </trkpt>
      <trkpt lat="49.32494" lon="0.49404">
        <ele>25.1317139</ele>
        <time>2014-05-08T09:07:56Z</time>
      </trkpt>
      <trkpt lat="49.32494" lon="0.49393">
        <ele>25.1317139</ele>
        <time>2014-05-08T09:08:02Z</time>
      </trkpt>
      <trkpt lat="49.32499" lon="0.49389">
        <ele>27.5349121</ele>
        <time>2014-05-08T09:08:05Z</time>
      </trkpt>
      <trkpt lat="49.32505" lon="0.49383">
        <ele>26.5736084</ele>
        <time>2014-05-08T09:08:11Z</time>
      </trkpt>
      <trkpt lat="49.32505" lon="0.49383">
        <ele>26.5736084</ele>
        <time>2014-05-08T09:08:12Z</time>
      </trkpt>
      <trkpt lat="49.32507" lon="0.49376">
        <ele>26.0928955</ele>
        <time>2014-05-08T09:08:15Z</time>
      </trkpt>
      <trkpt lat="49.32507" lon="0.49374">
        <ele>26.0928955</ele>
        <time>2014-05-08T09:08:17Z</time>
      </trkpt>
      <trkpt lat="49.32514" lon="0.49363">
        <ele>25.1317139</ele>
        <time>2014-05-08T09:08:24Z</time>
      </trkpt>
      <trkpt lat="49.32514" lon="0.49361">
        <ele>24.651001</ele>
        <time>2014-05-08T09:08:26Z</time>
      </trkpt>
      <trkpt lat="49.32516" lon="0.49346">
        <ele>26.0928955</ele>
        <time>2014-05-08T09:08:33Z</time>
      </trkpt>
      <trkpt lat="49.3252" lon="0.4934">
        <ele>26.5736084</ele>
        <time>2014-05-08T09:08:38Z</time>
      </trkpt>
      <trkpt lat="49.32522" lon="0.49331">
        <ele>26.0928955</ele>
        <time>2014-05-08T09:08:43Z</time>
      </trkpt>
      <trkpt lat="49.32527" lon="0.49318">
        <ele>26.5736084</ele>
        <time>2014-05-08T09:08:51Z</time>
      </trkpt>
      <trkpt lat="49.32533" lon="0.49301">
        <ele>26.5736084</ele>
        <time>2014-05-08T09:09:01Z</time>
      </trkpt>
      <trkpt lat="49.32535" lon="0.49293">
        <ele>27.0543213</ele>
        <time>2014-05-08T09:09:05Z</time>
      </trkpt>
      <trkpt lat="49.32537" lon="0.4929">
        <ele>27.5349121</ele>
        <time>2014-05-08T09:09:06Z</time>
      </trkpt>
      <trkpt lat="49.32537" lon="0.49286">
        <ele>28.0155029</ele>
        <time>2014-05-08T09:09:09Z</time>
      </trkpt>
      <trkpt lat="49.32542" lon="0.49269">
        <ele>28.4962158</ele>
        <time>2014-05-08T09:09:19Z</time>
      </trkpt>
      <trkpt lat="49.32544" lon="0.49267">
        <ele>28.9769287</ele>
        <time>2014-05-08T09:09:20Z</time>
      </trkpt>
      <trkpt lat="49.32548" lon="0.49254">
        <ele>32.3415527</ele>
        <time>2014-05-08T09:09:28Z</time>
      </trkpt>
      <trkpt lat="49.32561" lon="0.49232">
        <ele>38.5900879</ele>
        <time>2014-05-08T09:09:42Z</time>
      </trkpt>
      <trkpt lat="49.32565" lon="0.49217">
        <ele>41.9547119</ele>
        <time>2014-05-08T09:09:52Z</time>
      </trkpt>
      <trkpt lat="49.32572" lon="0.492">
        <ele>42.4354248</ele>
        <time>2014-05-08T09:10:03Z</time>
      </trkpt>
      <trkpt lat="49.32578" lon="0.49181">
        <ele>40.9934082</ele>
        <time>2014-05-08T09:10:14Z</time>
      </trkpt>
      <trkpt lat="49.32585" lon="0.49172">
        <ele>40.0321045</ele>
        <time>2014-05-08T09:10:22Z</time>
      </trkpt>
      <trkpt lat="49.32591" lon="0.49166">
        <ele>39.5512695</ele>
        <time>2014-05-08T09:10:30Z</time>
      </trkpt>
      <trkpt lat="49.32597" lon="0.49162">
        <ele>39.5512695</ele>
        <time>2014-05-08T09:10:36Z</time>
      </trkpt>
      <trkpt lat="49.32606" lon="0.49164">
        <ele>39.5512695</ele>
        <time>2014-05-08T09:10:45Z</time>
      </trkpt>
      <trkpt lat="49.32615" lon="0.49164">
        <ele>39.0706787</ele>
        <time>2014-05-08T09:10:51Z</time>
      </trkpt>
      <trkpt lat="49.32619" lon="0.49166">
        <ele>37.1480713</ele>
        <time>2014-05-08T09:10:56Z</time>
      </trkpt>
      <trkpt lat="49.32625" lon="0.49164">
        <ele>35.2254639</ele>
        <time>2014-05-08T09:11:04Z</time>
      </trkpt>
      <trkpt lat="49.32632" lon="0.49164">
        <ele>34.744873</ele>
        <time>2014-05-08T09:11:17Z</time>
      </trkpt>
      <trkpt lat="49.3264" lon="0.49177">
        <ele>33.7834473</ele>
        <time>2014-05-08T09:11:33Z</time>
      </trkpt>
      <trkpt lat="49.3264" lon="0.49179">
        <ele>33.7834473</ele>
        <time>2014-05-08T09:11:34Z</time>
      </trkpt>
      <trkpt lat="49.3264" lon="0.49183">
        <ele>32.8222656</ele>
        <time>2014-05-08T09:11:37Z</time>
      </trkpt>
      <trkpt lat="49.32642" lon="0.49198">
        <ele>31.8607178</ele>
        <time>2014-05-08T09:11:45Z</time>
      </trkpt>
      <trkpt lat="49.32645" lon="0.49205">
        <ele>31.380127</ele>
        <time>2014-05-08T09:11:49Z</time>
      </trkpt>
      <trkpt lat="49.32647" lon="0.49224">
        <ele>30.4188232</ele>
        <time>2014-05-08T09:11:58Z</time>
      </trkpt>
      <trkpt lat="49.32649" lon="0.49232">
        <ele>29.4575195</ele>
        <time>2014-05-08T09:12:04Z</time>
      </trkpt>
      <trkpt lat="49.32651" lon="0.49243">
        <ele>30.4188232</ele>
        <time>2014-05-08T09:12:14Z</time>
      </trkpt>
      <trkpt lat="49.32653" lon="0.49245">
        <ele>31.380127</ele>
        <time>2014-05-08T09:12:16Z</time>
      </trkpt>
      <trkpt lat="49.32655" lon="0.49248">
        <ele>32.8222656</ele>
        <time>2014-05-08T09:12:19Z</time>
      </trkpt>
      <trkpt lat="49.32662" lon="0.4925">
        <ele>33.3028564</ele>
        <time>2014-05-08T09:12:27Z</time>
      </trkpt>
      <trkpt lat="49.32666" lon="0.4925">
        <ele>33.3028564</ele>
        <time>2014-05-08T09:12:31Z</time>
      </trkpt>
      <trkpt lat="49.3267" lon="0.49248">
        <ele>34.2641602</ele>
        <time>2014-05-08T09:12:40Z</time>
      </trkpt>
      <trkpt lat="49.32677" lon="0.49245">
        <ele>33.3028564</ele>
        <time>2014-05-08T09:12:50Z</time>
      </trkpt>
      <trkpt lat="49.32683" lon="0.49248">
        <ele>33.3028564</ele>
        <time>2014-05-08T09:12:56Z</time>
      </trkpt>
      <trkpt lat="49.32688" lon="0.4925">
        <ele>33.3028564</ele>
        <time>2014-05-08T09:13:01Z</time>
      </trkpt>
      <trkpt lat="49.3269" lon="0.49258">
        <ele>33.3028564</ele>
        <time>2014-05-08T09:13:08Z</time>
      </trkpt>
      <trkpt lat="49.32692" lon="0.4926">
        <ele>33.3028564</ele>
        <time>2014-05-08T09:13:10Z</time>
      </trkpt>
      <trkpt lat="49.327" lon="0.49265">
        <ele>32.8222656</ele>
        <time>2014-05-08T09:13:17Z</time>
      </trkpt>
      <trkpt lat="49.32705" lon="0.49269">
        <ele>32.8222656</ele>
        <time>2014-05-08T09:13:21Z</time>
      </trkpt>
      <trkpt lat="49.32709" lon="0.49278">
        <ele>32.8222656</ele>
        <time>2014-05-08T09:13:28Z</time>
      </trkpt>
      <trkpt lat="49.32715" lon="0.4929">
        <ele>32.8222656</ele>
        <time>2014-05-08T09:13:35Z</time>
      </trkpt>
      <trkpt lat="49.32718" lon="0.49293">
        <ele>32.3415527</ele>
        <time>2014-05-08T09:13:39Z</time>
      </trkpt>
      <trkpt lat="49.3272" lon="0.49295">
        <ele>32.3415527</ele>
        <time>2014-05-08T09:13:42Z</time>
      </trkpt>
      <trkpt lat="49.32724" lon="0.49303">
        <ele>33.3028564</ele>
        <time>2014-05-08T09:13:45Z</time>
      </trkpt>
      <trkpt lat="49.32728" lon="0.49305">
        <ele>33.3028564</ele>
        <time>2014-05-08T09:13:50Z</time>
      </trkpt>
      <trkpt lat="49.32733" lon="0.4931">
        <ele>33.3028564</ele>
        <time>2014-05-08T09:13:57Z</time>
      </trkpt>
      <trkpt lat="49.32741" lon="0.49318">
        <ele>31.380127</ele>
        <time>2014-05-08T09:14:10Z</time>
      </trkpt>
      <trkpt lat="49.3275" lon="0.49325">
        <ele>28.9769287</ele>
        <time>2014-05-08T09:14:21Z</time>
      </trkpt>
      <trkpt lat="49.32758" lon="0.49333">
        <ele>27.0543213</ele>
        <time>2014-05-08T09:14:32Z</time>
      </trkpt>
      <trkpt lat="49.32769" lon="0.49342">
        <ele>24.651001</ele>
        <time>2014-05-08T09:14:51Z</time>
      </trkpt>
      <trkpt lat="49.32782" lon="0.49355">
        <ele>23.6895752</ele>
        <time>2014-05-08T09:15:08Z</time>
      </trkpt>
      <trkpt lat="49.32791" lon="0.49361">
        <ele>26.5736084</ele>
        <time>2014-05-08T09:15:15Z</time>
      </trkpt>
      <trkpt lat="49.32795" lon="0.49368">
        <ele>27.5349121</ele>
        <time>2014-05-08T09:15:22Z</time>
      </trkpt>
      <trkpt lat="49.32799" lon="0.49374">
        <ele>29.4575195</ele>
        <time>2014-05-08T09:15:30Z</time>
      </trkpt>
      <trkpt lat="49.32806" lon="0.49381">
        <ele>29.9381104</ele>
        <time>2014-05-08T09:15:38Z</time>
      </trkpt>
      <trkpt lat="49.32812" lon="0.49391">
        <ele>29.9381104</ele>
        <time>2014-05-08T09:15:52Z</time>
      </trkpt>
      <trkpt lat="49.32821" lon="0.49402">
        <ele>29.9381104</ele>
        <time>2014-05-08T09:16:00Z</time>
      </trkpt>
      <trkpt lat="49.32829" lon="0.49411">
        <ele>30.4188232</ele>
        <time>2014-05-08T09:16:13Z</time>
      </trkpt>
      <trkpt lat="49.32833" lon="0.49415">
        <ele>29.9381104</ele>
        <time>2014-05-08T09:16:20Z</time>
      </trkpt>
      <trkpt lat="49.3284" lon="0.49426">
        <ele>29.9381104</ele>
        <time>2014-05-08T09:16:29Z</time>
      </trkpt>
      <trkpt lat="49.32851" lon="0.49441">
        <ele>28.9769287</ele>
        <time>2014-05-08T09:16:41Z</time>
      </trkpt>
      <trkpt lat="49.32855" lon="0.49451">
        <ele>31.8607178</ele>
        <time>2014-05-08T09:16:47Z</time>
      </trkpt>
      <trkpt lat="49.32855" lon="0.49456">
        <ele>32.8222656</ele>
        <time>2014-05-08T09:16:49Z</time>
      </trkpt>
      <trkpt lat="49.32859" lon="0.49469">
        <ele>36.1867676</ele>
        <time>2014-05-08T09:17:00Z</time>
      </trkpt>
      <trkpt lat="49.32866" lon="0.49486">
        <ele>36.6674805</ele>
        <time>2014-05-08T09:17:13Z</time>
      </trkpt>
      <trkpt lat="49.32874" lon="0.49503">
        <ele>35.2254639</ele>
        <time>2014-05-08T09:17:25Z</time>
      </trkpt>
      <trkpt lat="49.32883" lon="0.49522">
        <ele>29.4575195</ele>
        <time>2014-05-08T09:17:41Z</time>
      </trkpt>
      <trkpt lat="49.32902" lon="0.49541">
        <ele>18.8830566</ele>
        <time>2014-05-08T09:18:07Z</time>
      </trkpt>
      <trkpt lat="49.32909" lon="0.49548">
        <ele>15.9990234</ele>
        <time>2014-05-08T09:18:15Z</time>
      </trkpt>
      <trkpt lat="49.32919" lon="0.49559">
        <ele>14.076416</ele>
        <time>2014-05-08T09:18:25Z</time>
      </trkpt>
      <trkpt lat="49.32928" lon="0.49563">
        <ele>9.7506104</ele>
        <time>2014-05-08T09:18:35Z</time>
      </trkpt>
      <trkpt lat="49.32943" lon="0.49572">
        <ele>6.8664551</ele>
        <time>2014-05-08T09:18:53Z</time>
      </trkpt>
      <trkpt lat="49.32954" lon="0.49589">
        <ele>6.8664551</ele>
        <time>2014-05-08T09:19:08Z</time>
      </trkpt>
      <trkpt lat="49.32956" lon="0.49591">
        <ele>8.3085938</ele>
        <time>2014-05-08T09:19:10Z</time>
      </trkpt>
      <trkpt lat="49.3296" lon="0.49595">
        <ele>11.1925049</ele>
        <time>2014-05-08T09:19:15Z</time>
      </trkpt>
      <trkpt lat="49.32962" lon="0.49602">
        <ele>16.9604492</ele>
        <time>2014-05-08T09:19:21Z</time>
      </trkpt>
      <trkpt lat="49.32964" lon="0.49604">
        <ele>19.8443604</ele>
        <time>2014-05-08T09:19:23Z</time>
      </trkpt>
      <trkpt lat="49.32969" lon="0.49614">
        <ele>24.651001</ele>
        <time>2014-05-08T09:19:29Z</time>
      </trkpt>
      <trkpt lat="49.32975" lon="0.49625">
        <ele>26.0928955</ele>
        <time>2014-05-08T09:19:37Z</time>
      </trkpt>
      <trkpt lat="49.32977" lon="0.49636">
        <ele>29.4575195</ele>
        <time>2014-05-08T09:19:44Z</time>
      </trkpt>
      <trkpt lat="49.32981" lon="0.49642">
        <ele>30.4188232</ele>
        <time>2014-05-08T09:19:51Z</time>
      </trkpt>
      <trkpt lat="49.32988" lon="0.49649">
        <ele>31.8607178</ele>
        <time>2014-05-08T09:19:58Z</time>
      </trkpt>
      <trkpt lat="49.32992" lon="0.49651">
        <ele>30.8995361</ele>
        <time>2014-05-08T09:20:05Z</time>
      </trkpt>
      <trkpt lat="49.33001" lon="0.49655">
        <ele>32.3415527</ele>
        <time>2014-05-08T09:20:14Z</time>
      </trkpt>
      <trkpt lat="49.33007" lon="0.49659">
        <ele>34.744873</ele>
        <time>2014-05-08T09:20:20Z</time>
      </trkpt>
      <trkpt lat="49.33016" lon="0.49662">
        <ele>32.3415527</ele>
        <time>2014-05-08T09:20:29Z</time>
      </trkpt>
      <trkpt lat="49.33027" lon="0.49675">
        <ele>32.3415527</ele>
        <time>2014-05-08T09:20:41Z</time>
      </trkpt>
      <trkpt lat="49.33029" lon="0.49677">
        <ele>32.3415527</ele>
        <time>2014-05-08T09:20:42Z</time>
      </trkpt>
      <trkpt lat="49.33033" lon="0.49683">
        <ele>35.7060547</ele>
        <time>2014-05-08T09:20:48Z</time>
      </trkpt>
      <trkpt lat="49.33039" lon="0.49694">
        <ele>37.6286621</ele>
        <time>2014-05-08T09:20:58Z</time>
      </trkpt>
      <trkpt lat="49.33044" lon="0.49698">
        <ele>38.5900879</ele>
        <time>2014-05-08T09:21:02Z</time>
      </trkpt>
      <trkpt lat="49.3305" lon="0.49702">
        <ele>37.6286621</ele>
        <time>2014-05-08T09:21:10Z</time>
      </trkpt>
      <trkpt lat="49.33059" lon="0.49707">
        <ele>44.838623</ele>
        <time>2014-05-08T09:21:18Z</time>
      </trkpt>
      <trkpt lat="49.33065" lon="0.49711">
        <ele>42.4354248</ele>
        <time>2014-05-08T09:21:37Z</time>
      </trkpt>
      <trkpt lat="49.33072" lon="0.49713">
        <ele>42.4354248</ele>
        <time>2014-05-08T09:21:43Z</time>
      </trkpt>
      <trkpt lat="49.33089" lon="0.49743">
        <ele>51.5678711</ele>
        <time>2014-05-08T09:22:12Z</time>
      </trkpt>
      <trkpt lat="49.33095" lon="0.49745">
        <ele>57.3358154</ele>
        <time>2014-05-08T09:22:19Z</time>
      </trkpt>
      <trkpt lat="49.331" lon="0.49747">
        <ele>62.142334</ele>
        <time>2014-05-08T09:22:26Z</time>
      </trkpt>
      <trkpt lat="49.33104" lon="0.49752">
        <ele>65.0263672</ele>
        <time>2014-05-08T09:22:33Z</time>
      </trkpt>
      <trkpt lat="49.33108" lon="0.49756">
        <ele>66.4682617</ele>
        <time>2014-05-08T09:22:40Z</time>
      </trkpt>
      <trkpt lat="49.33115" lon="0.49765">
        <ele>66.4682617</ele>
        <time>2014-05-08T09:22:52Z</time>
      </trkpt>
      <trkpt lat="49.33125" lon="0.49769">
        <ele>66.9489746</ele>
        <time>2014-05-08T09:23:09Z</time>
      </trkpt>
      <trkpt lat="49.3313" lon="0.49773">
        <ele>69.3522949</ele>
        <time>2014-05-08T09:23:16Z</time>
      </trkpt>
      <trkpt lat="49.33132" lon="0.49778">
        <ele>71.2749023</ele>
        <time>2014-05-08T09:23:19Z</time>
      </trkpt>
      <trkpt lat="49.33138" lon="0.49782">
        <ele>75.6008301</ele>
        <time>2014-05-08T09:23:24Z</time>
      </trkpt>
      <trkpt lat="49.3314" lon="0.49782">
        <ele>76.0814209</ele>
        <time>2014-05-08T09:23:26Z</time>
      </trkpt>
      <trkpt lat="49.33145" lon="0.49786">
        <ele>78.4847412</ele>
        <time>2014-05-08T09:23:29Z</time>
      </trkpt>
      <trkpt lat="49.33153" lon="0.49795">
        <ele>80.8881836</ele>
        <time>2014-05-08T09:23:38Z</time>
      </trkpt>
      <trkpt lat="49.33157" lon="0.49799">
        <ele>82.3300781</ele>
        <time>2014-05-08T09:23:43Z</time>
      </trkpt>
      <trkpt lat="49.33164" lon="0.49808">
        <ele>85.2139893</ele>
        <time>2014-05-08T09:23:51Z</time>
      </trkpt>
      <trkpt lat="49.33166" lon="0.4981">
        <ele>85.2139893</ele>
        <time>2014-05-08T09:23:53Z</time>
      </trkpt>
      <trkpt lat="49.33168" lon="0.49816">
        <ele>85.6945801</ele>
        <time>2014-05-08T09:23:59Z</time>
      </trkpt>
      <trkpt lat="49.33172" lon="0.49818">
        <ele>85.2139893</ele>
        <time>2014-05-08T09:24:05Z</time>
      </trkpt>
      <trkpt lat="49.33172" lon="0.49818">
        <ele>85.2139893</ele>
        <time>2014-05-08T09:24:06Z</time>
      </trkpt>
      <trkpt lat="49.33177" lon="0.49823">
        <ele>85.2139893</ele>
        <time>2014-05-08T09:24:15Z</time>
      </trkpt>
      <trkpt lat="49.33181" lon="0.49829">
        <ele>85.6945801</ele>
        <time>2014-05-08T09:24:22Z</time>
      </trkpt>
      <trkpt lat="49.3319" lon="0.49844">
        <ele>85.2139893</ele>
        <time>2014-05-08T09:24:42Z</time>
      </trkpt>
      <trkpt lat="49.3319" lon="0.49844">
        <ele>87.1365967</ele>
        <time>2014-05-08T09:28:50Z</time>
      </trkpt>
      <trkpt lat="49.33192" lon="0.49842">
        <ele>88.0980225</ele>
        <time>2014-05-08T09:29:53Z</time>
      </trkpt>
      <trkpt lat="49.33196" lon="0.49846">
        <ele>88.0980225</ele>
        <time>2014-05-08T09:30:02Z</time>
      </trkpt>
      <trkpt lat="49.332" lon="0.49855">
        <ele>90.5013428</ele>
        <time>2014-05-08T09:30:10Z</time>
      </trkpt>
      <trkpt lat="49.33203" lon="0.49855">
        <ele>90.5013428</ele>
        <time>2014-05-08T09:30:12Z</time>
      </trkpt>
      <trkpt lat="49.33209" lon="0.49863">
        <ele>91.4625244</ele>
        <time>2014-05-08T09:30:18Z</time>
      </trkpt>
      <trkpt lat="49.33215" lon="0.4987">
        <ele>91.4625244</ele>
        <time>2014-05-08T09:30:26Z</time>
      </trkpt>
      <trkpt lat="49.3322" lon="0.49874">
        <ele>91.9432373</ele>
        <time>2014-05-08T09:30:31Z</time>
      </trkpt>
      <trkpt lat="49.33224" lon="0.49878">
        <ele>92.4239502</ele>
        <time>2014-05-08T09:30:35Z</time>
      </trkpt>
      <trkpt lat="49.33226" lon="0.49881">
        <ele>92.904541</ele>
        <time>2014-05-08T09:30:37Z</time>
      </trkpt>
      <trkpt lat="49.33233" lon="0.49889">
        <ele>94.8271484</ele>
        <time>2014-05-08T09:30:44Z</time>
      </trkpt>
      <trkpt lat="49.33235" lon="0.49891">
        <ele>94.8271484</ele>
        <time>2014-05-08T09:30:45Z</time>
      </trkpt>
      <trkpt lat="49.33239" lon="0.499">
        <ele>93.8658447</ele>
        <time>2014-05-08T09:30:53Z</time>
      </trkpt>
      <trkpt lat="49.33245" lon="0.49906">
        <ele>92.904541</ele>
        <time>2014-05-08T09:31:03Z</time>
      </trkpt>
      <trkpt lat="49.33252" lon="0.49915">
        <ele>91.9432373</ele>
        <time>2014-05-08T09:31:12Z</time>
      </trkpt>
      <trkpt lat="49.3326" lon="0.49926">
        <ele>91.4625244</ele>
        <time>2014-05-08T09:31:22Z</time>
      </trkpt>
      <trkpt lat="49.33269" lon="0.49934">
        <ele>91.4625244</ele>
        <time>2014-05-08T09:31:32Z</time>
      </trkpt>
      <trkpt lat="49.33278" lon="0.49943">
        <ele>91.4625244</ele>
        <time>2014-05-08T09:31:39Z</time>
      </trkpt>
      <trkpt lat="49.33284" lon="0.49951">
        <ele>90.5013428</ele>
        <time>2014-05-08T09:31:46Z</time>
      </trkpt>
      <trkpt lat="49.3329" lon="0.49956">
        <ele>88.5787354</ele>
        <time>2014-05-08T09:31:52Z</time>
      </trkpt>
      <trkpt lat="49.33295" lon="0.49962">
        <ele>86.175293</ele>
        <time>2014-05-08T09:32:00Z</time>
      </trkpt>
      <trkpt lat="49.33303" lon="0.49975">
        <ele>83.2913818</ele>
        <time>2014-05-08T09:32:14Z</time>
      </trkpt>
      <trkpt lat="49.33312" lon="0.4999">
        <ele>84.7333984</ele>
        <time>2014-05-08T09:32:27Z</time>
      </trkpt>
      <trkpt lat="49.33318" lon="0.49999">
        <ele>85.2139893</ele>
        <time>2014-05-08T09:32:34Z</time>
      </trkpt>
      <trkpt lat="49.33325" lon="0.50009">
        <ele>85.6945801</ele>
        <time>2014-05-08T09:32:41Z</time>
      </trkpt>
      <trkpt lat="49.33329" lon="0.5002">
        <ele>85.6945801</ele>
        <time>2014-05-08T09:32:49Z</time>
      </trkpt>
      <trkpt lat="49.33338" lon="0.50044">
        <ele>85.6945801</ele>
        <time>2014-05-08T09:33:07Z</time>
      </trkpt>
      <trkpt lat="49.33351" lon="0.50074">
        <ele>85.2139893</ele>
        <time>2014-05-08T09:33:29Z</time>
      </trkpt>
      <trkpt lat="49.33357" lon="0.50097">
        <ele>86.6560059</ele>
        <time>2014-05-08T09:33:42Z</time>
      </trkpt>
      <trkpt lat="49.33361" lon="0.50106">
        <ele>87.1365967</ele>
        <time>2014-05-08T09:33:48Z</time>
      </trkpt>
      <trkpt lat="49.3337" lon="0.50114">
        <ele>88.5787354</ele>
        <time>2014-05-08T09:33:56Z</time>
      </trkpt>
      <trkpt lat="49.33374" lon="0.50123">
        <ele>88.5787354</ele>
        <time>2014-05-08T09:34:03Z</time>
      </trkpt>
      <trkpt lat="49.33383" lon="0.50138">
        <ele>88.5787354</ele>
        <time>2014-05-08T09:34:16Z</time>
      </trkpt>
      <trkpt lat="49.33389" lon="0.50149">
        <ele>88.0980225</ele>
        <time>2014-05-08T09:34:26Z</time>
      </trkpt>
      <trkpt lat="49.33396" lon="0.50162">
        <ele>87.6171875</ele>
        <time>2014-05-08T09:34:35Z</time>
      </trkpt>
      <trkpt lat="49.33404" lon="0.50185">
        <ele>85.6945801</ele>
        <time>2014-05-08T09:34:52Z</time>
      </trkpt>
      <trkpt lat="49.33413" lon="0.50209">
        <ele>86.6560059</ele>
        <time>2014-05-08T09:35:07Z</time>
      </trkpt>
      <trkpt lat="49.33415" lon="0.50215">
        <ele>86.6560059</ele>
        <time>2014-05-08T09:35:11Z</time>
      </trkpt>
      <trkpt lat="49.33421" lon="0.50226">
        <ele>86.6560059</ele>
        <time>2014-05-08T09:35:18Z</time>
      </trkpt>
      <trkpt lat="49.33428" lon="0.50235">
        <ele>87.1365967</ele>
        <time>2014-05-08T09:35:24Z</time>
      </trkpt>
      <trkpt lat="49.33432" lon="0.50245">
        <ele>86.6560059</ele>
        <time>2014-05-08T09:35:31Z</time>
      </trkpt>
      <trkpt lat="49.33439" lon="0.5026">
        <ele>86.6560059</ele>
        <time>2014-05-08T09:35:41Z</time>
      </trkpt>
      <trkpt lat="49.33445" lon="0.50269">
        <ele>86.6560059</ele>
        <time>2014-05-08T09:35:48Z</time>
      </trkpt>
      <trkpt lat="49.33449" lon="0.50275">
        <ele>86.175293</ele>
        <time>2014-05-08T09:35:54Z</time>
      </trkpt>
      <trkpt lat="49.33462" lon="0.50292">
        <ele>88.0980225</ele>
        <time>2014-05-08T09:36:10Z</time>
      </trkpt>
      <trkpt lat="49.33471" lon="0.50303">
        <ele>89.0593262</ele>
        <time>2014-05-08T09:36:22Z</time>
      </trkpt>
      <trkpt lat="49.33479" lon="0.50316">
        <ele>87.6171875</ele>
        <time>2014-05-08T09:36:31Z</time>
      </trkpt>
      <trkpt lat="49.33488" lon="0.50325">
        <ele>88.0980225</ele>
        <time>2014-05-08T09:36:40Z</time>
      </trkpt>
      <trkpt lat="49.33494" lon="0.50331">
        <ele>89.539917</ele>
        <time>2014-05-08T09:36:46Z</time>
      </trkpt>
      <trkpt lat="49.33503" lon="0.50338">
        <ele>91.4625244</ele>
        <time>2014-05-08T09:36:53Z</time>
      </trkpt>
      <trkpt lat="49.33514" lon="0.50348">
        <ele>92.4239502</ele>
        <time>2014-05-08T09:37:03Z</time>
      </trkpt>
      <trkpt lat="49.33522" lon="0.50355">
        <ele>94.3465576</ele>
        <time>2014-05-08T09:37:09Z</time>
      </trkpt>
      <trkpt lat="49.33529" lon="0.50361">
        <ele>94.8271484</ele>
        <time>2014-05-08T09:37:18Z</time>
      </trkpt>
      <trkpt lat="49.33537" lon="0.5037">
        <ele>95.3077393</ele>
        <time>2014-05-08T09:37:27Z</time>
      </trkpt>
      <trkpt lat="49.33544" lon="0.50376">
        <ele>95.3077393</ele>
        <time>2014-05-08T09:37:34Z</time>
      </trkpt>
      <trkpt lat="49.33559" lon="0.50387">
        <ele>95.7884521</ele>
        <time>2014-05-08T09:37:48Z</time>
      </trkpt>
      <trkpt lat="49.33567" lon="0.50391">
        <ele>95.7884521</ele>
        <time>2014-05-08T09:37:55Z</time>
      </trkpt>
      <trkpt lat="49.33569" lon="0.50391">
        <ele>96.2692871</ele>
        <time>2014-05-08T09:37:56Z</time>
      </trkpt>
      <trkpt lat="49.3358" lon="0.50395">
        <ele>97.7111816</ele>
        <time>2014-05-08T09:38:07Z</time>
      </trkpt>
      <trkpt lat="49.33591" lon="0.504">
        <ele>97.2304688</ele>
        <time>2014-05-08T09:38:15Z</time>
      </trkpt>
      <trkpt lat="49.33599" lon="0.50404">
        <ele>94.8271484</ele>
        <time>2014-05-08T09:38:22Z</time>
      </trkpt>
      <trkpt lat="49.3361" lon="0.50404">
        <ele>92.4239502</ele>
        <time>2014-05-08T09:38:32Z</time>
      </trkpt>
      <trkpt lat="49.33623" lon="0.50406">
        <ele>89.0593262</ele>
        <time>2014-05-08T09:38:44Z</time>
      </trkpt>
      <trkpt lat="49.33632" lon="0.50404">
        <ele>85.2139893</ele>
        <time>2014-05-08T09:38:54Z</time>
      </trkpt>
      <trkpt lat="49.33642" lon="0.50404">
        <ele>81.3687744</ele>
        <time>2014-05-08T09:39:03Z</time>
      </trkpt>
      <trkpt lat="49.33649" lon="0.50406">
        <ele>78.0040283</ele>
        <time>2014-05-08T09:39:12Z</time>
      </trkpt>
      <trkpt lat="49.33651" lon="0.50404">
        <ele>78.9654541</ele>
        <time>2014-05-08T09:39:14Z</time>
      </trkpt>
      <trkpt lat="49.3366" lon="0.50402">
        <ele>81.3687744</ele>
        <time>2014-05-08T09:39:22Z</time>
      </trkpt>
      <trkpt lat="49.33668" lon="0.50402">
        <ele>85.2139893</ele>
        <time>2014-05-08T09:39:29Z</time>
      </trkpt>
      <trkpt lat="49.33677" lon="0.50402">
        <ele>86.6560059</ele>
        <time>2014-05-08T09:39:34Z</time>
      </trkpt>
      <trkpt lat="49.33683" lon="0.50404">
        <ele>88.0980225</ele>
        <time>2014-05-08T09:39:41Z</time>
      </trkpt>
      <trkpt lat="49.33685" lon="0.50404">
        <ele>88.5787354</ele>
        <time>2014-05-08T09:39:44Z</time>
      </trkpt>
      <trkpt lat="49.33698" lon="0.50411">
        <ele>88.5787354</ele>
        <time>2014-05-08T09:39:54Z</time>
      </trkpt>
      <trkpt lat="49.33702" lon="0.50406">
        <ele>90.0206299</ele>
        <time>2014-05-08T09:40:01Z</time>
      </trkpt>
      <trkpt lat="49.33707" lon="0.50406">
        <ele>90.9819336</ele>
        <time>2014-05-08T09:40:04Z</time>
      </trkpt>
      <trkpt lat="49.33713" lon="0.50408">
        <ele>91.4625244</ele>
        <time>2014-05-08T09:40:10Z</time>
      </trkpt>
      <trkpt lat="49.33717" lon="0.50408">
        <ele>91.9432373</ele>
        <time>2014-05-08T09:40:13Z</time>
      </trkpt>
      <trkpt lat="49.33724" lon="0.50408">
        <ele>90.5013428</ele>
        <time>2014-05-08T09:40:23Z</time>
      </trkpt>
      <trkpt lat="49.3373" lon="0.50408">
        <ele>89.539917</ele>
        <time>2014-05-08T09:40:30Z</time>
      </trkpt>
      <trkpt lat="49.33735" lon="0.50408">
        <ele>90.0206299</ele>
        <time>2014-05-08T09:40:34Z</time>
      </trkpt>
      <trkpt lat="49.33748" lon="0.50408">
        <ele>90.9819336</ele>
        <time>2014-05-08T09:40:43Z</time>
      </trkpt>
      <trkpt lat="49.33752" lon="0.50411">
        <ele>90.9819336</ele>
        <time>2014-05-08T09:40:46Z</time>
      </trkpt>
      <trkpt lat="49.33758" lon="0.50413">
        <ele>91.4625244</ele>
        <time>2014-05-08T09:40:53Z</time>
      </trkpt>
      <trkpt lat="49.33763" lon="0.50411">
        <ele>91.9432373</ele>
        <time>2014-05-08T09:41:00Z</time>
      </trkpt>
      <trkpt lat="49.33769" lon="0.50411">
        <ele>94.3465576</ele>
        <time>2014-05-08T09:41:07Z</time>
      </trkpt>
      <trkpt lat="49.33773" lon="0.50411">
        <ele>95.3077393</ele>
        <time>2014-05-08T09:41:19Z</time>
      </trkpt>
      <trkpt lat="49.33775" lon="0.50411">
        <ele>96.2692871</ele>
        <time>2014-05-08T09:41:33Z</time>
      </trkpt>
      <trkpt lat="49.33782" lon="0.50413">
        <ele>97.2304688</ele>
        <time>2014-05-08T09:41:44Z</time>
      </trkpt>
      <trkpt lat="49.33786" lon="0.50413">
        <ele>97.7111816</ele>
        <time>2014-05-08T09:41:54Z</time>
      </trkpt>
      <trkpt lat="49.33793" lon="0.50415">
        <ele>97.2304688</ele>
        <time>2014-05-08T09:42:01Z</time>
      </trkpt>
      <trkpt lat="49.33803" lon="0.50415">
        <ele>97.2304688</ele>
        <time>2014-05-08T09:42:12Z</time>
      </trkpt>
      <trkpt lat="49.33812" lon="0.50417">
        <ele>95.3077393</ele>
        <time>2014-05-08T09:42:22Z</time>
      </trkpt>
      <trkpt lat="49.3382" lon="0.50417">
        <ele>94.3465576</ele>
        <time>2014-05-08T09:42:29Z</time>
      </trkpt>
      <trkpt lat="49.33829" lon="0.50419">
        <ele>95.7884521</ele>
        <time>2014-05-08T09:42:34Z</time>
      </trkpt>
      <trkpt lat="49.33842" lon="0.50421">
        <ele>98.1918945</ele>
        <time>2014-05-08T09:42:43Z</time>
      </trkpt>
      <trkpt lat="49.33846" lon="0.50419">
        <ele>98.1918945</ele>
        <time>2014-05-08T09:42:45Z</time>
      </trkpt>
      <trkpt lat="49.33859" lon="0.50423">
        <ele>98.6724854</ele>
        <time>2014-05-08T09:42:56Z</time>
      </trkpt>
      <trkpt lat="49.33863" lon="0.50423">
        <ele>98.6724854</ele>
        <time>2014-05-08T09:42:59Z</time>
      </trkpt>
      <trkpt lat="49.33868" lon="0.50423">
        <ele>98.1918945</ele>
        <time>2014-05-08T09:43:03Z</time>
      </trkpt>
      <trkpt lat="49.33878" lon="0.50428">
        <ele>99.1530762</ele>
        <time>2014-05-08T09:43:12Z</time>
      </trkpt>
      <trkpt lat="49.33885" lon="0.50428">
        <ele>97.7111816</ele>
        <time>2014-05-08T09:43:17Z</time>
      </trkpt>
      <trkpt lat="49.33887" lon="0.50428">
        <ele>96.2692871</ele>
        <time>2014-05-08T09:43:20Z</time>
      </trkpt>
      <trkpt lat="49.33891" lon="0.50428">
        <ele>94.8271484</ele>
        <time>2014-05-08T09:43:24Z</time>
      </trkpt>
      <trkpt lat="49.33902" lon="0.50428">
        <ele>92.904541</ele>
        <time>2014-05-08T09:43:33Z</time>
      </trkpt>
      <trkpt lat="49.33911" lon="0.5043">
        <ele>90.5013428</ele>
        <time>2014-05-08T09:43:41Z</time>
      </trkpt>
      <trkpt lat="49.33921" lon="0.5043">
        <ele>89.539917</ele>
        <time>2014-05-08T09:43:49Z</time>
      </trkpt>
      <trkpt lat="49.33926" lon="0.5043">
        <ele>90.5013428</ele>
        <time>2014-05-08T09:43:51Z</time>
      </trkpt>
      <trkpt lat="49.33939" lon="0.50432">
        <ele>92.4239502</ele>
        <time>2014-05-08T09:43:59Z</time>
      </trkpt>
      <trkpt lat="49.33949" lon="0.50434">
        <ele>95.3077393</ele>
        <time>2014-05-08T09:44:07Z</time>
      </trkpt>
      <trkpt lat="49.33958" lon="0.50434">
        <ele>95.3077393</ele>
        <time>2014-05-08T09:44:14Z</time>
      </trkpt>
      <trkpt lat="49.33966" lon="0.50436">
        <ele>97.7111816</ele>
        <time>2014-05-08T09:44:20Z</time>
      </trkpt>
      <trkpt lat="49.33977" lon="0.50438">
        <ele>97.7111816</ele>
        <time>2014-05-08T09:44:29Z</time>
      </trkpt>
      <trkpt lat="49.33986" lon="0.50438">
        <ele>96.2692871</ele>
        <time>2014-05-08T09:44:37Z</time>
      </trkpt>
      <trkpt lat="49.33999" lon="0.50441">
        <ele>95.7884521</ele>
        <time>2014-05-08T09:44:48Z</time>
      </trkpt>
      <trkpt lat="49.34005" lon="0.50443">
        <ele>96.2692871</ele>
        <time>2014-05-08T09:44:55Z</time>
      </trkpt>
      <trkpt lat="49.34011" lon="0.50443">
        <ele>96.7498779</ele>
        <time>2014-05-08T09:45:00Z</time>
      </trkpt>
      <trkpt lat="49.3402" lon="0.50443">
        <ele>95.7884521</ele>
        <time>2014-05-08T09:45:08Z</time>
      </trkpt>
      <trkpt lat="49.34029" lon="0.50443">
        <ele>94.8271484</ele>
        <time>2014-05-08T09:45:17Z</time>
      </trkpt>
      <trkpt lat="49.34037" lon="0.50445">
        <ele>95.3077393</ele>
        <time>2014-05-08T09:45:24Z</time>
      </trkpt>
      <trkpt lat="49.34046" lon="0.50445">
        <ele>96.2692871</ele>
        <time>2014-05-08T09:45:32Z</time>
      </trkpt>
      <trkpt lat="49.34052" lon="0.50445">
        <ele>95.7884521</ele>
        <time>2014-05-08T09:45:37Z</time>
      </trkpt>
      <trkpt lat="49.34057" lon="0.50447">
        <ele>95.7884521</ele>
        <time>2014-05-08T09:45:40Z</time>
      </trkpt>
      <trkpt lat="49.34065" lon="0.50449">
        <ele>97.2304688</ele>
        <time>2014-05-08T09:45:49Z</time>
      </trkpt>
      <trkpt lat="49.34076" lon="0.50451">
        <ele>97.2304688</ele>
        <time>2014-05-08T09:45:59Z</time>
      </trkpt>
      <trkpt lat="49.34087" lon="0.50449">
        <ele>96.2692871</ele>
        <time>2014-05-08T09:46:08Z</time>
      </trkpt>
      <trkpt lat="49.34091" lon="0.50449">
        <ele>96.2692871</ele>
        <time>2014-05-08T09:46:13Z</time>
      </trkpt>
      <trkpt lat="49.34099" lon="0.50453">
        <ele>98.1918945</ele>
        <time>2014-05-08T09:46:20Z</time>
      </trkpt>
      <trkpt lat="49.34102" lon="0.50453">
        <ele>98.1918945</ele>
        <time>2014-05-08T09:46:23Z</time>
      </trkpt>
      <trkpt lat="49.34108" lon="0.50453">
        <ele>97.7111816</ele>
        <time>2014-05-08T09:46:30Z</time>
      </trkpt>
      <trkpt lat="49.34119" lon="0.50458">
        <ele>96.2692871</ele>
        <time>2014-05-08T09:46:46Z</time>
      </trkpt>
      <trkpt lat="49.34123" lon="0.5046">
        <ele>96.7498779</ele>
        <time>2014-05-08T09:46:49Z</time>
      </trkpt>
      <trkpt lat="49.34136" lon="0.50464">
        <ele>98.6724854</ele>
        <time>2014-05-08T09:46:58Z</time>
      </trkpt>
      <trkpt lat="49.34142" lon="0.50464">
        <ele>98.6724854</ele>
        <time>2014-05-08T09:47:05Z</time>
      </trkpt>
      <trkpt lat="49.34153" lon="0.50468">
        <ele>100.5950928</ele>
        <time>2014-05-08T09:47:19Z</time>
      </trkpt>
      <trkpt lat="49.3416" lon="0.50473">
        <ele>101.5563965</ele>
        <time>2014-05-08T09:47:26Z</time>
      </trkpt>
      <trkpt lat="49.34166" lon="0.50479">
        <ele>102.0371094</ele>
        <time>2014-05-08T09:47:33Z</time>
      </trkpt>
      <trkpt lat="49.34172" lon="0.50486">
        <ele>102.998291</ele>
        <time>2014-05-08T09:47:42Z</time>
      </trkpt>
      <trkpt lat="49.34177" lon="0.5049">
        <ele>102.998291</ele>
        <time>2014-05-08T09:47:49Z</time>
      </trkpt>
      <trkpt lat="49.34187" lon="0.50503">
        <ele>102.5177002</ele>
        <time>2014-05-08T09:48:03Z</time>
      </trkpt>
      <trkpt lat="49.34196" lon="0.50514">
        <ele>102.0371094</ele>
        <time>2014-05-08T09:48:12Z</time>
      </trkpt>
      <trkpt lat="49.34205" lon="0.5052">
        <ele>101.5563965</ele>
        <time>2014-05-08T09:48:20Z</time>
      </trkpt>
      <trkpt lat="49.34222" lon="0.50535">
        <ele>99.6337891</ele>
        <time>2014-05-08T09:48:34Z</time>
      </trkpt>
      <trkpt lat="49.3423" lon="0.50544">
        <ele>99.1530762</ele>
        <time>2014-05-08T09:48:43Z</time>
      </trkpt>
      <trkpt lat="49.34241" lon="0.50552">
        <ele>97.7111816</ele>
        <time>2014-05-08T09:48:53Z</time>
      </trkpt>
      <trkpt lat="49.34254" lon="0.50563">
        <ele>93.3851318</ele>
        <time>2014-05-08T09:49:07Z</time>
      </trkpt>
      <trkpt lat="49.34263" lon="0.50574">
        <ele>89.539917</ele>
        <time>2014-05-08T09:49:16Z</time>
      </trkpt>
      <trkpt lat="49.34273" lon="0.5058">
        <ele>90.0206299</ele>
        <time>2014-05-08T09:49:23Z</time>
      </trkpt>
      <trkpt lat="49.34284" lon="0.5058">
        <ele>100.114502</ele>
        <time>2014-05-08T09:49:32Z</time>
      </trkpt>
      <trkpt lat="49.34293" lon="0.50586">
        <ele>102.0371094</ele>
        <time>2014-05-08T09:49:42Z</time>
      </trkpt>
      <trkpt lat="49.34299" lon="0.50591">
        <ele>101.5563965</ele>
        <time>2014-05-08T09:49:49Z</time>
      </trkpt>
      <trkpt lat="49.34308" lon="0.50604">
        <ele>98.6724854</ele>
        <time>2014-05-08T09:50:02Z</time>
      </trkpt>
      <trkpt lat="49.34327" lon="0.50629">
        <ele>92.904541</ele>
        <time>2014-05-08T09:50:33Z</time>
      </trkpt>
      <trkpt lat="49.34348" lon="0.50647">
        <ele>91.4625244</ele>
        <time>2014-05-08T09:53:37Z</time>
      </trkpt>
      <trkpt lat="49.34361" lon="0.50662">
        <ele>89.539917</ele>
        <time>2014-05-08T09:53:51Z</time>
      </trkpt>
      <trkpt lat="49.34372" lon="0.50677">
        <ele>85.2139893</ele>
        <time>2014-05-08T09:54:02Z</time>
      </trkpt>
      <trkpt lat="49.34381" lon="0.50692">
        <ele>81.3687744</ele>
        <time>2014-05-08T09:54:13Z</time>
      </trkpt>
      <trkpt lat="49.34385" lon="0.50707">
        <ele>77.0428467</ele>
        <time>2014-05-08T09:54:22Z</time>
      </trkpt>
      <trkpt lat="49.34387" lon="0.50713">
        <ele>75.1202393</ele>
        <time>2014-05-08T09:54:27Z</time>
      </trkpt>
      <trkpt lat="49.34391" lon="0.50722">
        <ele>73.6782227</ele>
        <time>2014-05-08T09:54:33Z</time>
      </trkpt>
      <trkpt lat="49.34396" lon="0.50737">
        <ele>71.2749023</ele>
        <time>2014-05-08T09:54:42Z</time>
      </trkpt>
      <trkpt lat="49.34402" lon="0.50758">
        <ele>68.3908691</ele>
        <time>2014-05-08T09:54:56Z</time>
      </trkpt>
      <trkpt lat="49.34406" lon="0.50777">
        <ele>64.0650635</ele>
        <time>2014-05-08T09:55:08Z</time>
      </trkpt>
      <trkpt lat="49.34408" lon="0.50803">
        <ele>58.2971191</ele>
        <time>2014-05-08T09:55:23Z</time>
      </trkpt>
      <trkpt lat="49.34402" lon="0.50831">
        <ele>52.5291748</ele>
        <time>2014-05-08T09:55:40Z</time>
      </trkpt>
      <trkpt lat="49.344" lon="0.50861">
        <ele>46.2806396</ele>
        <time>2014-05-08T09:55:57Z</time>
      </trkpt>
      <trkpt lat="49.344" lon="0.50874">
        <ele>43.3966064</ele>
        <time>2014-05-08T09:56:05Z</time>
      </trkpt>
      <trkpt lat="49.344" lon="0.50893">
        <ele>40.5128174</ele>
        <time>2014-05-08T09:56:16Z</time>
      </trkpt>
      <trkpt lat="49.34398" lon="0.50898">
        <ele>40.0321045</ele>
        <time>2014-05-08T09:56:19Z</time>
      </trkpt>
      <trkpt lat="49.34398" lon="0.50917">
        <ele>36.6674805</ele>
        <time>2014-05-08T09:56:31Z</time>
      </trkpt>
      <trkpt lat="49.34398" lon="0.50934">
        <ele>35.2254639</ele>
        <time>2014-05-08T09:56:41Z</time>
      </trkpt>
      <trkpt lat="49.34393" lon="0.50956">
        <ele>35.7060547</ele>
        <time>2014-05-08T09:56:52Z</time>
      </trkpt>
      <trkpt lat="49.34393" lon="0.5096">
        <ele>36.1867676</ele>
        <time>2014-05-08T09:56:55Z</time>
      </trkpt>
      <trkpt lat="49.34391" lon="0.50971">
        <ele>37.6286621</ele>
        <time>2014-05-08T09:57:01Z</time>
      </trkpt>
      <trkpt lat="49.34391" lon="0.50977">
        <ele>38.5900879</ele>
        <time>2014-05-08T09:57:04Z</time>
      </trkpt>
      <trkpt lat="49.34391" lon="0.50988">
        <ele>40.0321045</ele>
        <time>2014-05-08T09:57:11Z</time>
      </trkpt>
      <trkpt lat="49.34391" lon="0.51005">
        <ele>42.9160156</ele>
        <time>2014-05-08T09:57:21Z</time>
      </trkpt>
      <trkpt lat="49.34415" lon="0.51018">
        <ele>45.3192139</ele>
        <time>2014-05-08T09:57:55Z</time>
      </trkpt>
      <trkpt lat="49.34417" lon="0.51013">
        <ele>43.8773193</ele>
        <time>2014-05-08T09:57:58Z</time>
      </trkpt>
      <trkpt lat="49.34419" lon="0.51003">
        <ele>40.0321045</ele>
        <time>2014-05-08T09:58:07Z</time>
      </trkpt>
      <trkpt lat="49.34419" lon="0.50986">
        <ele>35.2254639</ele>
        <time>2014-05-08T09:58:17Z</time>
      </trkpt>
      <trkpt lat="49.34421" lon="0.50975">
        <ele>30.4188232</ele>
        <time>2014-05-08T09:58:25Z</time>
      </trkpt>
      <trkpt lat="49.34426" lon="0.50966">
        <ele>26.5736084</ele>
        <time>2014-05-08T09:58:32Z</time>
      </trkpt>
      <trkpt lat="49.3443" lon="0.50953">
        <ele>23.6895752</ele>
        <time>2014-05-08T09:58:41Z</time>
      </trkpt>
      <trkpt lat="49.34436" lon="0.50936">
        <ele>20.8056641</ele>
        <time>2014-05-08T09:58:53Z</time>
      </trkpt>
      <trkpt lat="49.34441" lon="0.50925">
        <ele>20.3249512</ele>
        <time>2014-05-08T09:58:59Z</time>
      </trkpt>
      <trkpt lat="49.34445" lon="0.50913">
        <ele>18.8830566</ele>
        <time>2014-05-08T09:59:09Z</time>
      </trkpt>
      <trkpt lat="49.34449" lon="0.50902">
        <ele>17.9217529</ele>
        <time>2014-05-08T09:59:17Z</time>
      </trkpt>
      <trkpt lat="49.34484" lon="0.50812">
        <ele>11.1925049</ele>
        <time>2014-05-08T10:00:23Z</time>
      </trkpt>
      <trkpt lat="49.34488" lon="0.5081">
        <ele>11.6732178</ele>
        <time>2014-05-08T10:00:25Z</time>
      </trkpt>
      <trkpt lat="49.34496" lon="0.50797">
        <ele>12.1538086</ele>
        <time>2014-05-08T10:00:34Z</time>
      </trkpt>
      <trkpt lat="49.34505" lon="0.50786">
        <ele>11.6732178</ele>
        <time>2014-05-08T10:00:42Z</time>
      </trkpt>
      <trkpt lat="49.34511" lon="0.50777">
        <ele>11.1925049</ele>
        <time>2014-05-08T10:00:50Z</time>
      </trkpt>
      <trkpt lat="49.34514" lon="0.50773">
        <ele>11.1925049</ele>
        <time>2014-05-08T10:00:53Z</time>
      </trkpt>
      <trkpt lat="49.34529" lon="0.50758">
        <ele>11.6732178</ele>
        <time>2014-05-08T10:01:07Z</time>
      </trkpt>
      <trkpt lat="49.34531" lon="0.50754">
        <ele>11.6732178</ele>
        <time>2014-05-08T10:01:09Z</time>
      </trkpt>
      <trkpt lat="49.34544" lon="0.50739">
        <ele>13.1151123</ele>
        <time>2014-05-08T10:01:21Z</time>
      </trkpt>
      <trkpt lat="49.34546" lon="0.50735">
        <ele>13.5958252</ele>
        <time>2014-05-08T10:01:25Z</time>
      </trkpt>
      <trkpt lat="49.34552" lon="0.50726">
        <ele>15.0377197</ele>
        <time>2014-05-08T10:01:32Z</time>
      </trkpt>
      <trkpt lat="49.34565" lon="0.50717">
        <ele>17.9217529</ele>
        <time>2014-05-08T10:01:43Z</time>
      </trkpt>
      <trkpt lat="49.3458" lon="0.50711">
        <ele>21.286377</ele>
        <time>2014-05-08T10:01:54Z</time>
      </trkpt>
      <trkpt lat="49.34591" lon="0.50709">
        <ele>22.7282715</ele>
        <time>2014-05-08T10:02:01Z</time>
      </trkpt>
      <trkpt lat="49.34599" lon="0.50704">
        <ele>22.7282715</ele>
        <time>2014-05-08T10:02:09Z</time>
      </trkpt>
      <trkpt lat="49.34608" lon="0.50707">
        <ele>22.2475586</ele>
        <time>2014-05-08T10:02:24Z</time>
      </trkpt>
      <trkpt lat="49.34619" lon="0.50707">
        <ele>20.8056641</ele>
        <time>2014-05-08T10:02:36Z</time>
      </trkpt>
      <trkpt lat="49.34629" lon="0.50707">
        <ele>20.3249512</ele>
        <time>2014-05-08T10:02:45Z</time>
      </trkpt>
      <trkpt lat="49.34644" lon="0.50707">
        <ele>17.9217529</ele>
        <time>2014-05-08T10:02:55Z</time>
      </trkpt>
      <trkpt lat="49.34657" lon="0.50707">
        <ele>16.9604492</ele>
        <time>2014-05-08T10:03:04Z</time>
      </trkpt>
      <trkpt lat="49.3467" lon="0.50707">
        <ele>17.9217529</ele>
        <time>2014-05-08T10:03:14Z</time>
      </trkpt>
      <trkpt lat="49.34677" lon="0.50707">
        <ele>17.4411621</ele>
        <time>2014-05-08T10:03:19Z</time>
      </trkpt>
      <trkpt lat="49.34685" lon="0.50709">
        <ele>17.9217529</ele>
        <time>2014-05-08T10:03:26Z</time>
      </trkpt>
      <trkpt lat="49.34692" lon="0.50711">
        <ele>18.4023438</ele>
        <time>2014-05-08T10:03:33Z</time>
      </trkpt>
      <trkpt lat="49.34702" lon="0.50711">
        <ele>19.3637695</ele>
        <time>2014-05-08T10:03:41Z</time>
      </trkpt>
      <trkpt lat="49.34717" lon="0.50711">
        <ele>20.8056641</ele>
        <time>2014-05-08T10:03:52Z</time>
      </trkpt>
      <trkpt lat="49.34726" lon="0.50711">
        <ele>20.8056641</ele>
        <time>2014-05-08T10:04:00Z</time>
      </trkpt>
      <trkpt lat="49.34741" lon="0.50713">
        <ele>20.8056641</ele>
        <time>2014-05-08T10:04:12Z</time>
      </trkpt>
      <trkpt lat="49.3475" lon="0.50713">
        <ele>20.8056641</ele>
        <time>2014-05-08T10:04:20Z</time>
      </trkpt>
      <trkpt lat="49.34752" lon="0.50715">
        <ele>20.8056641</ele>
        <time>2014-05-08T10:04:22Z</time>
      </trkpt>
      <trkpt lat="49.34756" lon="0.50715">
        <ele>19.8443604</ele>
        <time>2014-05-08T10:04:26Z</time>
      </trkpt>
      <trkpt lat="49.34769" lon="0.50717">
        <ele>18.8830566</ele>
        <time>2014-05-08T10:04:36Z</time>
      </trkpt>
      <trkpt lat="49.34769" lon="0.50717">
        <ele>18.8830566</ele>
        <time>2014-05-08T10:04:37Z</time>
      </trkpt>
      <trkpt lat="49.34773" lon="0.5072">
        <ele>18.4023438</ele>
        <time>2014-05-08T10:04:41Z</time>
      </trkpt>
      <trkpt lat="49.34786" lon="0.50724">
        <ele>17.9217529</ele>
        <time>2014-05-08T10:04:51Z</time>
      </trkpt>
      <trkpt lat="49.34797" lon="0.50726">
        <ele>17.9217529</ele>
        <time>2014-05-08T10:05:01Z</time>
      </trkpt>
      <trkpt lat="49.3481" lon="0.5073">
        <ele>17.9217529</ele>
        <time>2014-05-08T10:05:12Z</time>
      </trkpt>
      <trkpt lat="49.34816" lon="0.50732">
        <ele>16.9604492</ele>
        <time>2014-05-08T10:05:19Z</time>
      </trkpt>
      <trkpt lat="49.34818" lon="0.50732">
        <ele>16.4797363</ele>
        <time>2014-05-08T10:05:21Z</time>
      </trkpt>
      <trkpt lat="49.34825" lon="0.50737">
        <ele>15.5184326</ele>
        <time>2014-05-08T10:05:27Z</time>
      </trkpt>
      <trkpt lat="49.34835" lon="0.50741">
        <ele>13.5958252</ele>
        <time>2014-05-08T10:05:36Z</time>
      </trkpt>
      <trkpt lat="49.34844" lon="0.50743">
        <ele>11.6732178</ele>
        <time>2014-05-08T10:05:46Z</time>
      </trkpt>
      <trkpt lat="49.34846" lon="0.50747">
        <ele>9.7506104</ele>
        <time>2014-05-08T10:05:49Z</time>
      </trkpt>
      <trkpt lat="49.34848" lon="0.50747">
        <ele>7.347168</ele>
        <time>2014-05-08T10:05:52Z</time>
      </trkpt>
      <trkpt lat="49.34861" lon="0.50752">
        <ele>2.0600586</ele>
        <time>2014-05-08T10:06:02Z</time>
      </trkpt>
      <trkpt lat="49.34868" lon="0.50752">
        <ele>-0.8240967</ele>
        <time>2014-05-08T10:06:09Z</time>
      </trkpt>
      <trkpt lat="49.34872" lon="0.50758">
        <ele>-3.2272949</ele>
        <time>2014-05-08T10:06:15Z</time>
      </trkpt>
      <trkpt lat="49.34881" lon="0.5076">
        <ele>-4.1885986</ele>
        <time>2014-05-08T10:06:21Z</time>
      </trkpt>
      <trkpt lat="49.34887" lon="0.50767">
        <ele>-2.7467041</ele>
        <time>2014-05-08T10:06:32Z</time>
      </trkpt>
      <trkpt lat="49.34887" lon="0.50771">
        <ele>-2.2659912</ele>
        <time>2014-05-08T10:06:48Z</time>
      </trkpt>
      <trkpt lat="49.34893" lon="0.50773">
        <ele>1.0986328</ele>
        <time>2014-05-08T10:07:37Z</time>
      </trkpt>
      <trkpt lat="49.349" lon="0.50788">
        <ele>3.5019531</ele>
        <time>2014-05-08T10:07:47Z</time>
      </trkpt>
      <trkpt lat="49.34911" lon="0.50803">
        <ele>3.982666</ele>
        <time>2014-05-08T10:07:58Z</time>
      </trkpt>
      <trkpt lat="49.34921" lon="0.50818">
        <ele>4.9438477</ele>
        <time>2014-05-08T10:08:11Z</time>
      </trkpt>
      <trkpt lat="49.3493" lon="0.50831">
        <ele>5.4245605</ele>
        <time>2014-05-08T10:08:21Z</time>
      </trkpt>
      <trkpt lat="49.34936" lon="0.5084">
        <ele>5.4245605</ele>
        <time>2014-05-08T10:08:28Z</time>
      </trkpt>
      <trkpt lat="49.34945" lon="0.50853">
        <ele>3.982666</ele>
        <time>2014-05-08T10:08:39Z</time>
      </trkpt>
      <trkpt lat="49.34953" lon="0.50861">
        <ele>1.0986328</ele>
        <time>2014-05-08T10:08:50Z</time>
      </trkpt>
      <trkpt lat="49.34958" lon="0.50865">
        <ele>-1.3046875</ele>
        <time>2014-05-08T10:08:57Z</time>
      </trkpt>
      <trkpt lat="49.34962" lon="0.5087">
        <ele>-2.7467041</ele>
        <time>2014-05-08T10:09:03Z</time>
      </trkpt>
      <trkpt lat="49.34966" lon="0.50876">
        <ele>-3.7078857</ele>
        <time>2014-05-08T10:09:10Z</time>
      </trkpt>
      <trkpt lat="49.34979" lon="0.50883">
        <ele>-3.7078857</ele>
        <time>2014-05-08T10:09:18Z</time>
      </trkpt>
      <trkpt lat="49.3499" lon="0.50891">
        <ele>-1.7852783</ele>
        <time>2014-05-08T10:09:28Z</time>
      </trkpt>
      <trkpt lat="49.34992" lon="0.50895">
        <ele>-1.3046875</ele>
        <time>2014-05-08T10:09:33Z</time>
      </trkpt>
      <trkpt lat="49.34996" lon="0.50902">
        <ele>0.1374512</ele>
        <time>2014-05-08T10:09:37Z</time>
      </trkpt>
      <trkpt lat="49.35007" lon="0.50913">
        <ele>1.0986328</ele>
        <time>2014-05-08T10:09:47Z</time>
      </trkpt>
      <trkpt lat="49.35016" lon="0.50917">
        <ele>1.5793457</ele>
        <time>2014-05-08T10:09:53Z</time>
      </trkpt>
      <trkpt lat="49.35022" lon="0.50925">
        <ele>0.1374512</ele>
        <time>2014-05-08T10:10:02Z</time>
      </trkpt>
      <trkpt lat="49.35033" lon="0.50936">
        <ele>0.1374512</ele>
        <time>2014-05-08T10:10:12Z</time>
      </trkpt>
      <trkpt lat="49.35041" lon="0.50947">
        <ele>2.0600586</ele>
        <time>2014-05-08T10:10:22Z</time>
      </trkpt>
      <trkpt lat="49.35046" lon="0.50953">
        <ele>-0.8240967</ele>
        <time>2014-05-08T10:10:30Z</time>
      </trkpt>
      <trkpt lat="49.35048" lon="0.50956">
        <ele>-1.3046875</ele>
        <time>2014-05-08T10:10:32Z</time>
      </trkpt>
      <trkpt lat="49.35061" lon="0.50966">
        <ele>0.1374512</ele>
        <time>2014-05-08T10:10:42Z</time>
      </trkpt>
      <trkpt lat="49.35071" lon="0.50975">
        <ele>0.618042</ele>
        <time>2014-05-08T10:10:52Z</time>
      </trkpt>
      <trkpt lat="49.35082" lon="0.50986">
        <ele>3.5019531</ele>
        <time>2014-05-08T10:11:01Z</time>
      </trkpt>
      <trkpt lat="49.35093" lon="0.50998">
        <ele>4.9438477</ele>
        <time>2014-05-08T10:11:11Z</time>
      </trkpt>
      <trkpt lat="49.35106" lon="0.51011">
        <ele>4.4632568</ele>
        <time>2014-05-08T10:11:24Z</time>
      </trkpt>
      <trkpt lat="49.3511" lon="0.51016">
        <ele>4.9438477</ele>
        <time>2014-05-08T10:11:29Z</time>
      </trkpt>
      <trkpt lat="49.35119" lon="0.51026">
        <ele>6.3858643</ele>
        <time>2014-05-08T10:11:38Z</time>
      </trkpt>
      <trkpt lat="49.35123" lon="0.51033">
        <ele>4.9438477</ele>
        <time>2014-05-08T10:11:46Z</time>
      </trkpt>
      <trkpt lat="49.35132" lon="0.51039">
        <ele>4.4632568</ele>
        <time>2014-05-08T10:11:53Z</time>
      </trkpt>
      <trkpt lat="49.3514" lon="0.5105">
        <ele>3.982666</ele>
        <time>2014-05-08T10:12:01Z</time>
      </trkpt>
      <trkpt lat="49.35144" lon="0.51059">
        <ele>1.5793457</ele>
        <time>2014-05-08T10:12:09Z</time>
      </trkpt>
      <trkpt lat="49.35149" lon="0.51065">
        <ele>-0.8240967</ele>
        <time>2014-05-08T10:12:16Z</time>
      </trkpt>
      <trkpt lat="49.35153" lon="0.51071">
        <ele>-3.2272949</ele>
        <time>2014-05-08T10:12:25Z</time>
      </trkpt>
      <trkpt lat="49.35157" lon="0.5108">
        <ele>-5.6304932</ele>
        <time>2014-05-08T10:12:33Z</time>
      </trkpt>
      <trkpt lat="49.35166" lon="0.51086">
        <ele>-8.0339355</ele>
        <time>2014-05-08T10:12:41Z</time>
      </trkpt>
      <trkpt lat="49.35172" lon="0.51091">
        <ele>-11.3984375</ele>
        <time>2014-05-08T10:12:48Z</time>
      </trkpt>
      <trkpt lat="49.35179" lon="0.51097">
        <ele>-12.3598633</ele>
        <time>2014-05-08T10:12:54Z</time>
      </trkpt>
      <trkpt lat="49.35185" lon="0.51106">
        <ele>-13.8017578</ele>
        <time>2014-05-08T10:13:01Z</time>
      </trkpt>
      <trkpt lat="49.35196" lon="0.51112">
        <ele>-13.3210449</ele>
        <time>2014-05-08T10:13:06Z</time>
      </trkpt>
      <trkpt lat="49.352" lon="0.51116">
        <ele>-12.8404541</ele>
        <time>2014-05-08T10:13:11Z</time>
      </trkpt>
      <trkpt lat="49.35205" lon="0.51123">
        <ele>-10.4372559</ele>
        <time>2014-05-08T10:13:18Z</time>
      </trkpt>
      <trkpt lat="49.35209" lon="0.51131">
        <ele>-9.956543</ele>
        <time>2014-05-08T10:13:26Z</time>
      </trkpt>
      <trkpt lat="49.35209" lon="0.51136">
        <ele>-9.956543</ele>
        <time>2014-05-08T10:13:29Z</time>
      </trkpt>
      <trkpt lat="49.35213" lon="0.51142">
        <ele>-10.9178467</ele>
        <time>2014-05-08T10:13:34Z</time>
      </trkpt>
      <trkpt lat="49.35222" lon="0.51149">
        <ele>-13.3210449</ele>
        <time>2014-05-08T10:13:43Z</time>
      </trkpt>
      <trkpt lat="49.3523" lon="0.51153">
        <ele>-13.8017578</ele>
        <time>2014-05-08T10:13:49Z</time>
      </trkpt>
      <trkpt lat="49.35247" lon="0.51168">
        <ele>-11.3984375</ele>
        <time>2014-05-08T10:13:58Z</time>
      </trkpt>
      <trkpt lat="49.35252" lon="0.51177">
        <ele>-10.4372559</ele>
        <time>2014-05-08T10:14:06Z</time>
      </trkpt>
      <trkpt lat="49.35258" lon="0.51183">
        <ele>-10.9178467</ele>
        <time>2014-05-08T10:14:13Z</time>
      </trkpt>
      <trkpt lat="49.35262" lon="0.51192">
        <ele>-11.8791504</ele>
        <time>2014-05-08T10:14:20Z</time>
      </trkpt>
      <trkpt lat="49.35262" lon="0.51202">
        <ele>-11.3984375</ele>
        <time>2014-05-08T10:14:28Z</time>
      </trkpt>
      <trkpt lat="49.35265" lon="0.51207">
        <ele>-11.3984375</ele>
        <time>2014-05-08T10:14:31Z</time>
      </trkpt>
      <trkpt lat="49.35273" lon="0.51217">
        <ele>-8.5146484</ele>
        <time>2014-05-08T10:14:36Z</time>
      </trkpt>
      <trkpt lat="49.35284" lon="0.51224">
        <ele>-5.1499023</ele>
        <time>2014-05-08T10:14:44Z</time>
      </trkpt>
      <trkpt lat="49.3529" lon="0.5123">
        <ele>-3.2272949</ele>
        <time>2014-05-08T10:14:53Z</time>
      </trkpt>
      <trkpt lat="49.35292" lon="0.5123">
        <ele>-1.7852783</ele>
        <time>2014-05-08T10:15:20Z</time>
      </trkpt>
      <trkpt lat="49.35292" lon="0.5123">
        <ele>-1.7852783</ele>
        <time>2014-05-08T10:15:33Z</time>
      </trkpt>
      <trkpt lat="49.35295" lon="0.51234">
        <ele>-1.3046875</ele>
        <time>2014-05-08T10:15:57Z</time>
      </trkpt>
      <trkpt lat="49.35297" lon="0.51245">
        <ele>0.618042</ele>
        <time>2014-05-08T10:16:05Z</time>
      </trkpt>
      <trkpt lat="49.35299" lon="0.51258">
        <ele>1.5793457</ele>
        <time>2014-05-08T10:16:17Z</time>
      </trkpt>
      <trkpt lat="49.35305" lon="0.51262">
        <ele>0.1374512</ele>
        <time>2014-05-08T10:16:29Z</time>
      </trkpt>
      <trkpt lat="49.35308" lon="0.51273">
        <ele>-4.6693115</ele>
        <time>2014-05-08T10:16:47Z</time>
      </trkpt>
      <trkpt lat="49.35318" lon="0.51286">
        <ele>-7.0725098</ele>
        <time>2014-05-08T10:16:58Z</time>
      </trkpt>
      <trkpt lat="49.35329" lon="0.51299">
        <ele>-10.4372559</ele>
        <time>2014-05-08T10:17:12Z</time>
      </trkpt>
      <trkpt lat="49.35333" lon="0.51305">
        <ele>-11.8791504</ele>
        <time>2014-05-08T10:17:17Z</time>
      </trkpt>
      <trkpt lat="49.35346" lon="0.51316">
        <ele>-17.6470947</ele>
        <time>2014-05-08T10:17:30Z</time>
      </trkpt>
      <trkpt lat="49.35363" lon="0.51335">
        <ele>-22.9342041</ele>
        <time>2014-05-08T10:17:45Z</time>
      </trkpt>
      <trkpt lat="49.35365" lon="0.51346">
        <ele>-21.0115967</ele>
        <time>2014-05-08T10:17:49Z</time>
      </trkpt>
      <trkpt lat="49.35374" lon="0.51355">
        <ele>-17.1663818</ele>
        <time>2014-05-08T10:17:54Z</time>
      </trkpt>
      <trkpt lat="49.35383" lon="0.51363">
        <ele>-16.2052002</ele>
        <time>2014-05-08T10:18:01Z</time>
      </trkpt>
      <trkpt lat="49.35387" lon="0.51374">
        <ele>-16.2052002</ele>
        <time>2014-05-08T10:18:09Z</time>
      </trkpt>
      <trkpt lat="49.35389" lon="0.51378">
        <ele>-17.6470947</ele>
        <time>2014-05-08T10:18:17Z</time>
      </trkpt>
      <trkpt lat="49.35398" lon="0.51385">
        <ele>-19.5697021</ele>
        <time>2014-05-08T10:18:25Z</time>
      </trkpt>
      <trkpt lat="49.35402" lon="0.51402">
        <ele>-19.0889893</ele>
        <time>2014-05-08T10:18:36Z</time>
      </trkpt>
      <trkpt lat="49.35404" lon="0.5141">
        <ele>-15.2436523</ele>
        <time>2014-05-08T10:18:46Z</time>
      </trkpt>
      <trkpt lat="49.35421" lon="0.51428">
        <ele>-14.7630615</ele>
        <time>2014-05-08T10:19:02Z</time>
      </trkpt>
      <trkpt lat="49.35432" lon="0.51432">
        <ele>-13.3210449</ele>
        <time>2014-05-08T10:19:09Z</time>
      </trkpt>
      <trkpt lat="49.35438" lon="0.51436">
        <ele>-11.8791504</ele>
        <time>2014-05-08T10:19:15Z</time>
      </trkpt>
      <trkpt lat="49.35447" lon="0.5144">
        <ele>-11.3984375</ele>
        <time>2014-05-08T10:19:20Z</time>
      </trkpt>
      <trkpt lat="49.35449" lon="0.51449">
        <ele>-10.9178467</ele>
        <time>2014-05-08T10:19:30Z</time>
      </trkpt>
      <trkpt lat="49.35449" lon="0.51458">
        <ele>-11.3984375</ele>
        <time>2014-05-08T10:19:36Z</time>
      </trkpt>
      <trkpt lat="49.35447" lon="0.5146">
        <ele>-11.3984375</ele>
        <time>2014-05-08T10:19:39Z</time>
      </trkpt>
      <trkpt lat="49.35447" lon="0.51466">
        <ele>-12.3598633</ele>
        <time>2014-05-08T10:19:46Z</time>
      </trkpt>
      <trkpt lat="49.35449" lon="0.51481">
        <ele>-16.2052002</ele>
        <time>2014-05-08T10:19:57Z</time>
      </trkpt>
      <trkpt lat="49.35449" lon="0.51496">
        <ele>-18.1278076</ele>
        <time>2014-05-08T10:20:04Z</time>
      </trkpt>
      <trkpt lat="49.35449" lon="0.51507">
        <ele>-20.5310059</ele>
        <time>2014-05-08T10:20:11Z</time>
      </trkpt>
      <trkpt lat="49.35447" lon="0.5152">
        <ele>-23.414917</ele>
        <time>2014-05-08T10:20:18Z</time>
      </trkpt>
      <trkpt lat="49.35443" lon="0.51533">
        <ele>-25.8183594</ele>
        <time>2014-05-08T10:20:26Z</time>
      </trkpt>
      <trkpt lat="49.35443" lon="0.51533">
        <ele>-25.8183594</ele>
        <time>2014-05-08T10:20:27Z</time>
      </trkpt>
      <trkpt lat="49.35434" lon="0.51546">
        <ele>-28.7021484</ele>
        <time>2014-05-08T10:20:38Z</time>
      </trkpt>
      <trkpt lat="49.35432" lon="0.51556">
        <ele>-29.1828613</ele>
        <time>2014-05-08T10:20:46Z</time>
      </trkpt>
      <trkpt lat="49.35432" lon="0.51558">
        <ele>-28.7021484</ele>
        <time>2014-05-08T10:20:49Z</time>
      </trkpt>
      <trkpt lat="49.35432" lon="0.51561">
        <ele>-27.2602539</ele>
        <time>2014-05-08T10:20:51Z</time>
      </trkpt>
      <trkpt lat="49.35436" lon="0.51565">
        <ele>-24.3763428</ele>
        <time>2014-05-08T10:20:57Z</time>
      </trkpt>
      <trkpt lat="49.35438" lon="0.51567">
        <ele>-23.414917</ele>
        <time>2014-05-08T10:21:01Z</time>
      </trkpt>
      <trkpt lat="49.35443" lon="0.51571">
        <ele>-21.9730225</ele>
        <time>2014-05-08T10:21:05Z</time>
      </trkpt>
      <trkpt lat="49.35447" lon="0.51578">
        <ele>-15.2436523</ele>
        <time>2014-05-08T10:21:12Z</time>
      </trkpt>
      <trkpt lat="49.35451" lon="0.51584">
        <ele>-11.8791504</ele>
        <time>2014-05-08T10:21:19Z</time>
      </trkpt>
      <trkpt lat="49.35456" lon="0.51597">
        <ele>-10.4372559</ele>
        <time>2014-05-08T10:21:25Z</time>
      </trkpt>
      <trkpt lat="49.35462" lon="0.51604">
        <ele>-5.1499023</ele>
        <time>2014-05-08T10:21:33Z</time>
      </trkpt>
      <trkpt lat="49.35468" lon="0.51604">
        <ele>-5.1499023</ele>
        <time>2014-05-08T10:21:38Z</time>
      </trkpt>
      <trkpt lat="49.35475" lon="0.51612">
        <ele>-4.1885986</ele>
        <time>2014-05-08T10:21:47Z</time>
      </trkpt>
      <trkpt lat="49.35475" lon="0.51614">
        <ele>-3.7078857</ele>
        <time>2014-05-08T10:21:49Z</time>
      </trkpt>
      <trkpt lat="49.35483" lon="0.51621">
        <ele>-2.2659912</ele>
        <time>2014-05-08T10:21:57Z</time>
      </trkpt>
      <trkpt lat="49.3549" lon="0.51629">
        <ele>0.1374512</ele>
        <time>2014-05-08T10:22:05Z</time>
      </trkpt>
      <trkpt lat="49.35492" lon="0.51636">
        <ele>2.0600586</ele>
        <time>2014-05-08T10:22:14Z</time>
      </trkpt>
      <trkpt lat="49.35492" lon="0.51638">
        <ele>2.0600586</ele>
        <time>2014-05-08T10:22:38Z</time>
      </trkpt>
      <trkpt lat="49.35492" lon="0.51636">
        <ele>2.5406494</ele>
        <time>2014-05-08T10:22:48Z</time>
      </trkpt>
      <trkpt lat="49.35492" lon="0.51634">
        <ele>2.5406494</ele>
        <time>2014-05-08T10:22:58Z</time>
      </trkpt>
      <trkpt lat="49.35496" lon="0.51629">
        <ele>5.4245605</ele>
        <time>2014-05-08T10:23:34Z</time>
      </trkpt>
      <trkpt lat="49.35496" lon="0.51629">
        <ele>5.9052734</ele>
        <time>2014-05-08T10:23:43Z</time>
      </trkpt>
      <trkpt lat="49.35496" lon="0.51629">
        <ele>6.3858643</ele>
        <time>2014-05-08T10:24:05Z</time>
      </trkpt>
      <trkpt lat="49.35496" lon="0.51627">
        <ele>7.347168</ele>
        <time>2014-05-08T10:24:17Z</time>
      </trkpt>
      <trkpt lat="49.35496" lon="0.51627">
        <ele>7.347168</ele>
        <time>2014-05-08T10:24:23Z</time>
      </trkpt>
      <trkpt lat="49.35494" lon="0.51634">
        <ele>8.3085938</ele>
        <time>2014-05-08T10:24:30Z</time>
      </trkpt>
      <trkpt lat="49.35494" lon="0.51631">
        <ele>7.347168</ele>
        <time>2014-05-08T10:24:38Z</time>
      </trkpt>
    </trkseg>
  </trk>
</gpx>